Time,TemperatureF,DewpointF,PressureIn,WindDirection,WindDirectionDegrees,WindSpeedMPH,WindSpeedGustMPH,Humidity,HourlyPrecipIn,Conditions,Clouds,dailyrainin,SoftwareType,DateUTC
2013-03-24 00:00:00,43.5,38.6,29.86,East,90,0.0,0.0,83,0.10,,,0.14,WUHU216HW,2013-03-24 04:00:00,
2013-03-24 00:01:00,43.5,38.6,29.86,North,0,0.0,0.0,83,0.10,,,0.14,WUHU216HW,2013-03-24 04:01:00,
2013-03-24 00:02:00,43.5,38.6,29.86,North,0,0.0,0.0,83,0.10,,,0.14,WUHU216HW,2013-03-24 04:02:00,
2013-03-24 00:03:00,43.3,38.5,29.86,ENE,68,4.6,4.6,83,0.10,,,0.14,WUHU216HW,2013-03-24 04:03:00,
2013-03-24 00:04:00,43.3,38.5,29.86,ENE,68,4.6,4.6,83,0.10,,,0.14,WUHU216HW,2013-03-24 04:04:00,
2013-03-24 00:05:00,43.3,38.5,29.87,NE,45,0.0,4.6,83,0.12,,,0.14,WUHU216HW,2013-03-24 04:05:00,
2013-03-24 00:06:00,43.3,38.5,29.87,NE,45,0.0,4.6,83,0.12,,,0.16,WUHU216HW,2013-03-24 04:06:00,
2013-03-24 00:07:00,43.3,38.5,29.87,ENE,68,0.0,4.6,83,0.12,,,0.16,WUHU216HW,2013-03-24 04:07:00,
2013-03-24 00:08:00,43.3,38.5,29.87,ENE,68,0.0,4.6,83,0.12,,,0.16,WUHU216HW,2013-03-24 04:08:00,
2013-03-24 00:09:00,43.3,38.5,29.87,NE,45,1.5,4.6,83,0.12,,,0.16,WUHU216HW,2013-03-24 04:09:00,
2013-03-24 00:10:00,43.3,38.5,29.87,NE,45,1.5,4.6,83,0.12,,,0.16,WUHU216HW,2013-03-24 04:10:00,
2013-03-24 00:11:00,43.3,38.5,29.87,NE,45,1.5,4.6,83,0.12,,,0.16,WUHU216HW,2013-03-24 04:11:00,
2013-03-24 00:12:00,43.3,38.5,29.87,NNE,23,0.0,4.6,83,0.12,,,0.16,WUHU216HW,2013-03-24 04:12:00,
2013-03-24 00:13:00,43.3,38.5,29.87,NNE,23,0.0,4.6,83,0.12,,,0.16,WUHU216HW,2013-03-24 04:13:00,
2013-03-24 00:14:00,43.1,38.3,29.87,NE,45,0.0,4.6,83,0.12,,,0.16,WUHU216HW,2013-03-24 04:14:00,
2013-03-24 00:15:00,39.7,30.7,29.64,SSE,158,0.0,0.0,70,0.00,,,0.00,WUHU216HW,2013-03-24 04:15:00,
2013-03-24 00:16:00,43.1,38.3,29.88,ENE,68,0.0,1.5,83,0.12,,,0.16,WUHU216HW,2013-03-24 04:16:00,
2013-03-24 00:17:00,43.1,38.3,29.88,ENE,68,0.0,1.5,83,0.12,,,0.16,WUHU216HW,2013-03-24 04:17:00,
2013-03-24 00:18:00,43.1,38.3,29.88,NE,45,0.0,1.5,83,0.12,,,0.16,WUHU216HW,2013-03-24 04:18:00,
2013-03-24 00:19:00,43.1,38.3,29.88,NE,45,0.0,1.5,83,0.10,,,0.16,WUHU216HW,2013-03-24 04:19:00,
2013-03-24 00:20:00,39.7,30.7,29.64,SSE,158,0.0,0.0,70,0.00,,,0.00,WUHU216HW,2013-03-24 04:20:00,
2013-03-24 00:21:00,43.1,38.3,29.89,NE,45,0.0,0.0,83,0.10,,,0.16,WUHU216HW,2013-03-24 04:21:00,
2013-03-24 00:22:00,43.1,38.3,29.89,NE,45,0.0,0.0,83,0.10,,,0.16,WUHU216HW,2013-03-24 04:22:00,
2013-03-24 00:23:00,43.1,38.3,29.88,NE,45,0.0,0.0,83,0.10,,,0.16,WUHU216HW,2013-03-24 04:23:00,
2013-03-24 00:24:00,43.1,38.3,29.88,NE,45,0.0,0.0,83,0.10,,,0.16,WUHU216HW,2013-03-24 04:24:00,
2013-03-24 00:25:00,42.9,38.1,29.88,NE,45,0.0,0.0,83,0.10,,,0.16,WUHU216HW,2013-03-24 04:25:00,
2013-03-24 00:26:00,39.7,30.7,29.64,SSE,158,0.0,0.0,69,0.00,,,0.00,WUHU216HW,2013-03-24 04:26:00,
2013-03-24 00:27:00,42.9,38.1,29.88,North,0,0.0,0.0,83,0.12,,,0.18,WUHU216HW,2013-03-24 04:27:00,
2013-03-24 00:28:00,42.9,38.1,29.88,North,0,0.0,0.0,83,0.12,,,0.18,WUHU216HW,2013-03-24 04:28:00,
2013-03-24 00:29:00,42.9,38.1,29.88,NNE,23,0.0,0.0,84,0.12,,,0.18,WUHU216HW,2013-03-24 04:29:00,
2013-03-24 00:30:00,42.9,38.1,29.88,NNE,23,0.0,0.0,84,0.12,,,0.18,WUHU216HW,2013-03-24 04:30:00,
2013-03-24 00:31:00,42.9,38.1,29.88,NNE,23,0.0,0.0,84,0.12,,,0.18,WUHU216HW,2013-03-24 04:31:00,
2013-03-24 00:32:00,39.7,30.7,29.63,SSE,158,0.0,0.0,70,0.00,,,0.00,WUHU216HW,2013-03-24 04:32:00,
2013-03-24 00:33:00,42.9,38.1,29.88,North,0,2.4,2.4,84,0.12,,,0.18,WUHU216HW,2013-03-24 04:33:00,
2013-03-24 00:34:00,42.9,38.1,29.87,North,0,2.4,2.4,84,0.12,,,0.18,WUHU216HW,2013-03-24 04:34:00,
2013-03-24 00:35:00,42.9,38.1,29.87,ENE,68,0.0,2.4,84,0.12,,,0.18,WUHU216HW,2013-03-24 04:35:00,
2013-03-24 00:36:00,42.9,38.1,29.88,ENE,68,0.0,2.4,84,0.12,,,0.18,WUHU216HW,2013-03-24 04:36:00,
2013-03-24 00:37:00,39.7,30.7,29.63,SSE,158,0.0,0.0,71,0.00,,,0.00,WUHU216HW,2013-03-24 04:37:00,
2013-03-24 00:38:00,42.9,38.1,29.87,NE,45,3.3,3.3,84,0.10,,,0.21,WUHU216HW,2013-03-24 04:38:00,
2013-03-24 00:39:00,42.9,38.1,29.87,NE,45,3.3,3.3,84,0.10,,,0.21,WUHU216HW,2013-03-24 04:39:00,
2013-03-24 00:40:00,42.9,38.1,29.88,ENE,68,0.0,3.3,84,0.10,,,0.21,WUHU216HW,2013-03-24 04:40:00,
2013-03-24 00:41:00,42.9,38.1,29.87,NE,45,0.0,3.3,84,0.10,,,0.21,WUHU216HW,2013-03-24 04:41:00,
2013-03-24 00:42:00,42.9,38.1,29.87,NE,45,0.0,3.3,84,0.10,,,0.21,WUHU216HW,2013-03-24 04:42:00,
2013-03-24 00:43:00,39.5,30.9,29.63,SSE,158,0.0,0.0,71,0.00,,,0.00,WUHU216HW,2013-03-24 04:43:00,
2013-03-24 00:44:00,42.9,38.1,29.87,NE,45,0.0,3.3,84,0.10,,,0.21,WUHU216HW,2013-03-24 04:44:00,
2013-03-24 00:45:00,42.9,38.1,29.87,NE,45,0.0,3.3,84,0.10,,,0.21,WUHU216HW,2013-03-24 04:45:00,
2013-03-24 00:46:00,42.9,38.1,29.87,NE,45,0.0,3.3,84,0.10,,,0.21,WUHU216HW,2013-03-24 04:46:00,
2013-03-24 00:47:00,42.9,38.1,29.87,NE,45,0.0,3.3,84,0.10,,,0.21,WUHU216HW,2013-03-24 04:47:00,
2013-03-24 00:48:00,39.2,30.8,29.63,SSE,158,0.0,0.0,72,0.00,,,0.00,WUHU216HW,2013-03-24 04:48:00,
2013-03-24 00:49:00,42.9,38.1,29.87,NE,45,0.0,3.3,84,0.10,,,0.23,WUHU216HW,2013-03-24 04:49:00,
2013-03-24 00:50:00,42.9,38.1,29.87,NE,45,0.0,0.0,84,0.10,,,0.23,WUHU216HW,2013-03-24 04:50:00,
2013-03-24 00:51:00,42.9,38.1,29.86,NE,45,1.5,1.5,85,0.10,,,0.23,WUHU216HW,2013-03-24 04:51:00,
2013-03-24 00:52:00,42.9,38.1,29.86,NE,45,0.6,1.5,85,0.10,,,0.23,WUHU216HW,2013-03-24 04:52:00,
2013-03-24 00:53:00,39.0,30.7,29.62,SSE,158,0.0,0.0,72,0.00,,,0.00,WUHU216HW,2013-03-24 04:53:00,
2013-03-24 00:54:00,42.9,38.7,29.86,ENE,68,4.0,4.0,85,0.10,,,0.23,WUHU216HW,2013-03-24 04:54:00,
2013-03-24 00:55:00,42.9,38.7,29.86,ENE,68,4.0,4.0,85,0.10,,,0.23,WUHU216HW,2013-03-24 04:55:00,
2013-03-24 00:56:00,42.9,38.7,29.86,NE,45,3.5,4.0,85,0.10,,,0.23,WUHU216HW,2013-03-24 04:56:00,
2013-03-24 00:57:00,42.9,38.7,29.86,NE,45,3.5,4.0,85,0.10,,,0.23,WUHU216HW,2013-03-24 04:57:00,
2013-03-24 00:58:00,39.0,30.7,29.63,SSE,158,0.0,0.0,72,0.00,,,0.00,WUHU216HW,2013-03-24 04:58:00,
2013-03-24 00:59:00,42.9,38.7,29.86,ENE,68,1.3,4.0,85,0.10,,,0.25,WUHU216HW,2013-03-24 04:59:00,
2013-03-24 01:00:00,42.9,38.7,29.86,ENE,68,1.3,4.0,85,0.10,,,0.00,WUHU216HW,2013-03-24 05:00:00,
2013-03-24 01:01:00,42.8,38.5,29.86,ENE,68,0.8,4.0,85,0.10,,,0.00,WUHU216HW,2013-03-24 05:01:00,
2013-03-24 01:02:00,42.8,38.5,29.86,ENE,68,0.8,4.0,85,0.10,,,0.00,WUHU216HW,2013-03-24 05:02:00,
2013-03-24 01:03:00,39.0,30.7,29.62,SSE,158,0.0,0.0,72,0.00,,,0.00,WUHU216HW,2013-03-24 05:03:00,
2013-03-24 01:04:00,42.6,38.3,29.86,North,0,2.0,4.0,85,0.10,,,0.00,WUHU216HW,2013-03-24 05:04:00,
2013-03-24 01:05:00,42.6,38.3,29.86,NE,45,3.3,4.0,85,0.10,,,0.00,WUHU216HW,2013-03-24 05:05:00,
2013-03-24 01:06:00,42.6,38.3,29.86,NE,45,3.3,4.0,85,0.10,,,0.00,WUHU216HW,2013-03-24 05:06:00,
2013-03-24 01:07:00,42.6,38.3,29.86,NE,45,3.3,3.5,85,0.10,,,0.00,WUHU216HW,2013-03-24 05:07:00,
2013-03-24 01:08:00,42.6,38.3,29.86,ENE,68,0.0,3.5,85,0.10,,,0.00,WUHU216HW,2013-03-24 05:08:00,
2013-03-24 01:09:00,39.0,30.7,29.62,SSE,158,0.0,0.0,72,0.00,,,0.00,WUHU216HW,2013-03-24 05:09:00,
2013-03-24 01:10:00,42.6,38.3,29.86,NE,45,0.0,3.3,85,0.10,,,0.02,WUHU216HW,2013-03-24 05:10:00,
2013-03-24 01:11:00,42.6,38.3,29.86,NE,45,0.0,3.3,85,0.10,,,0.02,WUHU216HW,2013-03-24 05:11:00,
2013-03-24 01:12:00,42.6,38.3,29.86,NE,45,0.0,3.3,85,0.10,,,0.02,WUHU216HW,2013-03-24 05:12:00,
2013-03-24 01:13:00,42.6,38.3,29.86,NE,45,0.0,3.3,85,0.10,,,0.02,WUHU216HW,2013-03-24 05:13:00,
2013-03-24 01:14:00,38.1,30.2,29.61,SSE,158,0.0,0.0,73,0.00,,,0.00,WUHU216HW,2013-03-24 05:14:00,
2013-03-24 01:15:00,42.4,38.2,29.85,ENE,68,0.0,3.3,85,0.10,,,0.02,WUHU216HW,2013-03-24 05:15:00,
2013-03-24 01:16:00,42.4,38.2,29.85,NE,45,3.3,3.3,85,0.10,,,0.02,WUHU216HW,2013-03-24 05:16:00,
2013-03-24 01:17:00,42.4,38.2,29.85,NE,45,3.3,3.3,85,0.10,,,0.02,WUHU216HW,2013-03-24 05:17:00,
2013-03-24 01:18:00,42.4,38.2,29.85,NE,45,0.0,3.3,85,0.10,,,0.02,WUHU216HW,2013-03-24 05:18:00,
2013-03-24 01:19:00,38.1,30.2,29.61,SSE,158,0.0,0.0,73,0.00,,,0.00,WUHU216HW,2013-03-24 05:19:00,
2013-03-24 01:20:00,42.4,38.2,29.84,NE,45,1.5,3.3,85,0.10,,,0.02,WUHU216HW,2013-03-24 05:20:00,
2013-03-24 01:21:00,42.4,38.2,29.84,NE,45,1.5,3.3,85,0.10,,,0.02,WUHU216HW,2013-03-24 05:21:00,
2013-03-24 01:22:00,42.4,38.2,29.85,NE,45,1.5,3.3,85,0.10,,,0.02,WUHU216HW,2013-03-24 05:22:00,
2013-03-24 01:23:00,42.4,38.2,29.85,ENE,68,2.2,3.3,85,0.10,,,0.02,WUHU216HW,2013-03-24 05:23:00,
2013-03-24 01:24:00,37.9,30.3,29.62,SSE,158,0.0,0.0,74,0.00,,,0.00,WUHU216HW,2013-03-24 05:24:00,
2013-03-24 01:25:00,42.4,38.2,29.85,NE,45,0.8,3.3,85,0.10,,,0.02,WUHU216HW,2013-03-24 05:25:00,
2013-03-24 01:26:00,42.4,38.2,29.85,NE,45,0.8,3.3,85,0.10,,,0.02,WUHU216HW,2013-03-24 05:26:00,
2013-03-24 01:27:00,42.4,38.2,29.85,SE,135,0.0,3.3,85,0.10,,,0.02,WUHU216HW,2013-03-24 05:27:00,
2013-03-24 01:28:00,42.4,38.2,29.84,SE,135,0.0,2.2,85,0.10,,,0.02,WUHU216HW,2013-03-24 05:28:00,
2013-03-24 01:29:00,37.9,30.3,29.63,SSE,158,0.0,0.0,74,0.00,,,0.00,WUHU216HW,2013-03-24 05:29:00,
2013-03-24 01:30:00,42.2,38.0,29.84,NE,45,2.4,2.4,85,0.10,,,0.02,WUHU216HW,2013-03-24 05:30:00,
2013-03-24 01:31:00,42.2,38.0,29.84,ENE,68,0.0,2.4,85,0.10,,,0.04,WUHU216HW,2013-03-24 05:31:00,
2013-03-24 01:32:00,42.2,38.0,29.84,ENE,68,0.0,2.4,85,0.10,,,0.04,WUHU216HW,2013-03-24 05:32:00,
2013-03-24 01:33:00,42.2,38.0,29.84,ENE,68,0.0,2.4,85,0.10,,,0.04,WUHU216HW,2013-03-24 05:33:00,
2013-03-24 01:34:00,42.2,38.0,29.84,ENE,68,2.4,2.4,85,0.10,,,0.04,WUHU216HW,2013-03-24 05:34:00,
2013-03-24 01:35:00,37.9,30.3,29.62,SSE,158,0.0,0.0,74,0.00,,,0.00,WUHU216HW,2013-03-24 05:35:00,
2013-03-24 01:36:00,42.0,37.8,29.84,NE,45,4.2,4.2,85,0.10,,,0.04,WUHU216HW,2013-03-24 05:36:00,
2013-03-24 01:37:00,42.0,37.8,29.83,NE,45,4.2,4.2,85,0.10,,,0.04,WUHU216HW,2013-03-24 05:37:00,
2013-03-24 01:38:00,42.0,37.8,29.83,NE,45,4.0,4.2,85,0.10,,,0.04,WUHU216HW,2013-03-24 05:38:00,
2013-03-24 01:39:00,42.0,37.8,29.83,NE,45,4.0,4.2,85,0.10,,,0.04,WUHU216HW,2013-03-24 05:39:00,
2013-03-24 01:40:00,42.0,37.8,29.83,NE,45,0.0,4.2,85,0.10,,,0.04,WUHU216HW,2013-03-24 05:40:00,
2013-03-24 01:41:00,42.0,37.8,29.83,NE,45,0.0,4.2,85,0.10,,,0.04,WUHU216HW,2013-03-24 05:41:00,
2013-03-24 01:42:00,41.9,37.6,29.82,NE,45,4.9,4.9,85,0.10,,,0.04,WUHU216HW,2013-03-24 05:42:00,
2013-03-24 01:43:00,37.9,30.3,29.62,SSE,158,0.0,0.0,73,0.00,,,0.00,WUHU216HW,2013-03-24 05:43:00,
2013-03-24 01:44:00,41.9,37.6,29.83,NE,45,0.0,4.9,85,0.10,,,0.04,WUHU216HW,2013-03-24 05:44:00,
2013-03-24 01:45:00,41.9,37.6,29.83,NE,45,0.0,4.9,85,0.10,,,0.04,WUHU216HW,2013-03-24 05:45:00,
2013-03-24 01:46:00,41.9,37.6,29.83,East,90,2.0,4.9,86,0.10,,,0.04,WUHU216HW,2013-03-24 05:46:00,
2013-03-24 01:47:00,41.9,37.6,29.83,East,90,2.0,4.9,86,0.10,,,0.04,WUHU216HW,2013-03-24 05:47:00,
2013-03-24 01:48:00,37.7,30.2,29.61,SSE,158,0.0,0.0,74,0.00,,,0.00,WUHU216HW,2013-03-24 05:48:00,
2013-03-24 01:49:00,41.7,37.7,29.83,NE,45,2.9,4.9,86,0.10,,,0.04,WUHU216HW,2013-03-24 05:49:00,
2013-03-24 01:50:00,41.7,37.7,29.83,NE,45,2.9,4.9,86,0.10,,,0.04,WUHU216HW,2013-03-24 05:50:00,
2013-03-24 01:51:00,41.7,37.7,29.83,ENE,68,0.0,4.9,86,0.10,,,0.04,WUHU216HW,2013-03-24 05:51:00,
2013-03-24 01:52:00,41.7,37.7,29.83,ENE,68,0.0,4.9,86,0.10,,,0.04,WUHU216HW,2013-03-24 05:52:00,
2013-03-24 01:53:00,41.7,37.7,29.83,East,90,0.0,4.9,86,0.08,,,0.06,WUHU216HW,2013-03-24 05:53:00,
2013-03-24 01:54:00,37.7,30.2,29.62,SSE,158,0.0,0.0,75,0.00,,,0.00,WUHU216HW,2013-03-24 05:54:00,
2013-03-24 01:55:00,41.7,37.7,29.83,NE,45,1.5,2.9,86,0.08,,,0.06,WUHU216HW,2013-03-24 05:55:00,
2013-03-24 01:56:00,41.5,37.6,29.83,ENE,68,0.4,2.9,86,0.08,,,0.06,WUHU216HW,2013-03-24 05:56:00,
2013-03-24 01:57:00,41.5,37.6,29.83,ENE,68,0.4,2.9,86,0.08,,,0.06,WUHU216HW,2013-03-24 05:57:00,
2013-03-24 01:58:00,41.5,37.6,29.82,ENE,68,0.4,2.9,86,0.08,,,0.06,WUHU216HW,2013-03-24 05:58:00,
2013-03-24 01:59:00,37.5,30.6,29.61,SSE,158,0.0,0.0,76,0.00,,,0.00,WUHU216HW,2013-03-24 05:59:00,
2013-03-24 02:00:00,41.5,37.6,29.82,ENE,68,0.0,1.5,86,0.08,,,0.06,WUHU216HW,2013-03-24 06:00:00,
2013-03-24 02:01:00,41.5,37.6,29.82,East,90,0.0,1.5,86,0.08,,,0.06,WUHU216HW,2013-03-24 06:01:00,
2013-03-24 02:02:00,41.5,37.6,29.82,East,90,0.0,1.5,86,0.08,,,0.06,WUHU216HW,2013-03-24 06:02:00,
2013-03-24 02:03:00,41.5,37.6,29.82,East,90,0.0,1.5,86,0.08,,,0.06,WUHU216HW,2013-03-24 06:03:00,
2013-03-24 02:04:00,37.5,30.6,29.61,SSE,158,0.0,0.0,76,0.00,,,0.00,WUHU216HW,2013-03-24 06:04:00,
2013-03-24 02:05:00,41.3,37.4,29.82,NNE,23,0.0,1.5,86,0.08,,,0.08,WUHU216HW,2013-03-24 06:05:00,
2013-03-24 02:06:00,41.3,37.4,29.82,ENE,68,0.0,1.5,86,0.08,,,0.08,WUHU216HW,2013-03-24 06:06:00,
2013-03-24 02:07:00,41.3,37.4,29.82,ENE,68,0.0,0.4,86,0.08,,,0.08,WUHU216HW,2013-03-24 06:07:00,
2013-03-24 02:08:00,41.1,37.2,29.81,ENE,68,2.4,2.4,86,0.08,,,0.08,WUHU216HW,2013-03-24 06:08:00,
2013-03-24 02:09:00,37.5,30.6,29.61,SSE,158,0.0,0.0,76,0.00,,,0.00,WUHU216HW,2013-03-24 06:09:00,
2013-03-24 02:10:00,41.1,37.2,29.81,ENE,68,4.4,4.4,86,0.08,,,0.08,WUHU216HW,2013-03-24 06:10:00,
2013-03-24 02:11:00,41.1,37.2,29.81,ENE,68,4.4,4.4,86,0.08,,,0.08,WUHU216HW,2013-03-24 06:11:00,
2013-03-24 02:12:00,41.1,37.2,29.81,ESE,113,2.6,4.4,86,0.08,,,0.08,WUHU216HW,2013-03-24 06:12:00,
2013-03-24 02:13:00,41.1,37.2,29.81,ESE,113,2.6,4.4,86,0.08,,,0.08,WUHU216HW,2013-03-24 06:13:00,
2013-03-24 02:14:00,37.7,30.8,29.62,SSE,158,0.0,0.0,76,0.00,,,0.00,WUHU216HW,2013-03-24 06:14:00,
2013-03-24 02:15:00,41.1,37.2,29.81,NE,45,3.8,4.4,86,0.08,,,0.10,WUHU216HW,2013-03-24 06:15:00,
2013-03-24 02:16:00,41.1,37.2,29.81,ENE,68,0.0,4.4,86,0.08,,,0.10,WUHU216HW,2013-03-24 06:16:00,
2013-03-24 02:17:00,41.1,37.2,29.81,ENE,68,0.0,4.4,86,0.08,,,0.10,WUHU216HW,2013-03-24 06:17:00,
2013-03-24 02:18:00,41.1,37.2,29.81,ENE,68,0.0,4.4,86,0.08,,,0.10,WUHU216HW,2013-03-24 06:18:00,
2013-03-24 02:19:00,37.9,31.0,29.62,SSE,158,0.0,0.0,76,0.00,,,0.00,WUHU216HW,2013-03-24 06:19:00,
2013-03-24 02:20:00,41.1,37.2,29.81,WNW,293,0.8,5.8,86,0.12,,,0.14,WUHU216HW,2013-03-24 06:20:00,
2013-03-24 02:21:00,41.1,37.2,29.81,WNW,293,0.8,5.8,86,0.12,,,0.14,WUHU216HW,2013-03-24 06:21:00,
2013-03-24 02:22:00,41.1,37.2,29.81,WNW,293,0.8,5.8,86,0.12,,,0.14,WUHU216HW,2013-03-24 06:22:00,
2013-03-24 02:23:00,41.1,37.2,29.81,North,0,0.0,5.8,86,0.12,,,0.14,WUHU216HW,2013-03-24 06:23:00,
2013-03-24 02:24:00,41.1,37.2,29.81,North,0,0.0,5.8,86,0.12,,,0.14,WUHU216HW,2013-03-24 06:24:00,
2013-03-24 02:25:00,38.1,31.5,29.61,SSE,158,0.0,0.0,77,0.00,,,0.00,WUHU216HW,2013-03-24 06:25:00,
2013-03-24 02:26:00,41.1,37.2,29.81,NE,45,1.7,5.8,86,0.12,,,0.14,WUHU216HW,2013-03-24 06:26:00,
2013-03-24 02:27:00,40.8,36.9,29.81,NNW,338,4.4,5.8,86,0.12,,,0.14,WUHU216HW,2013-03-24 06:27:00,
2013-03-24 02:28:00,40.8,36.9,29.81,NNW,338,4.4,5.8,86,0.12,,,0.14,WUHU216HW,2013-03-24 06:28:00,
2013-03-24 02:29:00,40.8,36.9,29.81,NE,45,0.0,5.8,86,0.12,,,0.14,WUHU216HW,2013-03-24 06:29:00,
2013-03-24 02:30:00,40.8,36.9,29.82,NE,45,0.0,4.4,86,0.12,,,0.14,WUHU216HW,2013-03-24 06:30:00,
2013-03-24 02:31:00,38.1,31.5,29.61,SSE,158,0.0,0.0,77,0.00,,,0.00,WUHU216HW,2013-03-24 06:31:00,
2013-03-24 02:32:00,40.8,36.9,29.82,NE,45,0.0,4.4,86,0.12,,,0.14,WUHU216HW,2013-03-24 06:32:00,
2013-03-24 02:33:00,40.8,36.9,29.82,North,0,0.0,4.4,86,0.12,,,0.14,WUHU216HW,2013-03-24 06:33:00,
2013-03-24 02:34:00,40.8,36.9,29.82,North,0,0.0,4.4,86,0.12,,,0.14,WUHU216HW,2013-03-24 06:34:00,
2013-03-24 02:35:00,40.8,36.9,29.82,NNW,338,0.0,4.4,86,0.12,,,0.14,WUHU216HW,2013-03-24 06:35:00,
2013-03-24 02:36:00,38.1,31.5,29.60,SSE,158,0.0,0.0,77,0.00,,,0.00,WUHU216HW,2013-03-24 06:36:00,
2013-03-24 02:37:00,40.8,36.9,29.82,NNW,338,0.0,4.4,86,0.12,,,0.14,WUHU216HW,2013-03-24 06:37:00,
2013-03-24 02:38:00,40.8,36.9,29.82,ENE,68,1.7,4.4,86,0.12,,,0.14,WUHU216HW,2013-03-24 06:38:00,
2013-03-24 02:39:00,40.8,36.9,29.82,ENE,68,1.7,1.7,86,0.12,,,0.14,WUHU216HW,2013-03-24 06:39:00,
2013-03-24 02:40:00,40.8,36.9,29.82,NE,45,1.1,1.7,86,0.12,,,0.14,WUHU216HW,2013-03-24 06:40:00,
2013-03-24 02:41:00,38.3,32.0,29.60,SSE,158,0.0,0.0,78,0.00,,,0.00,WUHU216HW,2013-03-24 06:41:00,
2013-03-24 02:42:00,40.8,36.9,29.82,North,0,0.0,1.7,86,0.12,,,0.16,WUHU216HW,2013-03-24 06:42:00,
2013-03-24 02:43:00,40.8,36.9,29.82,North,0,0.0,1.7,86,0.12,,,0.16,WUHU216HW,2013-03-24 06:43:00,
2013-03-24 02:44:00,40.8,36.9,29.81,NNE,23,2.0,2.0,86,0.12,,,0.16,WUHU216HW,2013-03-24 06:44:00,
2013-03-24 02:45:00,40.8,36.9,29.81,NNE,23,2.0,2.0,86,0.12,,,0.16,WUHU216HW,2013-03-24 06:45:00,
2013-03-24 02:46:00,40.8,36.9,29.80,NE,45,1.5,2.0,86,0.12,,,0.16,WUHU216HW,2013-03-24 06:46:00,
2013-03-24 02:47:00,38.4,31.8,29.61,SSE,158,0.0,0.0,77,0.00,,,0.00,WUHU216HW,2013-03-24 06:47:00,
2013-03-24 02:48:00,40.6,37.0,29.79,NE,45,1.3,2.0,87,0.12,,,0.16,WUHU216HW,2013-03-24 06:48:00,
2013-03-24 02:49:00,40.6,37.0,29.79,NE,45,1.3,2.0,87,0.12,,,0.16,WUHU216HW,2013-03-24 06:49:00,
2013-03-24 02:50:00,40.6,37.0,29.79,NE,45,3.3,3.3,87,0.12,,,0.16,WUHU216HW,2013-03-24 06:50:00,
2013-03-24 02:51:00,40.6,37.0,29.79,NE,45,3.3,3.3,87,0.12,,,0.16,WUHU216HW,2013-03-24 06:51:00,
2013-03-24 02:52:00,40.6,37.0,29.78,NE,45,3.3,3.3,87,0.12,,,0.16,WUHU216HW,2013-03-24 06:52:00,
2013-03-24 02:53:00,38.6,32.4,29.61,SSE,158,0.0,0.0,78,0.00,,,0.00,WUHU216HW,2013-03-24 06:53:00,
2013-03-24 02:54:00,40.6,37.0,29.79,NE,45,0.0,3.3,87,0.12,,,0.16,WUHU216HW,2013-03-24 06:54:00,
2013-03-24 02:55:00,40.6,37.0,29.78,ENE,68,0.8,3.3,87,0.12,,,0.16,WUHU216HW,2013-03-24 06:55:00,
2013-03-24 02:56:00,40.6,37.0,29.78,ENE,68,0.8,3.3,87,0.12,,,0.16,WUHU216HW,2013-03-24 06:56:00,
2013-03-24 02:57:00,40.4,36.8,29.78,East,90,1.5,3.3,87,0.12,,,0.16,WUHU216HW,2013-03-24 06:57:00,
2013-03-24 02:58:00,38.8,32.2,29.61,SSE,158,0.0,0.0,77,0.00,,,0.00,WUHU216HW,2013-03-24 06:58:00,
2013-03-24 02:59:00,40.6,37.0,29.78,East,90,0.0,3.3,87,0.12,,,0.16,WUHU216HW,2013-03-24 06:59:00,
2013-03-24 03:00:00,40.6,37.0,29.78,East,90,0.0,3.3,87,0.12,,,0.16,WUHU216HW,2013-03-24 07:00:00,
2013-03-24 03:01:00,40.6,37.0,29.78,ENE,68,3.5,3.5,87,0.12,,,0.16,WUHU216HW,2013-03-24 07:01:00,
2013-03-24 03:02:00,40.6,37.0,29.78,ENE,68,3.5,3.5,87,0.12,,,0.16,WUHU216HW,2013-03-24 07:02:00,
2013-03-24 03:03:00,40.6,37.0,29.78,ENE,68,3.5,3.5,87,0.12,,,0.16,WUHU216HW,2013-03-24 07:03:00,
2013-03-24 03:04:00,38.8,32.2,29.62,SSE,158,0.0,0.0,77,0.00,,,0.00,WUHU216HW,2013-03-24 07:04:00,
2013-03-24 03:05:00,40.4,36.8,29.78,ENE,68,0.0,3.5,87,0.12,,,0.16,WUHU216HW,2013-03-24 07:05:00,
2013-03-24 03:06:00,40.4,36.8,29.78,SE,135,0.0,3.5,87,0.12,,,0.16,WUHU216HW,2013-03-24 07:06:00,
2013-03-24 03:07:00,40.4,36.8,29.78,SE,135,0.0,3.5,87,0.12,,,0.16,WUHU216HW,2013-03-24 07:07:00,
2013-03-24 03:08:00,40.2,36.6,29.78,ENE,68,0.0,3.5,87,0.12,,,0.16,WUHU216HW,2013-03-24 07:08:00,
2013-03-24 03:09:00,38.8,32.2,29.63,SSE,158,0.0,0.0,77,0.00,,,0.00,WUHU216HW,2013-03-24 07:09:00,
2013-03-24 03:10:00,40.4,36.8,29.78,NE,45,2.2,3.5,87,0.12,,,0.16,WUHU216HW,2013-03-24 07:10:00,
2013-03-24 03:11:00,40.4,36.8,29.78,NE,45,2.2,3.5,87,0.12,,,0.16,WUHU216HW,2013-03-24 07:11:00,
2013-03-24 03:12:00,40.2,36.6,29.78,SE,135,0.0,3.5,87,0.12,,,0.16,WUHU216HW,2013-03-24 07:12:00,
2013-03-24 03:13:00,40.2,36.6,29.78,SE,135,0.0,2.2,87,0.12,,,0.16,WUHU216HW,2013-03-24 07:13:00,
2013-03-24 03:14:00,39.0,32.4,29.63,SSE,158,0.0,0.0,77,0.00,,,0.00,WUHU216HW,2013-03-24 07:14:00,
2013-03-24 03:15:00,40.2,36.6,29.77,SW,225,0.0,2.2,87,0.08,,,0.18,WUHU216HW,2013-03-24 07:15:00,
2013-03-24 03:16:00,40.2,36.6,29.77,NNE,23,0.0,2.2,87,0.08,,,0.18,WUHU216HW,2013-03-24 07:16:00,
2013-03-24 03:17:00,40.2,36.6,29.77,NNE,23,0.0,2.2,87,0.08,,,0.18,WUHU216HW,2013-03-24 07:17:00,
2013-03-24 03:18:00,40.2,36.6,29.77,NNE,23,0.0,2.2,87,0.08,,,0.18,WUHU216HW,2013-03-24 07:18:00,
2013-03-24 03:19:00,40.2,36.6,29.77,East,90,0.0,2.2,87,0.08,,,0.18,WUHU216HW,2013-03-24 07:19:00,
2013-03-24 03:20:00,40.2,36.6,29.77,East,90,0.0,2.2,87,0.04,,,0.18,WUHU216HW,2013-03-24 07:20:00,
2013-03-24 03:21:00,40.2,36.6,29.77,ENE,68,0.0,2.2,87,0.04,,,0.18,WUHU216HW,2013-03-24 07:21:00,
2013-03-24 03:22:00,39.3,33.1,29.63,SSE,158,0.0,0.0,78,0.00,,,0.00,WUHU216HW,2013-03-24 07:22:00,
2013-03-24 03:23:00,40.2,36.6,29.77,NE,45,0.0,0.0,87,0.04,,,0.18,WUHU216HW,2013-03-24 07:23:00,
2013-03-24 03:24:00,40.2,36.6,29.77,NE,45,0.0,0.0,87,0.04,,,0.18,WUHU216HW,2013-03-24 07:24:00,
2013-03-24 03:25:00,40.2,36.6,29.77,NE,45,4.0,4.0,87,0.04,,,0.18,WUHU216HW,2013-03-24 07:25:00,
2013-03-24 03:26:00,40.2,36.6,29.77,ENE,68,4.4,4.4,87,0.04,,,0.18,WUHU216HW,2013-03-24 07:26:00,
2013-03-24 03:27:00,40.2,36.6,29.77,ENE,68,4.4,4.4,87,0.04,,,0.18,WUHU216HW,2013-03-24 07:27:00,
2013-03-24 03:28:00,39.3,33.1,29.63,SSE,158,0.0,0.0,78,0.00,,,0.00,WUHU216HW,2013-03-24 07:28:00,
2013-03-24 03:29:00,40.2,36.6,29.77,NE,45,0.0,4.4,87,0.04,,,0.18,WUHU216HW,2013-03-24 07:29:00,
2013-03-24 03:30:00,40.2,36.6,29.76,NE,45,0.8,4.4,87,0.04,,,0.18,WUHU216HW,2013-03-24 07:30:00,
2013-03-24 03:31:00,40.2,36.6,29.76,NE,45,0.8,4.4,87,0.04,,,0.18,WUHU216HW,2013-03-24 07:31:00,
2013-03-24 03:32:00,40.2,36.6,29.76,NE,45,0.8,4.4,87,0.04,,,0.18,WUHU216HW,2013-03-24 07:32:00,
2013-03-24 03:33:00,40.2,36.6,29.76,NE,45,0.8,4.4,87,0.04,,,0.18,WUHU216HW,2013-03-24 07:33:00,
2013-03-24 03:34:00,40.2,36.6,29.75,NE,45,0.8,4.4,87,0.04,,,0.18,WUHU216HW,2013-03-24 07:34:00,
2013-03-24 03:35:00,40.2,36.6,29.75,NE,45,1.3,4.4,87,0.04,,,0.18,WUHU216HW,2013-03-24 07:35:00,
2013-03-24 03:36:00,40.2,36.6,29.75,NE,45,1.3,4.4,87,0.04,,,0.18,WUHU216HW,2013-03-24 07:36:00,
2013-03-24 03:37:00,39.5,33.2,29.64,SSE,158,0.0,0.0,78,0.00,,,0.00,WUHU216HW,2013-03-24 07:37:00,
2013-03-24 03:38:00,40.2,36.6,29.75,ENE,68,0.0,1.3,87,0.04,,,0.18,WUHU216HW,2013-03-24 07:38:00,
2013-03-24 03:39:00,40.2,36.6,29.75,NE,45,0.0,1.3,87,0.04,,,0.18,WUHU216HW,2013-03-24 07:39:00,
2013-03-24 03:40:00,40.2,36.6,29.75,NE,45,0.0,1.3,87,0.04,,,0.18,WUHU216HW,2013-03-24 07:40:00,
2013-03-24 03:41:00,40.2,36.6,29.75,East,90,0.0,1.3,87,0.04,,,0.18,WUHU216HW,2013-03-24 07:41:00,
2013-03-24 03:42:00,39.7,33.4,29.64,SSE,158,0.0,0.0,78,0.00,,,0.00,WUHU216HW,2013-03-24 07:42:00,
2013-03-24 03:43:00,40.2,36.6,29.75,East,90,0.0,1.3,87,0.04,,,0.18,WUHU216HW,2013-03-24 07:43:00,
2013-03-24 03:44:00,40.2,36.6,29.75,NNE,23,1.1,1.3,87,0.04,,,0.18,WUHU216HW,2013-03-24 07:44:00,
2013-03-24 03:45:00,40.2,36.6,29.74,NNE,23,1.1,1.3,87,0.04,,,0.18,WUHU216HW,2013-03-24 07:45:00,
2013-03-24 03:46:00,40.2,36.6,29.74,ENE,68,0.0,1.3,87,0.04,,,0.18,WUHU216HW,2013-03-24 07:46:00,
2013-03-24 03:47:00,39.7,33.4,29.64,SSE,158,0.0,0.0,78,0.00,,,0.00,WUHU216HW,2013-03-24 07:47:00,
2013-03-24 03:48:00,40.2,36.6,29.74,ENE,68,0.0,1.1,87,0.04,,,0.18,WUHU216HW,2013-03-24 07:48:00,
2013-03-24 03:49:00,40.2,36.6,29.74,ENE,68,0.0,1.1,87,0.04,,,0.18,WUHU216HW,2013-03-24 07:49:00,
2013-03-24 03:50:00,40.2,36.6,29.73,ENE,68,0.0,1.1,87,0.04,,,0.18,WUHU216HW,2013-03-24 07:50:00,
2013-03-24 03:51:00,40.2,36.6,29.74,ENE,68,0.0,1.1,87,0.04,,,0.18,WUHU216HW,2013-03-24 07:51:00,
2013-03-24 03:52:00,39.9,33.6,29.64,SSE,158,0.0,0.0,78,0.00,,,0.00,WUHU216HW,2013-03-24 07:52:00,
2013-03-24 03:53:00,40.2,36.6,29.73,North,0,4.4,4.4,87,0.04,,,0.18,WUHU216HW,2013-03-24 07:53:00,
2013-03-24 03:54:00,40.2,36.6,29.73,ESE,113,10.0,10.0,87,0.04,,,0.18,WUHU216HW,2013-03-24 07:54:00,
2013-03-24 03:55:00,40.2,36.6,29.73,NE,45,1.5,10.0,87,0.04,,,0.18,WUHU216HW,2013-03-24 07:55:00,
2013-03-24 03:56:00,40.2,36.6,29.74,NE,45,1.5,10.0,87,0.04,,,0.18,WUHU216HW,2013-03-24 07:56:00,
2013-03-24 03:57:00,40.2,36.6,29.74,NE,45,2.2,10.0,87,0.04,,,0.18,WUHU216HW,2013-03-24 07:57:00,
2013-03-24 03:58:00,39.9,33.6,29.63,SSE,158,0.0,0.0,79,0.00,,,0.00,WUHU216HW,2013-03-24 07:58:00,
2013-03-24 03:59:00,40.2,36.6,29.74,ESE,113,0.0,10.0,87,0.04,,,0.18,WUHU216HW,2013-03-24 07:59:00,
2013-03-24 04:00:00,40.2,36.6,29.74,ESE,113,0.0,10.0,87,0.04,,,0.18,WUHU216HW,2013-03-24 08:00:00,
2013-03-24 04:01:00,40.2,36.6,29.74,ESE,113,0.0,10.0,87,0.04,,,0.18,WUHU216HW,2013-03-24 08:01:00,
2013-03-24 04:02:00,40.2,36.6,29.74,NE,45,0.0,10.0,87,0.04,,,0.18,WUHU216HW,2013-03-24 08:02:00,
2013-03-24 04:03:00,39.9,33.6,29.63,SSE,158,0.0,0.0,78,0.00,,,0.00,WUHU216HW,2013-03-24 08:03:00,
2013-03-24 04:04:00,40.4,36.8,29.74,NNW,338,4.2,10.0,87,0.04,,,0.18,WUHU216HW,2013-03-24 08:04:00,
2013-03-24 04:05:00,40.4,36.8,29.74,NNW,338,4.2,4.2,87,0.04,,,0.18,WUHU216HW,2013-03-24 08:05:00,
2013-03-24 04:06:00,40.2,36.6,29.74,ENE,68,1.1,4.2,87,0.04,,,0.18,WUHU216HW,2013-03-24 08:06:00,
2013-03-24 04:07:00,40.2,36.6,29.74,ENE,68,1.1,4.2,87,0.04,,,0.18,WUHU216HW,2013-03-24 08:07:00,
2013-03-24 04:08:00,39.9,33.6,29.62,SSE,158,0.0,0.0,78,0.00,,,0.00,WUHU216HW,2013-03-24 08:08:00,
2013-03-24 04:09:00,40.2,36.6,29.74,East,90,1.5,4.2,87,0.04,,,0.18,WUHU216HW,2013-03-24 08:09:00,
2013-03-24 04:10:00,40.2,36.6,29.75,NNE,23,2.4,4.2,87,0.04,,,0.18,WUHU216HW,2013-03-24 08:10:00,
2013-03-24 04:11:00,40.2,36.6,29.75,NNE,23,2.4,4.2,87,0.04,,,0.18,WUHU216HW,2013-03-24 08:11:00,
2013-03-24 04:12:00,40.2,36.6,29.74,NNE,23,2.4,4.2,87,0.04,,,0.18,WUHU216HW,2013-03-24 08:12:00,
2013-03-24 04:13:00,40.4,36.8,29.74,NE,45,0.0,4.2,87,0.04,,,0.18,WUHU216HW,2013-03-24 08:13:00,
2013-03-24 04:14:00,39.9,33.6,29.62,SSE,158,0.0,0.0,78,0.00,,,0.00,WUHU216HW,2013-03-24 08:14:00,
2013-03-24 04:15:00,40.6,37.0,29.75,NE,45,0.0,4.2,87,0.04,,,0.18,WUHU216HW,2013-03-24 08:15:00,
2013-03-24 04:16:00,40.6,37.0,29.75,NE,45,0.0,2.4,87,0.04,,,0.18,WUHU216HW,2013-03-24 08:16:00,
2013-03-24 04:17:00,40.6,37.0,29.75,NE,45,0.0,2.4,87,0.04,,,0.18,WUHU216HW,2013-03-24 08:17:00,
2013-03-24 04:18:00,40.6,37.0,29.75,NE,45,0.0,2.4,87,0.04,,,0.18,WUHU216HW,2013-03-24 08:18:00,
2013-03-24 04:19:00,40.6,37.0,29.75,NE,45,1.3,2.4,87,0.04,,,0.18,WUHU216HW,2013-03-24 08:19:00,
2013-03-24 04:20:00,40.1,33.7,29.61,SSE,158,0.0,0.0,78,0.00,,,0.00,WUHU216HW,2013-03-24 08:20:00,
2013-03-24 04:21:00,40.6,37.0,29.75,ENE,68,1.1,2.4,87,0.00,,,0.18,WUHU216HW,2013-03-24 08:21:00,
2013-03-24 04:22:00,40.6,37.0,29.75,ENE,68,1.1,2.4,87,0.00,,,0.18,WUHU216HW,2013-03-24 08:22:00,
2013-03-24 04:23:00,40.6,37.0,29.75,North,0,0.0,1.3,87,0.00,,,0.18,WUHU216HW,2013-03-24 08:23:00,
2013-03-24 04:24:00,40.6,37.0,29.75,North,0,0.0,1.3,87,0.00,,,0.18,WUHU216HW,2013-03-24 08:24:00,
2013-03-24 04:25:00,40.6,37.0,29.74,East,90,0.0,1.3,87,0.00,,,0.18,WUHU216HW,2013-03-24 08:25:00,
2013-03-24 04:26:00,40.1,33.7,29.61,SSE,158,0.0,0.0,78,0.00,,,0.00,WUHU216HW,2013-03-24 08:26:00,
2013-03-24 04:27:00,40.6,37.0,29.74,NE,45,0.8,1.3,87,0.00,,,0.18,WUHU216HW,2013-03-24 08:27:00,
2013-03-24 04:28:00,40.6,37.0,29.74,NE,45,0.8,1.3,87,0.00,,,0.18,WUHU216HW,2013-03-24 08:28:00,
2013-03-24 04:29:00,40.6,37.0,29.74,NE,45,0.8,1.3,87,0.00,,,0.18,WUHU216HW,2013-03-24 08:29:00,
2013-03-24 04:30:00,40.6,37.0,29.74,ENE,68,0.0,1.3,87,0.00,,,0.18,WUHU216HW,2013-03-24 08:30:00,
2013-03-24 04:31:00,40.6,37.0,29.74,ENE,68,0.0,1.1,87,0.00,,,0.18,WUHU216HW,2013-03-24 08:31:00,
2013-03-24 04:32:00,40.1,33.7,29.60,SSE,158,0.0,0.0,78,0.00,,,0.00,WUHU216HW,2013-03-24 08:32:00,
2013-03-24 04:33:00,40.6,37.0,29.74,SSW,203,0.0,0.8,87,0.00,,,0.18,WUHU216HW,2013-03-24 08:33:00,
2013-03-24 04:34:00,40.6,37.0,29.73,NE,45,2.9,2.9,87,0.00,,,0.18,WUHU216HW,2013-03-24 08:34:00,
2013-03-24 04:35:00,40.6,37.0,29.73,NE,45,2.9,2.9,87,0.00,,,0.18,WUHU216HW,2013-03-24 08:35:00,
2013-03-24 04:36:00,40.6,37.0,29.73,ENE,68,2.6,2.9,87,0.00,,,0.18,WUHU216HW,2013-03-24 08:36:00,
2013-03-24 04:37:00,40.1,33.7,29.60,South,180,0.0,0.0,78,0.00,,,0.00,WUHU216HW,2013-03-24 08:37:00,
2013-03-24 04:38:00,40.6,37.0,29.73,North,0,0.0,2.9,87,0.00,,,0.18,WUHU216HW,2013-03-24 08:38:00,
2013-03-24 04:39:00,40.6,37.0,29.73,North,0,0.0,2.9,87,0.00,,,0.18,WUHU216HW,2013-03-24 08:39:00,
2013-03-24 04:40:00,40.6,37.0,29.73,NE,45,4.9,4.9,87,0.00,,,0.18,WUHU216HW,2013-03-24 08:40:00,
2013-03-24 04:41:00,40.6,37.0,29.74,SE,135,3.3,4.9,87,0.00,,,0.18,WUHU216HW,2013-03-24 08:41:00,
2013-03-24 04:42:00,40.1,33.7,29.60,South,180,0.0,0.0,78,0.00,,,0.00,WUHU216HW,2013-03-24 08:42:00,
2013-03-24 04:43:00,40.6,37.0,29.74,NE,45,3.5,4.9,87,0.02,,,0.20,WUHU216HW,2013-03-24 08:43:00,
2013-03-24 04:44:00,40.6,37.0,29.74,North,0,2.9,4.9,87,0.02,,,0.20,WUHU216HW,2013-03-24 08:44:00,
2013-03-24 04:45:00,40.6,37.0,29.73,East,90,1.7,4.9,87,0.02,,,0.20,WUHU216HW,2013-03-24 08:45:00,
2013-03-24 04:46:00,40.6,37.0,29.73,East,90,1.7,4.9,87,0.02,,,0.20,WUHU216HW,2013-03-24 08:46:00,
2013-03-24 04:47:00,40.6,37.0,29.73,NE,45,11.4,11.4,87,0.02,,,0.20,WUHU216HW,2013-03-24 08:47:00,
2013-03-24 04:48:00,40.6,37.0,29.73,East,90,2.4,11.4,87,0.04,,,0.22,WUHU216HW,2013-03-24 08:48:00,
2013-03-24 04:49:00,40.1,33.7,29.59,South,180,0.0,0.0,78,0.00,,,0.00,WUHU216HW,2013-03-24 08:49:00,
2013-03-24 04:50:00,40.6,37.0,29.73,East,90,0.0,11.4,88,0.04,,,0.22,WUHU216HW,2013-03-24 08:50:00,
2013-03-24 04:51:00,40.6,37.0,29.73,NE,45,0.0,11.4,88,0.04,,,0.22,WUHU216HW,2013-03-24 08:51:00,
2013-03-24 04:52:00,40.6,37.0,29.73,NE,45,0.0,11.4,88,0.04,,,0.22,WUHU216HW,2013-03-24 08:52:00,
2013-03-24 04:53:00,40.6,37.0,29.73,ENE,68,0.0,11.4,88,0.04,,,0.22,WUHU216HW,2013-03-24 08:53:00,
2013-03-24 04:54:00,40.2,33.9,29.59,South,180,0.0,0.0,78,0.00,,,0.00,WUHU216HW,2013-03-24 08:54:00,
2013-03-24 04:55:00,40.6,37.0,29.73,NNE,23,1.1,11.4,88,0.06,,,0.22,WUHU216HW,2013-03-24 08:55:00,
2013-03-24 04:56:00,40.6,37.0,29.73,NNE,23,1.1,11.4,88,0.06,,,0.24,WUHU216HW,2013-03-24 08:56:00,
2013-03-24 04:57:00,40.6,37.0,29.72,NNE,23,1.1,11.4,88,0.06,,,0.24,WUHU216HW,2013-03-24 08:57:00,
2013-03-24 04:58:00,40.6,37.0,29.72,NNE,23,0.0,2.4,88,0.06,,,0.24,WUHU216HW,2013-03-24 08:58:00,
2013-03-24 04:59:00,40.2,33.9,29.59,West,270,0.0,0.0,77,0.00,,,0.00,WUHU216HW,2013-03-24 08:59:00,
2013-03-24 05:00:00,40.6,37.0,29.72,ENE,68,0.0,1.1,88,0.06,,,0.24,WUHU216HW,2013-03-24 09:00:00,
2013-03-24 05:01:00,40.6,37.0,29.72,ENE,68,0.0,1.1,88,0.06,,,0.24,WUHU216HW,2013-03-24 09:01:00,
2013-03-24 05:02:00,40.6,37.0,29.72,ESE,113,0.0,1.1,88,0.06,,,0.24,WUHU216HW,2013-03-24 09:02:00,
2013-03-24 05:03:00,40.6,37.0,29.72,ESE,113,0.0,1.1,88,0.06,,,0.24,WUHU216HW,2013-03-24 09:03:00,
2013-03-24 05:04:00,40.2,33.9,29.59,West,270,0.0,0.0,77,0.00,,,0.00,WUHU216HW,2013-03-24 09:04:00,
2013-03-24 05:05:00,40.4,37.1,29.71,WNW,293,2.2,2.2,88,0.06,,,0.24,WUHU216HW,2013-03-24 09:05:00,
2013-03-24 05:06:00,40.6,37.3,29.71,ENE,68,0.0,2.2,88,0.06,,,0.24,WUHU216HW,2013-03-24 09:06:00,
2013-03-24 05:07:00,40.6,37.3,29.71,ENE,68,0.0,2.2,88,0.06,,,0.24,WUHU216HW,2013-03-24 09:07:00,
2013-03-24 05:08:00,40.4,37.1,29.71,ENE,68,0.0,2.2,88,0.06,,,0.24,WUHU216HW,2013-03-24 09:08:00,
2013-03-24 05:09:00,40.2,33.9,29.59,West,270,0.0,0.0,77,0.00,,,0.00,WUHU216HW,2013-03-24 09:09:00,
2013-03-24 05:10:00,40.2,36.9,29.71,East,90,0.0,2.2,88,0.08,,,0.26,WUHU216HW,2013-03-24 09:10:00,
2013-03-24 05:11:00,40.2,36.9,29.71,East,90,0.0,2.2,88,0.08,,,0.26,WUHU216HW,2013-03-24 09:11:00,
2013-03-24 05:12:00,40.2,36.9,29.71,East,90,0.0,2.2,88,0.08,,,0.26,WUHU216HW,2013-03-24 09:12:00,
2013-03-24 05:13:00,40.2,36.9,29.72,North,0,0.0,2.2,88,0.08,,,0.26,WUHU216HW,2013-03-24 09:13:00,
2013-03-24 05:14:00,40.4,33.4,29.59,West,270,0.0,0.0,76,0.00,,,0.00,WUHU216HW,2013-03-24 09:14:00,
2013-03-24 05:15:00,40.4,37.1,29.72,North,0,0.0,2.2,88,0.08,,,0.26,WUHU216HW,2013-03-24 09:15:00,
2013-03-24 05:16:00,40.4,37.1,29.72,North,0,0.0,0.0,88,0.08,,,0.26,WUHU216HW,2013-03-24 09:16:00,
2013-03-24 05:17:00,40.4,37.1,29.72,West,270,0.0,0.0,88,0.10,,,0.28,WUHU216HW,2013-03-24 09:17:00,
2013-03-24 05:18:00,40.4,37.1,29.72,West,270,0.0,0.0,88,0.10,,,0.28,WUHU216HW,2013-03-24 09:18:00,
2013-03-24 05:19:00,40.2,36.9,29.72,ENE,68,0.0,6.0,88,0.10,,,0.28,WUHU216HW,2013-03-24 09:19:00,
2013-03-24 05:20:00,40.6,33.9,29.59,West,270,0.0,0.0,77,0.00,,,0.00,WUHU216HW,2013-03-24 09:20:00,
2013-03-24 05:21:00,40.4,37.1,29.72,NNE,23,0.0,6.0,88,0.10,,,0.28,WUHU216HW,2013-03-24 09:21:00,
2013-03-24 05:22:00,40.4,37.1,29.72,NNE,23,0.0,6.0,88,0.10,,,0.28,WUHU216HW,2013-03-24 09:22:00,
2013-03-24 05:23:00,40.4,37.1,29.72,NNE,23,0.0,6.0,88,0.10,,,0.28,WUHU216HW,2013-03-24 09:23:00,
2013-03-24 05:24:00,40.2,36.9,29.72,SSW,203,0.0,6.0,88,0.10,,,0.28,WUHU216HW,2013-03-24 09:24:00,
2013-03-24 05:25:00,40.6,33.9,29.60,West,270,0.0,0.0,77,0.00,,,0.00,WUHU216HW,2013-03-24 09:25:00,
2013-03-24 05:26:00,40.2,36.9,29.72,West,270,0.0,6.0,88,0.12,,,0.30,WUHU216HW,2013-03-24 09:26:00,
2013-03-24 05:27:00,40.2,36.9,29.72,West,270,0.0,6.0,88,0.12,,,0.30,WUHU216HW,2013-03-24 09:27:00,
2013-03-24 05:28:00,40.2,36.9,29.72,WNW,293,0.0,6.0,88,0.12,,,0.30,WUHU216HW,2013-03-24 09:28:00,
2013-03-24 05:29:00,40.2,36.9,29.72,WNW,293,0.0,6.0,88,0.12,,,0.30,WUHU216HW,2013-03-24 09:29:00,
2013-03-24 05:30:00,40.6,33.9,29.60,West,270,0.0,0.0,77,0.00,,,0.00,WUHU216HW,2013-03-24 09:30:00,
2013-03-24 05:31:00,40.2,36.9,29.72,NNW,338,0.0,0.0,88,0.12,,,0.30,WUHU216HW,2013-03-24 09:31:00,
2013-03-24 05:32:00,40.2,36.9,29.72,NNW,338,0.0,0.0,88,0.12,,,0.30,WUHU216HW,2013-03-24 09:32:00,
2013-03-24 05:33:00,40.2,36.9,29.72,WNW,293,0.0,0.0,88,0.12,,,0.30,WUHU216HW,2013-03-24 09:33:00,
2013-03-24 05:34:00,40.2,36.9,29.72,WNW,293,0.0,0.0,88,0.12,,,0.30,WUHU216HW,2013-03-24 09:34:00,
2013-03-24 05:35:00,40.6,33.9,29.59,West,270,0.0,0.0,77,0.00,,,0.00,WUHU216HW,2013-03-24 09:35:00,
2013-03-24 05:36:00,40.2,36.9,29.72,ENE,68,0.0,0.0,88,0.14,,,0.32,WUHU216HW,2013-03-24 09:36:00,
2013-03-24 05:37:00,40.2,36.9,29.72,NE,45,0.8,0.8,88,0.16,,,0.34,WUHU216HW,2013-03-24 09:37:00,
2013-03-24 05:38:00,40.2,36.9,29.72,NE,45,0.8,0.8,88,0.16,,,0.34,WUHU216HW,2013-03-24 09:38:00,
2013-03-24 05:39:00,40.2,36.9,29.72,NE,45,0.0,0.8,88,0.16,,,0.34,WUHU216HW,2013-03-24 09:39:00,
2013-03-24 05:40:00,40.8,34.1,29.59,West,270,0.0,0.0,77,0.00,,,0.00,WUHU216HW,2013-03-24 09:40:00,
2013-03-24 05:41:00,40.2,36.9,29.71,ESE,113,0.0,0.8,88,0.16,,,0.34,WUHU216HW,2013-03-24 09:41:00,
2013-03-24 05:42:00,40.2,36.9,29.71,ESE,113,0.0,0.8,88,0.16,,,0.34,WUHU216HW,2013-03-24 09:42:00,
2013-03-24 05:44:00,40.2,36.9,29.71,SSE,158,0.0,0.8,88,0.16,,,0.34,WUHU216HW,2013-03-24 09:44:00,
2013-03-24 05:45:00,40.2,36.9,29.71,West,270,0.0,0.8,88,0.14,,,0.34,WUHU216HW,2013-03-24 09:45:00,
2013-03-24 05:46:00,40.8,34.1,29.58,West,270,0.0,0.0,77,0.00,,,0.00,WUHU216HW,2013-03-24 09:46:00,
2013-03-24 05:47:00,40.2,36.9,29.72,West,270,0.0,0.8,88,0.14,,,0.36,WUHU216HW,2013-03-24 09:47:00,
2013-03-24 05:48:00,40.2,36.9,29.72,NNW,338,0.0,0.8,88,0.16,,,0.38,WUHU216HW,2013-03-24 09:48:00,
2013-03-24 05:49:00,40.2,36.9,29.72,NNW,338,0.0,0.0,88,0.16,,,0.38,WUHU216HW,2013-03-24 09:49:00,
2013-03-24 05:50:00,40.1,36.8,29.72,West,270,0.0,0.0,88,0.16,,,0.38,WUHU216HW,2013-03-24 09:50:00,
2013-03-24 05:51:00,40.1,36.8,29.72,West,270,0.0,0.0,88,0.16,,,0.38,WUHU216HW,2013-03-24 09:51:00,
2013-03-24 05:52:00,40.2,36.9,29.72,WNW,293,0.0,0.0,88,0.16,,,0.38,WUHU216HW,2013-03-24 09:52:00,
2013-03-24 05:53:00,40.2,36.9,29.72,WNW,293,0.0,0.0,88,0.16,,,0.38,WUHU216HW,2013-03-24 09:53:00,
2013-03-24 05:54:00,40.1,36.8,29.71,WNW,293,0.0,0.0,88,0.16,,,0.38,WUHU216HW,2013-03-24 09:54:00,
2013-03-24 05:55:00,40.1,36.8,29.71,WNW,293,0.0,0.0,88,0.16,,,0.38,WUHU216HW,2013-03-24 09:55:00,
2013-03-24 05:56:00,40.1,36.8,29.71,NE,45,0.0,0.0,88,0.16,,,0.38,WUHU216HW,2013-03-24 09:56:00,
2013-03-24 05:57:00,40.1,36.8,29.72,NE,45,0.0,0.0,88,0.16,,,0.38,WUHU216HW,2013-03-24 09:57:00,
2013-03-24 05:58:00,40.1,36.8,29.72,NE,45,0.0,0.0,88,0.16,,,0.38,WUHU216HW,2013-03-24 09:58:00,
2013-03-24 05:59:00,40.8,34.1,29.57,West,270,0.0,0.0,77,0.00,,,0.00,WUHU216HW,2013-03-24 09:59:00,
2013-03-24 06:00:00,40.1,36.8,29.72,NE,45,0.0,0.0,88,0.16,,,0.41,WUHU216HW,2013-03-24 10:00:00,
2013-03-24 06:01:00,40.1,36.8,29.71,ENE,68,0.0,0.0,88,0.16,,,0.41,WUHU216HW,2013-03-24 10:01:00,
2013-03-24 06:02:00,40.1,36.8,29.71,ENE,68,0.0,0.0,88,0.16,,,0.41,WUHU216HW,2013-03-24 10:02:00,
2013-03-24 06:03:00,40.1,36.8,29.71,ESE,113,0.0,0.0,88,0.16,,,0.41,WUHU216HW,2013-03-24 10:03:00,
2013-03-24 06:04:00,40.1,36.8,29.71,ESE,113,0.0,0.0,88,0.16,,,0.41,WUHU216HW,2013-03-24 10:04:00,
2013-03-24 06:05:00,40.8,34.1,29.56,NNE,23,0.0,0.0,76,0.00,,,0.00,WUHU216HW,2013-03-24 10:05:00,
2013-03-24 06:06:00,40.1,36.8,29.70,WNW,293,0.0,0.0,88,0.19,,,0.43,WUHU216HW,2013-03-24 10:06:00,
2013-03-24 06:07:00,40.1,36.8,29.70,NNW,338,0.0,0.0,88,0.19,,,0.43,WUHU216HW,2013-03-24 10:07:00,
2013-03-24 06:08:00,40.1,36.8,29.69,NNW,338,0.0,0.0,88,0.19,,,0.43,WUHU216HW,2013-03-24 10:08:00,
2013-03-24 06:09:00,40.1,36.8,29.69,West,270,0.0,0.0,88,0.19,,,0.45,WUHU216HW,2013-03-24 10:09:00,
2013-03-24 06:10:00,41.0,33.6,29.56,NE,45,0.0,0.0,75,0.00,,,0.00,WUHU216HW,2013-03-24 10:10:00,
2013-03-24 06:11:00,39.9,36.6,29.69,NE,45,1.1,1.1,88,0.19,,,0.45,WUHU216HW,2013-03-24 10:11:00,
2013-03-24 06:12:00,39.9,36.6,29.69,NE,45,1.1,1.1,88,0.19,,,0.45,WUHU216HW,2013-03-24 10:12:00,
2013-03-24 06:13:00,39.9,36.6,29.70,NE,45,1.1,1.1,88,0.19,,,0.45,WUHU216HW,2013-03-24 10:13:00,
2013-03-24 06:14:00,39.9,36.6,29.69,North,0,0.0,1.1,88,0.19,,,0.45,WUHU216HW,2013-03-24 10:14:00,
2013-03-24 06:15:00,39.9,36.6,29.69,North,0,0.0,1.1,88,0.19,,,0.45,WUHU216HW,2013-03-24 10:15:00,
2013-03-24 06:16:00,41.1,33.8,29.55,NE,45,0.0,0.0,74,0.00,,,0.00,WUHU216HW,2013-03-24 10:16:00,
2013-03-24 06:17:00,39.9,36.6,29.69,ENE,68,0.0,1.1,88,0.19,,,0.45,WUHU216HW,2013-03-24 10:17:00,
2013-03-24 06:18:00,39.9,36.6,29.69,WNW,293,0.0,1.1,88,0.19,,,0.45,WUHU216HW,2013-03-24 10:18:00,
2013-03-24 06:19:00,39.9,36.6,29.69,WNW,293,0.0,1.1,88,0.19,,,0.45,WUHU216HW,2013-03-24 10:19:00,
2013-03-24 06:20:00,39.9,36.6,29.69,WNW,293,0.0,1.1,88,0.19,,,0.47,WUHU216HW,2013-03-24 10:20:00,
2013-03-24 06:21:00,41.1,33.8,29.55,North,0,0.0,0.0,74,0.00,,,0.00,WUHU216HW,2013-03-24 10:21:00,
2013-03-24 06:22:00,39.9,36.6,29.69,West,270,0.0,1.1,88,0.19,,,0.47,WUHU216HW,2013-03-24 10:22:00,
2013-03-24 06:23:00,39.9,36.6,29.69,West,270,0.0,1.1,88,0.19,,,0.47,WUHU216HW,2013-03-24 10:23:00,
2013-03-24 06:24:00,39.9,36.6,29.69,NNE,23,0.0,0.0,88,0.19,,,0.47,WUHU216HW,2013-03-24 10:24:00,
2013-03-24 06:25:00,39.9,36.6,29.69,NNE,23,0.0,0.0,88,0.19,,,0.47,WUHU216HW,2013-03-24 10:25:00,
2013-03-24 06:26:00,39.9,36.6,29.69,NE,45,0.0,0.0,88,0.19,,,0.47,WUHU216HW,2013-03-24 10:26:00,
2013-03-24 06:27:00,41.3,33.3,29.56,NE,45,0.0,0.0,73,0.00,,,0.00,WUHU216HW,2013-03-24 10:27:00,
2013-03-24 06:28:00,39.9,36.6,29.69,NE,45,0.0,0.0,88,0.19,,,0.47,WUHU216HW,2013-03-24 10:28:00,
2013-03-24 06:29:00,39.9,36.6,29.69,SW,225,0.0,0.0,88,0.19,,,0.47,WUHU216HW,2013-03-24 10:29:00,
2013-03-24 06:30:00,39.9,36.6,29.69,SW,225,0.0,0.0,88,0.19,,,0.47,WUHU216HW,2013-03-24 10:30:00,
2013-03-24 06:31:00,39.7,36.4,29.69,NE,45,3.3,3.3,88,0.19,,,0.47,WUHU216HW,2013-03-24 10:31:00,
2013-03-24 06:32:00,39.7,36.4,29.68,NE,45,3.3,3.3,88,0.19,,,0.47,WUHU216HW,2013-03-24 10:32:00,
2013-03-24 06:33:00,41.5,33.5,29.56,NE,45,0.0,0.0,73,0.00,,,0.00,WUHU216HW,2013-03-24 10:33:00,
2013-03-24 06:34:00,39.7,36.4,29.68,ENE,68,0.0,3.3,88,0.19,,,0.47,WUHU216HW,2013-03-24 10:34:00,
2013-03-24 06:35:00,39.7,36.4,29.68,NE,45,0.0,3.3,88,0.19,,,0.47,WUHU216HW,2013-03-24 10:35:00,
2013-03-24 06:36:00,39.7,36.4,29.69,NE,45,0.0,3.3,88,0.19,,,0.47,WUHU216HW,2013-03-24 10:36:00,
2013-03-24 06:37:00,39.7,36.4,29.69,NE,45,1.5,3.3,88,0.19,,,0.47,WUHU216HW,2013-03-24 10:37:00,
2013-03-24 06:38:00,41.5,33.5,29.57,NE,45,0.0,0.0,73,0.00,,,0.00,WUHU216HW,2013-03-24 10:38:00,
2013-03-24 06:39:00,39.7,36.4,29.68,NE,45,2.0,3.3,88,0.19,,,0.47,WUHU216HW,2013-03-24 10:39:00,
2013-03-24 06:40:00,39.7,36.4,29.68,NE,45,2.0,3.3,88,0.19,,,0.47,WUHU216HW,2013-03-24 10:40:00,
2013-03-24 06:41:00,39.7,36.4,29.68,ENE,68,0.0,3.3,89,0.14,,,0.49,WUHU216HW,2013-03-24 10:41:00,
2013-03-24 06:42:00,39.7,36.4,29.68,ENE,68,0.0,3.3,89,0.14,,,0.49,WUHU216HW,2013-03-24 10:42:00,
2013-03-24 06:43:00,39.7,36.4,29.68,ENE,68,0.0,2.0,89,0.14,,,0.49,WUHU216HW,2013-03-24 10:43:00,
2013-03-24 06:44:00,41.7,33.6,29.57,NE,45,0.0,0.0,73,0.00,,,0.00,WUHU216HW,2013-03-24 10:44:00,
2013-03-24 06:45:00,39.7,36.4,29.68,West,270,0.0,2.0,89,0.14,,,0.49,WUHU216HW,2013-03-24 10:45:00,
2013-03-24 06:46:00,39.9,36.9,29.68,NNE,23,0.0,2.0,89,0.14,,,0.49,WUHU216HW,2013-03-24 10:46:00,
2013-03-24 06:47:00,39.9,36.9,29.68,NNE,23,0.0,2.0,89,0.14,,,0.49,WUHU216HW,2013-03-24 10:47:00,
2013-03-24 06:48:00,39.9,36.9,29.67,ENE,68,0.0,2.0,89,0.14,,,0.49,WUHU216HW,2013-03-24 10:48:00,
2013-03-24 06:49:00,39.9,36.9,29.67,ENE,68,0.0,2.0,89,0.14,,,0.49,WUHU216HW,2013-03-24 10:49:00,
2013-03-24 06:50:00,41.7,33.6,29.57,NE,45,0.0,0.0,73,0.00,,,0.00,WUHU216HW,2013-03-24 10:50:00,
2013-03-24 06:51:00,39.9,36.9,29.67,ESE,113,2.9,2.9,89,0.14,,,0.49,WUHU216HW,2013-03-24 10:51:00,
2013-03-24 06:52:00,39.9,36.9,29.67,ENE,68,2.2,2.9,89,0.14,,,0.49,WUHU216HW,2013-03-24 10:52:00,
2013-03-24 06:53:00,39.9,36.9,29.67,ENE,68,2.2,2.9,89,0.14,,,0.49,WUHU216HW,2013-03-24 10:53:00,
2013-03-24 06:54:00,39.9,36.9,29.66,SE,135,0.0,2.9,89,0.14,,,0.49,WUHU216HW,2013-03-24 10:54:00,
2013-03-24 06:55:00,39.9,36.9,29.66,SE,135,0.0,2.9,89,0.14,,,0.49,WUHU216HW,2013-03-24 10:55:00,
2013-03-24 06:56:00,39.7,36.7,29.66,NE,45,0.8,2.9,89,0.14,,,0.49,WUHU216HW,2013-03-24 10:56:00,
2013-03-24 06:57:00,41.9,33.8,29.57,NE,45,0.0,0.0,73,0.00,,,0.00,WUHU216HW,2013-03-24 10:57:00,
2013-03-24 06:58:00,39.7,36.7,29.66,NE,45,0.8,2.9,89,0.14,,,0.49,WUHU216HW,2013-03-24 10:58:00,
2013-03-24 06:59:00,39.7,36.7,29.66,NNE,23,0.0,2.9,89,0.14,,,0.49,WUHU216HW,2013-03-24 10:59:00,
2013-03-24 07:00:00,39.7,36.7,29.66,NNE,23,0.0,2.9,89,0.14,,,0.49,WUHU216HW,2013-03-24 11:00:00,
2013-03-24 07:01:00,39.7,36.7,29.66,NNW,338,0.0,2.9,89,0.14,,,0.49,WUHU216HW,2013-03-24 11:01:00,
2013-03-24 07:02:00,42.0,33.7,29.57,NE,45,0.0,0.0,72,0.00,,,0.00,WUHU216HW,2013-03-24 11:02:00,
2013-03-24 07:03:00,39.9,36.9,29.66,SE,135,0.4,2.2,89,0.10,,,0.51,WUHU216HW,2013-03-24 11:03:00,
2013-03-24 07:04:00,39.9,36.9,29.66,SE,135,0.4,0.8,89,0.10,,,0.51,WUHU216HW,2013-03-24 11:04:00,
2013-03-24 07:05:00,39.7,36.7,29.66,ENE,68,0.0,0.8,89,0.10,,,0.51,WUHU216HW,2013-03-24 11:05:00,
2013-03-24 07:06:00,39.7,36.7,29.65,ENE,68,0.0,0.8,89,0.10,,,0.51,WUHU216HW,2013-03-24 11:06:00,
2013-03-24 07:07:00,39.9,36.9,29.65,NNW,338,0.0,0.8,89,0.10,,,0.51,WUHU216HW,2013-03-24 11:07:00,
2013-03-24 07:08:00,42.0,33.7,29.57,NNE,23,0.0,0.0,72,0.00,,,0.00,WUHU216HW,2013-03-24 11:08:00,
2013-03-24 07:09:00,39.9,36.9,29.65,NNW,338,0.0,0.4,89,0.10,,,0.51,WUHU216HW,2013-03-24 11:09:00,
2013-03-24 07:10:00,39.7,36.7,29.66,WNW,293,0.0,0.4,89,0.10,,,0.51,WUHU216HW,2013-03-24 11:10:00,
2013-03-24 07:11:00,39.7,36.7,29.66,WNW,293,0.0,0.4,89,0.10,,,0.51,WUHU216HW,2013-03-24 11:11:00,
2013-03-24 07:12:00,39.7,36.7,29.65,ENE,68,1.1,1.1,89,0.10,,,0.51,WUHU216HW,2013-03-24 11:12:00,
2013-03-24 07:13:00,42.0,33.7,29.57,NE,45,0.0,0.0,71,0.00,,,0.00,WUHU216HW,2013-03-24 11:13:00,
2013-03-24 07:14:00,39.9,36.9,29.65,ESE,113,1.5,1.5,89,0.10,,,0.51,WUHU216HW,2013-03-24 11:14:00,
2013-03-24 07:15:00,39.9,36.9,29.65,ESE,113,1.5,1.5,89,0.10,,,0.51,WUHU216HW,2013-03-24 11:15:00,
2013-03-24 07:16:00,39.7,36.7,29.65,ENE,68,1.5,1.5,89,0.10,,,0.51,WUHU216HW,2013-03-24 11:16:00,
2013-03-24 07:17:00,39.7,36.7,29.65,ENE,68,1.5,1.5,89,0.10,,,0.51,WUHU216HW,2013-03-24 11:17:00,
2013-03-24 07:18:00,42.0,33.7,29.57,NE,45,0.0,0.0,72,0.00,,,0.00,WUHU216HW,2013-03-24 11:18:00,
2013-03-24 07:19:00,39.7,36.7,29.65,ENE,68,2.9,2.9,89,0.10,,,0.51,WUHU216HW,2013-03-24 11:19:00,
2013-03-24 07:20:00,39.7,36.7,29.65,NE,45,0.0,2.9,89,0.04,,,0.51,WUHU216HW,2013-03-24 11:20:00,
2013-03-24 07:21:00,39.7,36.7,29.65,NE,45,0.0,2.9,89,0.04,,,0.51,WUHU216HW,2013-03-24 11:21:00,
2013-03-24 07:22:00,39.7,36.7,29.65,ENE,68,3.3,3.3,89,0.04,,,0.51,WUHU216HW,2013-03-24 11:22:00,
2013-03-24 07:23:00,39.7,36.7,29.65,ENE,68,3.3,3.3,89,0.04,,,0.51,WUHU216HW,2013-03-24 11:23:00,
2013-03-24 07:24:00,42.0,33.7,29.57,NE,45,0.0,0.0,73,0.00,,,0.00,WUHU216HW,2013-03-24 11:24:00,
2013-03-24 07:25:00,39.9,36.9,29.65,North,0,0.0,3.3,89,0.04,,,0.51,WUHU216HW,2013-03-24 11:25:00,
2013-03-24 07:26:00,39.9,36.9,29.66,East,90,0.0,3.3,89,0.04,,,0.51,WUHU216HW,2013-03-24 11:26:00,
2013-03-24 07:27:00,39.9,36.9,29.65,East,90,0.0,3.3,89,0.04,,,0.51,WUHU216HW,2013-03-24 11:27:00,
2013-03-24 07:28:00,39.9,36.9,29.65,East,90,0.0,3.3,89,0.04,,,0.51,WUHU216HW,2013-03-24 11:28:00,
2013-03-24 07:29:00,39.9,36.9,29.66,East,90,0.0,3.3,89,0.04,,,0.51,WUHU216HW,2013-03-24 11:29:00,
2013-03-24 07:30:00,41.9,34.1,29.55,NE,45,0.0,0.0,74,0.00,,,0.00,WUHU216HW,2013-03-24 11:30:00,
2013-03-24 07:31:00,39.7,36.7,29.66,NNE,23,1.3,3.3,89,0.04,,,0.51,WUHU216HW,2013-03-24 11:31:00,
2013-03-24 07:32:00,39.7,36.7,29.66,NNE,23,1.3,3.3,89,0.04,,,0.51,WUHU216HW,2013-03-24 11:32:00,
2013-03-24 07:33:00,39.9,36.9,29.65,NNW,338,0.0,3.3,89,0.04,,,0.51,WUHU216HW,2013-03-24 11:33:00,
2013-03-24 07:34:00,39.9,36.9,29.65,NNW,338,0.0,1.3,89,0.04,,,0.51,WUHU216HW,2013-03-24 11:34:00,
2013-03-24 07:35:00,39.9,36.9,29.65,NNE,23,0.0,1.3,89,0.04,,,0.51,WUHU216HW,2013-03-24 11:35:00,
2013-03-24 07:36:00,39.9,36.9,29.65,NNE,23,0.0,1.3,89,0.04,,,0.51,WUHU216HW,2013-03-24 11:36:00,
2013-03-24 07:37:00,39.9,36.9,29.65,NNE,23,0.0,1.3,89,0.04,,,0.51,WUHU216HW,2013-03-24 11:37:00,
2013-03-24 07:38:00,39.9,36.9,29.65,NE,45,0.0,1.3,89,0.04,,,0.51,WUHU216HW,2013-03-24 11:38:00,
2013-03-24 07:39:00,39.9,36.9,29.65,NE,45,0.0,1.3,89,0.04,,,0.51,WUHU216HW,2013-03-24 11:39:00,
2013-03-24 07:40:00,39.9,36.9,29.65,NW,315,0.0,1.3,89,0.04,,,0.51,WUHU216HW,2013-03-24 11:40:00,
2013-03-24 07:41:00,39.9,36.9,29.65,East,90,0.0,1.3,89,0.04,,,0.51,WUHU216HW,2013-03-24 11:41:00,
2013-03-24 07:42:00,39.9,36.9,29.65,East,90,0.0,1.3,89,0.04,,,0.51,WUHU216HW,2013-03-24 11:42:00,
2013-03-24 07:43:00,39.9,36.9,29.65,East,90,0.0,0.0,89,0.04,,,0.51,WUHU216HW,2013-03-24 11:43:00,
2013-03-24 07:44:00,39.9,36.9,29.65,ENE,68,0.0,0.0,89,0.04,,,0.51,WUHU216HW,2013-03-24 11:44:00,
2013-03-24 07:45:00,39.9,36.9,29.65,ENE,68,0.0,0.0,89,0.04,,,0.51,WUHU216HW,2013-03-24 11:45:00,
2013-03-24 07:46:00,39.9,36.9,29.66,NE,45,0.0,0.0,89,0.04,,,0.51,WUHU216HW,2013-03-24 11:46:00,
2013-03-24 07:47:00,41.5,34.4,29.54,NE,45,0.0,0.0,77,0.00,,,0.00,WUHU216HW,2013-03-24 11:47:00,
2013-03-24 07:48:00,39.9,36.9,29.65,NW,315,0.0,0.0,89,0.04,,,0.51,WUHU216HW,2013-03-24 11:48:00,
2013-03-24 07:49:00,39.9,36.9,29.65,NW,315,0.0,0.0,89,0.04,,,0.51,WUHU216HW,2013-03-24 11:49:00,
2013-03-24 07:50:00,39.9,36.9,29.65,NNW,338,4.4,4.4,89,0.04,,,0.51,WUHU216HW,2013-03-24 11:50:00,
2013-03-24 07:51:00,39.9,36.9,29.65,NNW,338,0.6,4.4,89,0.04,,,0.51,WUHU216HW,2013-03-24 11:51:00,
2013-03-24 07:52:00,39.9,36.9,29.65,NNW,338,0.6,4.4,89,0.04,,,0.51,WUHU216HW,2013-03-24 11:52:00,
2013-03-24 07:53:00,41.5,34.4,29.54,NE,45,0.0,0.0,77,0.00,,,0.00,WUHU216HW,2013-03-24 11:53:00,
2013-03-24 07:54:00,39.9,36.9,29.65,NE,45,0.0,4.4,89,0.04,,,0.51,WUHU216HW,2013-03-24 11:54:00,
2013-03-24 07:55:00,39.9,36.9,29.65,ENE,68,2.9,4.4,89,0.04,,,0.53,WUHU216HW,2013-03-24 11:55:00,
2013-03-24 07:56:00,39.9,36.9,29.64,ENE,68,2.9,4.4,89,0.04,,,0.53,WUHU216HW,2013-03-24 11:56:00,
2013-03-24 07:57:00,39.9,36.9,29.64,NE,45,0.0,4.4,89,0.04,,,0.53,WUHU216HW,2013-03-24 11:57:00,
2013-03-24 07:58:00,41.5,34.4,29.55,NE,45,0.0,0.0,78,0.00,,,0.00,WUHU216HW,2013-03-24 11:58:00,
2013-03-24 07:59:00,39.9,36.9,29.64,NW,315,0.0,4.4,89,0.04,,,0.53,WUHU216HW,2013-03-24 11:59:00,
2013-03-24 08:00:00,39.9,36.9,29.64,NW,315,0.0,4.4,89,0.04,,,0.53,WUHU216HW,2013-03-24 12:00:00,
2013-03-24 08:01:00,39.9,36.9,29.64,NW,315,0.0,2.9,89,0.04,,,0.53,WUHU216HW,2013-03-24 12:01:00,
2013-03-24 08:02:00,39.9,36.9,29.63,North,0,0.6,2.9,89,0.04,,,0.53,WUHU216HW,2013-03-24 12:02:00,
2013-03-24 08:03:00,39.9,36.9,29.63,North,0,0.6,2.9,89,0.04,,,0.53,WUHU216HW,2013-03-24 12:03:00,
2013-03-24 08:04:00,41.5,34.8,29.55,NE,45,0.0,0.0,77,0.00,,,0.00,WUHU216HW,2013-03-24 12:04:00,
2013-03-24 08:05:00,39.9,36.9,29.63,NE,45,4.0,4.0,89,0.04,,,0.53,WUHU216HW,2013-03-24 12:05:00,
2013-03-24 08:06:00,39.9,36.9,29.63,North,0,0.0,4.0,89,0.04,,,0.53,WUHU216HW,2013-03-24 12:06:00,
2013-03-24 08:07:00,39.9,36.9,29.63,North,0,0.0,4.0,89,0.04,,,0.53,WUHU216HW,2013-03-24 12:07:00,
2013-03-24 08:08:00,39.9,36.9,29.63,NE,45,2.0,4.0,89,0.04,,,0.53,WUHU216HW,2013-03-24 12:08:00,
2013-03-24 08:09:00,39.9,36.9,29.63,NE,45,2.0,4.0,89,0.04,,,0.53,WUHU216HW,2013-03-24 12:09:00,
2013-03-24 08:10:00,39.9,36.9,29.63,West,270,0.0,4.0,89,0.04,,,0.53,WUHU216HW,2013-03-24 12:10:00,
2013-03-24 08:11:00,39.9,36.9,29.63,West,270,0.0,4.0,89,0.04,,,0.53,WUHU216HW,2013-03-24 12:11:00,
2013-03-24 08:12:00,39.9,36.9,29.63,West,270,0.0,4.0,89,0.04,,,0.53,WUHU216HW,2013-03-24 12:12:00,
2013-03-24 08:13:00,39.9,36.9,29.63,ENE,68,0.0,4.0,89,0.04,,,0.53,WUHU216HW,2013-03-24 12:13:00,
2013-03-24 08:14:00,39.9,36.9,29.63,ENE,68,0.0,4.0,89,0.04,,,0.53,WUHU216HW,2013-03-24 12:14:00,
2013-03-24 08:15:00,39.9,36.9,29.63,NNE,23,0.0,4.0,89,0.04,,,0.53,WUHU216HW,2013-03-24 12:15:00,
2013-03-24 08:16:00,39.9,36.9,29.63,NNW,338,0.0,2.0,89,0.04,,,0.55,WUHU216HW,2013-03-24 12:16:00,
2013-03-24 08:17:00,41.1,35.4,29.55,NE,45,0.0,0.0,80,0.00,,,0.00,WUHU216HW,2013-03-24 12:17:00,
2013-03-24 08:18:00,39.9,36.9,29.62,NNW,338,0.0,2.0,89,0.04,,,0.55,WUHU216HW,2013-03-24 12:18:00,
2013-03-24 08:19:00,39.9,36.9,29.62,North,0,1.3,2.0,89,0.04,,,0.55,WUHU216HW,2013-03-24 12:19:00,
2013-03-24 08:20:00,39.9,36.9,29.62,North,0,1.3,1.3,89,0.04,,,0.55,WUHU216HW,2013-03-24 12:20:00,
2013-03-24 08:21:00,39.9,36.9,29.63,ENE,68,0.0,1.3,89,0.04,,,0.55,WUHU216HW,2013-03-24 12:21:00,
2013-03-24 08:22:00,39.9,36.9,29.63,ENE,68,0.0,1.3,89,0.04,,,0.55,WUHU216HW,2013-03-24 12:22:00,
2013-03-24 08:23:00,41.1,35.4,29.55,NE,45,0.0,0.0,80,0.02,,,0.02,WUHU216HW,2013-03-24 12:23:00,
2013-03-24 08:24:00,39.9,36.9,29.63,South,180,0.0,1.3,89,0.04,,,0.55,WUHU216HW,2013-03-24 12:24:00,
2013-03-24 08:25:00,39.9,36.9,29.63,North,0,0.0,1.3,89,0.04,,,0.55,WUHU216HW,2013-03-24 12:25:00,
2013-03-24 08:26:00,39.9,36.9,29.63,North,0,0.0,1.3,89,0.04,,,0.55,WUHU216HW,2013-03-24 12:26:00,
2013-03-24 08:27:00,39.9,36.9,29.63,North,0,0.0,1.3,89,0.04,,,0.55,WUHU216HW,2013-03-24 12:27:00,
2013-03-24 08:28:00,41.1,35.4,29.55,NE,45,0.0,0.0,80,0.02,,,0.02,WUHU216HW,2013-03-24 12:28:00,
2013-03-24 08:29:00,39.9,36.9,29.63,ENE,68,0.0,1.3,89,0.04,,,0.55,WUHU216HW,2013-03-24 12:29:00,
2013-03-24 08:30:00,39.9,36.9,29.63,NNW,338,0.0,1.3,89,0.04,,,0.55,WUHU216HW,2013-03-24 12:30:00,
2013-03-24 08:31:00,39.9,36.9,29.63,NNW,338,0.0,0.0,89,0.04,,,0.55,WUHU216HW,2013-03-24 12:31:00,
2013-03-24 08:32:00,39.9,36.9,29.63,NW,315,1.7,1.7,89,0.04,,,0.55,WUHU216HW,2013-03-24 12:32:00,
2013-03-24 08:33:00,41.1,35.4,29.55,NE,45,0.0,0.0,80,0.02,,,0.02,WUHU216HW,2013-03-24 12:33:00,
2013-03-24 08:34:00,39.9,36.9,29.63,NE,45,1.7,1.7,89,0.04,,,0.55,WUHU216HW,2013-03-24 12:34:00,
2013-03-24 08:35:00,39.9,36.9,29.63,NE,45,1.7,1.7,89,0.04,,,0.55,WUHU216HW,2013-03-24 12:35:00,
2013-03-24 08:36:00,39.9,36.9,29.63,NE,45,0.0,1.7,89,0.04,,,0.55,WUHU216HW,2013-03-24 12:36:00,
2013-03-24 08:37:00,39.9,36.9,29.63,NE,45,0.0,1.7,89,0.04,,,0.55,WUHU216HW,2013-03-24 12:37:00,
2013-03-24 08:38:00,39.9,36.9,29.63,NNE,23,0.0,1.7,89,0.04,,,0.55,WUHU216HW,2013-03-24 12:38:00,
2013-03-24 08:39:00,41.0,35.2,29.54,NE,45,0.0,0.0,80,0.02,,,0.02,WUHU216HW,2013-03-24 12:39:00,
2013-03-24 08:40:00,39.9,36.9,29.63,SSW,203,0.0,1.7,89,0.04,,,0.55,WUHU216HW,2013-03-24 12:40:00,
2013-03-24 08:41:00,39.9,36.9,29.62,SSW,203,0.0,1.7,89,0.04,,,0.55,WUHU216HW,2013-03-24 12:41:00,
2013-03-24 08:42:00,39.9,36.9,29.62,SSW,203,0.0,1.7,89,0.04,,,0.55,WUHU216HW,2013-03-24 12:42:00,
2013-03-24 08:43:00,39.9,36.9,29.62,NE,45,0.0,1.7,89,0.04,,,0.55,WUHU216HW,2013-03-24 12:43:00,
2013-03-24 08:44:00,39.9,36.9,29.62,NE,45,0.0,1.7,89,0.04,,,0.55,WUHU216HW,2013-03-24 12:44:00,
2013-03-24 08:45:00,40.8,35.3,29.54,NE,45,0.0,0.0,81,0.04,,,0.04,WUHU216HW,2013-03-24 12:45:00,
2013-03-24 08:46:00,39.9,36.9,29.62,North,0,0.0,0.0,89,0.04,,,0.55,WUHU216HW,2013-03-24 12:46:00,
2013-03-24 08:47:00,40.1,37.1,29.62,NE,45,0.0,0.0,89,0.04,,,0.55,WUHU216HW,2013-03-24 12:47:00,
2013-03-24 08:48:00,40.1,37.1,29.62,NE,45,0.0,0.0,89,0.04,,,0.55,WUHU216HW,2013-03-24 12:48:00,
2013-03-24 08:49:00,39.9,36.9,29.62,ESE,113,0.0,0.0,89,0.04,,,0.55,WUHU216HW,2013-03-24 12:49:00,
2013-03-24 08:50:00,40.8,35.3,29.52,NE,45,1.3,1.3,82,0.04,,,0.04,WUHU216HW,2013-03-24 12:50:00,
2013-03-24 08:51:00,40.1,37.1,29.63,ESE,113,0.0,0.0,89,0.04,,,0.55,WUHU216HW,2013-03-24 12:51:00,
2013-03-24 08:52:00,40.1,37.1,29.63,ESE,113,0.0,0.0,89,0.04,,,0.55,WUHU216HW,2013-03-24 12:52:00,
2013-03-24 08:53:00,40.1,37.1,29.63,NW,315,0.0,0.0,89,0.04,,,0.55,WUHU216HW,2013-03-24 12:53:00,
2013-03-24 08:54:00,40.1,37.1,29.63,NW,315,0.0,0.0,89,0.04,,,0.55,WUHU216HW,2013-03-24 12:54:00,
2013-03-24 08:55:00,40.8,35.3,29.51,ENE,68,0.0,1.3,83,0.04,,,0.04,WUHU216HW,2013-03-24 12:55:00,
2013-03-24 08:56:00,40.1,37.1,29.63,WNW,293,0.0,0.0,89,0.04,,,0.55,WUHU216HW,2013-03-24 12:56:00,
2013-03-24 08:57:00,40.1,37.1,29.62,WNW,293,0.0,0.0,89,0.04,,,0.55,WUHU216HW,2013-03-24 12:57:00,
2013-03-24 08:58:00,40.1,37.1,29.62,SE,135,0.0,0.0,89,0.04,,,0.55,WUHU216HW,2013-03-24 12:58:00,
2013-03-24 08:59:00,40.1,37.1,29.62,SE,135,0.0,0.0,89,0.04,,,0.55,WUHU216HW,2013-03-24 12:59:00,
2013-03-24 09:00:00,40.6,35.8,29.50,ENE,68,0.0,1.3,83,0.04,,,0.04,WUHU216HW,2013-03-24 13:00:00,
2013-03-24 09:01:00,40.1,37.1,29.61,ESE,113,1.1,1.1,89,0.04,,,0.55,WUHU216HW,2013-03-24 13:01:00,
2013-03-24 09:02:00,40.1,37.1,29.61,ESE,113,1.1,1.1,89,0.04,,,0.55,WUHU216HW,2013-03-24 13:02:00,
2013-03-24 09:03:00,40.1,37.1,29.61,ESE,113,1.1,1.1,89,0.04,,,0.55,WUHU216HW,2013-03-24 13:03:00,
2013-03-24 09:04:00,40.1,37.1,29.61,North,0,0.0,1.1,89,0.04,,,0.55,WUHU216HW,2013-03-24 13:04:00,
2013-03-24 09:05:00,40.1,37.1,29.61,North,0,0.0,1.1,89,0.04,,,0.55,WUHU216HW,2013-03-24 13:05:00,
2013-03-24 09:06:00,39.9,36.9,29.61,NW,315,0.0,1.1,89,0.04,,,0.55,WUHU216HW,2013-03-24 13:06:00,
2013-03-24 09:07:00,39.9,36.9,29.61,NW,315,0.0,1.1,89,0.04,,,0.55,WUHU216HW,2013-03-24 13:07:00,
2013-03-24 09:08:00,39.9,36.9,29.61,East,90,2.9,2.9,89,0.04,,,0.55,WUHU216HW,2013-03-24 13:08:00,
2013-03-24 09:09:00,39.9,36.9,29.61,East,90,2.9,2.9,89,0.04,,,0.55,WUHU216HW,2013-03-24 13:09:00,
2013-03-24 09:10:00,39.9,36.9,29.61,NNW,338,0.0,2.9,89,0.04,,,0.55,WUHU216HW,2013-03-24 13:10:00,
2013-03-24 09:11:00,39.9,36.9,29.61,NNW,338,0.0,2.9,89,0.04,,,0.55,WUHU216HW,2013-03-24 13:11:00,
2013-03-24 09:12:00,39.9,36.9,29.61,NNW,338,0.0,2.9,89,0.04,,,0.55,WUHU216HW,2013-03-24 13:12:00,
2013-03-24 09:13:00,39.9,36.9,29.61,NNW,338,0.0,2.9,89,0.04,,,0.55,WUHU216HW,2013-03-24 13:13:00,
2013-03-24 09:14:00,39.9,36.9,29.61,NW,315,0.0,2.9,89,0.04,,,0.55,WUHU216HW,2013-03-24 13:14:00,
2013-03-24 09:15:00,39.9,36.9,29.61,NW,315,0.0,2.9,89,0.04,,,0.55,WUHU216HW,2013-03-24 13:15:00,
2013-03-24 09:16:00,39.9,36.9,29.61,NW,315,0.0,2.9,89,0.04,,,0.55,WUHU216HW,2013-03-24 13:16:00,
2013-03-24 09:17:00,39.9,36.9,29.61,NW,315,0.0,2.9,89,0.04,,,0.55,WUHU216HW,2013-03-24 13:17:00,
2013-03-24 09:18:00,39.9,36.9,29.61,NW,315,0.0,2.9,89,0.04,,,0.55,WUHU216HW,2013-03-24 13:18:00,
2013-03-24 09:19:00,40.6,35.8,29.48,ENE,68,0.0,0.0,84,0.06,,,0.06,WUHU216HW,2013-03-24 13:19:00,
2013-03-24 09:20:00,39.9,36.9,29.61,WNW,293,0.0,0.0,89,0.04,,,0.55,WUHU216HW,2013-03-24 13:20:00,
2013-03-24 09:21:00,39.9,36.9,29.61,WNW,293,0.0,0.0,89,0.04,,,0.55,WUHU216HW,2013-03-24 13:21:00,
2013-03-24 09:22:00,39.9,36.9,29.61,WNW,293,0.0,0.0,89,0.04,,,0.55,WUHU216HW,2013-03-24 13:22:00,
2013-03-24 09:23:00,39.9,36.9,29.61,WNW,293,0.0,0.0,89,0.04,,,0.55,WUHU216HW,2013-03-24 13:23:00,
2013-03-24 09:24:00,40.2,35.4,29.48,ENE,68,0.0,2.0,83,0.06,,,0.06,WUHU216HW,2013-03-24 13:24:00,
2013-03-24 09:25:00,39.9,36.9,29.61,WNW,293,0.0,0.0,89,0.04,,,0.55,WUHU216HW,2013-03-24 13:25:00,
2013-03-24 09:26:00,39.9,36.9,29.61,WNW,293,0.0,0.0,89,0.04,,,0.55,WUHU216HW,2013-03-24 13:26:00,
2013-03-24 09:27:00,39.9,36.9,29.61,WNW,293,0.0,0.0,89,0.04,,,0.55,WUHU216HW,2013-03-24 13:27:00,
2013-03-24 09:28:00,39.9,36.9,29.61,WNW,293,0.0,0.0,89,0.04,,,0.55,WUHU216HW,2013-03-24 13:28:00,
2013-03-24 09:29:00,39.9,36.9,29.61,WNW,293,0.0,0.0,89,0.04,,,0.55,WUHU216HW,2013-03-24 13:29:00,
2013-03-24 09:30:00,40.4,35.6,29.47,ENE,68,0.0,2.0,83,0.06,,,0.06,WUHU216HW,2013-03-24 13:30:00,
2013-03-24 09:31:00,39.9,36.9,29.61,WNW,293,0.0,0.0,89,0.04,,,0.55,WUHU216HW,2013-03-24 13:31:00,
2013-03-24 09:32:00,39.9,36.9,29.61,WNW,293,0.0,0.0,89,0.04,,,0.55,WUHU216HW,2013-03-24 13:32:00,
2013-03-24 09:33:00,39.9,36.9,29.61,WNW,293,0.0,0.0,89,0.04,,,0.55,WUHU216HW,2013-03-24 13:33:00,
2013-03-24 09:34:00,39.9,36.9,29.61,WNW,293,0.0,0.0,89,0.04,,,0.55,WUHU216HW,2013-03-24 13:34:00,
2013-03-24 09:35:00,39.9,36.9,29.61,WNW,293,0.0,0.0,89,0.04,,,0.55,WUHU216HW,2013-03-24 13:35:00,
2013-03-24 09:36:00,39.9,36.9,29.61,WNW,293,0.0,0.0,89,0.04,,,0.55,WUHU216HW,2013-03-24 13:36:00,
2013-03-24 09:37:00,39.9,36.9,29.61,WNW,293,0.0,0.0,89,0.00,,,0.55,WUHU216HW,2013-03-24 13:37:00,
2013-03-24 09:38:00,40.1,37.1,29.61,West,270,0.0,0.0,89,0.00,,,0.55,WUHU216HW,2013-03-24 13:38:00,
2013-03-24 09:39:00,40.1,37.1,29.60,West,270,0.0,0.0,89,0.00,,,0.55,WUHU216HW,2013-03-24 13:39:00,
2013-03-24 09:40:00,40.1,37.1,29.60,West,270,0.0,0.0,89,0.00,,,0.55,WUHU216HW,2013-03-24 13:40:00,
2013-03-24 09:41:00,40.1,37.1,29.60,NNW,338,0.0,0.0,89,0.00,,,0.55,WUHU216HW,2013-03-24 13:41:00,
2013-03-24 09:42:00,40.1,37.1,29.61,North,0,0.0,0.0,89,0.00,,,0.55,WUHU216HW,2013-03-24 13:42:00,
2013-03-24 09:43:00,40.1,37.1,29.61,North,0,0.0,0.0,89,0.00,,,0.55,WUHU216HW,2013-03-24 13:43:00,
2013-03-24 09:44:00,40.1,37.1,29.61,North,0,0.0,0.0,89,0.00,,,0.55,WUHU216HW,2013-03-24 13:44:00,
2013-03-24 09:45:00,40.1,37.1,29.61,North,0,2.0,2.0,89,0.00,,,0.55,WUHU216HW,2013-03-24 13:45:00,
2013-03-24 09:46:00,40.1,37.1,29.61,North,0,2.0,2.0,89,0.00,,,0.55,WUHU216HW,2013-03-24 13:46:00,
2013-03-24 09:47:00,40.1,37.1,29.61,North,0,0.0,2.0,89,0.00,,,0.55,WUHU216HW,2013-03-24 13:47:00,
2013-03-24 09:48:00,40.1,37.1,29.61,North,0,0.0,2.0,89,0.00,,,0.55,WUHU216HW,2013-03-24 13:48:00,
2013-03-24 09:49:00,40.1,37.1,29.61,North,0,0.0,2.0,89,0.00,,,0.55,WUHU216HW,2013-03-24 13:49:00,
2013-03-24 09:50:00,40.6,35.8,29.46,ENE,68,0.0,0.8,83,0.06,,,0.08,WUHU216HW,2013-03-24 13:50:00,
2013-03-24 09:51:00,40.1,37.1,29.61,NNW,338,0.6,2.0,89,0.00,,,0.55,WUHU216HW,2013-03-24 13:51:00,
2013-03-24 09:52:00,40.1,37.1,29.61,NNW,338,0.6,2.0,89,0.00,,,0.55,WUHU216HW,2013-03-24 13:52:00,
2013-03-24 09:53:00,40.1,37.1,29.61,NNW,338,0.0,2.0,89,0.00,,,0.55,WUHU216HW,2013-03-24 13:53:00,
2013-03-24 09:54:00,40.1,37.1,29.61,NNW,338,0.0,2.0,89,0.00,,,0.55,WUHU216HW,2013-03-24 13:54:00,
2013-03-24 09:55:00,40.1,37.1,29.61,NNW,338,0.0,2.0,89,0.00,,,0.55,WUHU216HW,2013-03-24 13:55:00,
2013-03-24 09:56:00,40.2,37.2,29.61,NW,315,0.0,2.0,89,0.00,,,0.55,WUHU216HW,2013-03-24 13:56:00,
2013-03-24 09:57:00,40.2,37.2,29.60,NW,315,0.0,0.6,89,0.00,,,0.55,WUHU216HW,2013-03-24 13:57:00,
2013-03-24 09:58:00,40.2,37.2,29.60,West,270,0.0,0.6,89,0.00,,,0.55,WUHU216HW,2013-03-24 13:58:00,
2013-03-24 09:59:00,40.2,37.2,29.61,West,270,0.0,0.6,89,0.00,,,0.55,WUHU216HW,2013-03-24 13:59:00,
2013-03-24 10:00:00,40.2,37.2,29.61,West,270,0.0,0.6,89,0.00,,,0.55,WUHU216HW,2013-03-24 14:00:00,
2013-03-24 10:01:00,40.2,37.2,29.60,West,270,0.0,0.6,89,0.00,,,0.55,WUHU216HW,2013-03-24 14:01:00,
2013-03-24 10:02:00,40.2,37.2,29.60,West,270,0.0,0.6,89,0.00,,,0.55,WUHU216HW,2013-03-24 14:02:00,
2013-03-24 10:03:00,40.2,37.2,29.60,West,270,0.0,0.0,89,0.00,,,0.55,WUHU216HW,2013-03-24 14:03:00,
2013-03-24 10:04:00,40.2,37.2,29.60,West,270,0.0,0.0,89,0.00,,,0.55,WUHU216HW,2013-03-24 14:04:00,
2013-03-24 10:05:00,40.2,37.2,29.60,West,270,0.0,0.0,89,0.00,,,0.55,WUHU216HW,2013-03-24 14:05:00,
2013-03-24 10:06:00,40.2,37.2,29.60,West,270,0.0,0.0,89,0.00,,,0.55,WUHU216HW,2013-03-24 14:06:00,
2013-03-24 10:07:00,40.2,37.2,29.60,West,270,0.0,0.0,89,0.00,,,0.55,WUHU216HW,2013-03-24 14:07:00,
2013-03-24 10:08:00,40.6,35.8,29.49,ENE,68,0.0,2.2,83,0.04,,,0.08,WUHU216HW,2013-03-24 14:08:00,
2013-03-24 10:09:00,40.2,37.2,29.60,ESE,113,0.0,0.0,89,0.00,,,0.55,WUHU216HW,2013-03-24 14:09:00,
2013-03-24 10:10:00,40.2,37.2,29.60,ESE,113,0.0,0.0,89,0.00,,,0.55,WUHU216HW,2013-03-24 14:10:00,
2013-03-24 10:11:00,40.2,37.2,29.60,East,90,0.0,0.0,89,0.00,,,0.55,WUHU216HW,2013-03-24 14:11:00,
2013-03-24 10:12:00,40.2,37.2,29.60,East,90,0.0,0.0,89,0.00,,,0.55,WUHU216HW,2013-03-24 14:12:00,
2013-03-24 10:13:00,40.6,35.8,29.49,ENE,68,0.0,2.2,83,0.04,,,0.08,WUHU216HW,2013-03-24 14:13:00,
2013-03-24 10:14:00,40.2,37.2,29.59,ENE,68,0.0,0.0,89,0.00,,,0.55,WUHU216HW,2013-03-24 14:14:00,
2013-03-24 10:15:00,40.2,37.2,29.59,SSW,203,0.0,0.0,89,0.00,,,0.55,WUHU216HW,2013-03-24 14:15:00,
2013-03-24 10:16:00,40.2,37.2,29.59,SSW,203,0.0,0.0,89,0.00,,,0.55,WUHU216HW,2013-03-24 14:16:00,
2013-03-24 10:17:00,40.2,37.2,29.59,NW,315,0.0,0.0,89,0.00,,,0.55,WUHU216HW,2013-03-24 14:17:00,
2013-03-24 10:18:00,40.2,37.2,29.59,NW,315,0.0,0.0,89,0.00,,,0.55,WUHU216HW,2013-03-24 14:18:00,
2013-03-24 10:19:00,40.6,35.8,29.50,NE,45,0.0,0.0,84,0.04,,,0.08,WUHU216HW,2013-03-24 14:19:00,
2013-03-24 10:20:00,40.2,37.2,29.59,NW,315,0.0,0.0,89,0.00,,,0.55,WUHU216HW,2013-03-24 14:20:00,
2013-03-24 10:21:00,40.2,37.2,29.59,NW,315,0.0,0.0,89,0.00,,,0.55,WUHU216HW,2013-03-24 14:21:00,
2013-03-24 10:22:00,40.2,37.2,29.59,NW,315,0.0,0.0,89,0.00,,,0.55,WUHU216HW,2013-03-24 14:22:00,
2013-03-24 10:23:00,40.2,37.2,29.59,NW,315,0.0,0.0,89,0.00,,,0.55,WUHU216HW,2013-03-24 14:23:00,
2013-03-24 10:24:00,40.6,35.8,29.52,SW,225,0.0,0.0,84,0.04,,,0.11,WUHU216HW,2013-03-24 14:24:00,
2013-03-24 10:25:00,40.2,37.2,29.59,NW,315,0.0,0.0,89,0.00,,,0.55,WUHU216HW,2013-03-24 14:25:00,
2013-03-24 10:26:00,40.2,37.2,29.59,NW,315,0.0,0.0,89,0.00,,,0.55,WUHU216HW,2013-03-24 14:26:00,
2013-03-24 10:27:00,40.2,37.2,29.59,NW,315,0.0,0.0,89,0.00,,,0.55,WUHU216HW,2013-03-24 14:27:00,
2013-03-24 10:28:00,40.4,37.4,29.59,NW,315,0.0,0.0,89,0.00,,,0.55,WUHU216HW,2013-03-24 14:28:00,
2013-03-24 10:29:00,40.6,35.8,29.54,WSW,248,0.0,0.0,85,0.04,,,0.11,WUHU216HW,2013-03-24 14:29:00,
2013-03-24 10:30:00,40.6,37.6,29.60,NW,315,0.0,0.0,89,0.00,,,0.55,WUHU216HW,2013-03-24 14:30:00,
2013-03-24 10:31:00,40.6,37.6,29.60,NW,315,0.0,0.0,89,0.00,,,0.55,WUHU216HW,2013-03-24 14:31:00,
2013-03-24 10:32:00,40.6,37.6,29.60,NW,315,0.0,0.0,89,0.00,,,0.55,WUHU216HW,2013-03-24 14:32:00,
2013-03-24 10:33:00,40.6,37.6,29.60,NW,315,0.0,0.0,89,0.00,,,0.55,WUHU216HW,2013-03-24 14:33:00,
2013-03-24 10:34:00,40.6,35.8,29.53,WSW,248,0.0,0.0,85,0.06,,,0.13,WUHU216HW,2013-03-24 14:34:00,
2013-03-24 10:35:00,40.6,37.6,29.60,NNW,338,0.0,0.0,89,0.00,,,0.55,WUHU216HW,2013-03-24 14:35:00,
2013-03-24 10:36:00,40.6,37.6,29.59,NNW,338,0.0,0.0,89,0.00,,,0.55,WUHU216HW,2013-03-24 14:36:00,
2013-03-24 10:37:00,40.6,37.6,29.59,NNW,338,0.0,0.0,89,0.00,,,0.55,WUHU216HW,2013-03-24 14:37:00,
2013-03-24 10:38:00,40.6,37.6,29.60,NNW,338,0.0,0.0,89,0.00,,,0.55,WUHU216HW,2013-03-24 14:38:00,
2013-03-24 10:39:00,40.6,35.8,29.52,NW,315,0.0,0.0,86,0.06,,,0.13,WUHU216HW,2013-03-24 14:39:00,
2013-03-24 10:40:00,40.6,37.6,29.59,NNW,338,0.0,0.0,89,0.00,,,0.55,WUHU216HW,2013-03-24 14:40:00,
2013-03-24 10:41:00,40.6,37.6,29.59,NNW,338,0.0,0.0,89,0.00,,,0.55,WUHU216HW,2013-03-24 14:41:00,
2013-03-24 10:42:00,40.6,37.6,29.59,NNW,338,0.0,0.0,89,0.00,,,0.55,WUHU216HW,2013-03-24 14:42:00,
2013-03-24 10:43:00,40.6,37.6,29.59,NNW,338,0.0,0.0,89,0.00,,,0.55,WUHU216HW,2013-03-24 14:43:00,
2013-03-24 10:44:00,40.6,35.8,29.51,NW,315,0.0,0.0,86,0.06,,,0.15,WUHU216HW,2013-03-24 14:44:00,
2013-03-24 10:45:00,40.6,37.6,29.59,NNW,338,1.1,1.1,89,0.00,,,0.55,WUHU216HW,2013-03-24 14:45:00,
2013-03-24 10:46:00,40.6,37.6,29.59,NNW,338,1.1,1.1,89,0.00,,,0.55,WUHU216HW,2013-03-24 14:46:00,
2013-03-24 10:47:00,40.6,37.6,29.59,NW,315,0.0,1.1,89,0.00,,,0.55,WUHU216HW,2013-03-24 14:47:00,
2013-03-24 10:48:00,40.6,37.6,29.59,NW,315,0.0,1.1,89,0.00,,,0.55,WUHU216HW,2013-03-24 14:48:00,
2013-03-24 10:49:00,40.6,37.6,29.59,NW,315,0.0,1.1,89,0.00,,,0.55,WUHU216HW,2013-03-24 14:49:00,
2013-03-24 10:50:00,40.8,36.9,29.50,NNW,338,0.0,0.0,86,0.06,,,0.15,WUHU216HW,2013-03-24 14:50:00,
2013-03-24 10:51:00,40.6,37.6,29.59,NNW,338,0.0,1.1,89,0.00,,,0.55,WUHU216HW,2013-03-24 14:51:00,
2013-03-24 10:52:00,40.6,37.6,29.59,NNW,338,0.0,1.1,89,0.00,,,0.55,WUHU216HW,2013-03-24 14:52:00,
2013-03-24 10:53:00,40.6,37.6,29.59,NNW,338,0.0,1.1,89,0.00,,,0.55,WUHU216HW,2013-03-24 14:53:00,
2013-03-24 10:54:00,40.6,37.6,29.59,NNE,23,0.0,1.1,89,0.00,,,0.55,WUHU216HW,2013-03-24 14:54:00,
2013-03-24 10:55:00,40.8,36.9,29.48,NE,45,0.0,0.0,86,0.08,,,0.17,WUHU216HW,2013-03-24 14:55:00,
2013-03-24 10:56:00,40.6,37.6,29.59,NNE,23,0.0,1.1,89,0.00,,,0.55,WUHU216HW,2013-03-24 14:56:00,
2013-03-24 10:57:00,40.6,37.6,29.59,NNE,23,0.0,0.0,89,0.00,,,0.55,WUHU216HW,2013-03-24 14:57:00,
2013-03-24 10:58:00,40.6,37.6,29.59,NNE,23,0.0,0.0,89,0.00,,,0.55,WUHU216HW,2013-03-24 14:58:00,
2013-03-24 10:59:00,40.6,37.6,29.59,NNE,23,0.0,0.0,89,0.00,,,0.55,WUHU216HW,2013-03-24 14:59:00,
2013-03-24 11:00:00,40.6,36.7,29.48,ENE,68,0.0,2.9,86,0.08,,,0.17,WUHU216HW,2013-03-24 15:00:00,
2013-03-24 11:01:00,40.8,37.8,29.59,NNE,23,0.0,0.0,89,0.00,,,0.55,WUHU216HW,2013-03-24 15:01:00,
2013-03-24 11:02:00,40.6,37.6,29.59,NNE,23,0.0,0.0,89,0.00,,,0.55,WUHU216HW,2013-03-24 15:02:00,
2013-03-24 11:03:00,40.6,37.6,29.59,NNE,23,0.0,0.0,89,0.00,,,0.55,WUHU216HW,2013-03-24 15:03:00,
2013-03-24 11:04:00,40.6,37.6,29.59,NNE,23,0.0,0.0,89,0.00,,,0.55,WUHU216HW,2013-03-24 15:04:00,
2013-03-24 11:05:00,40.6,37.6,29.59,NNE,23,0.0,0.0,89,0.00,,,0.55,WUHU216HW,2013-03-24 15:05:00,
2013-03-24 11:06:00,40.6,36.7,29.46,NE,45,2.9,2.9,86,0.10,,,0.19,WUHU216HW,2013-03-24 15:06:00,
2013-03-24 11:07:00,40.6,37.6,29.59,NNE,23,0.0,0.0,89,0.00,,,0.55,WUHU216HW,2013-03-24 15:07:00,
2013-03-24 11:08:00,40.6,37.6,29.59,NNE,23,0.0,0.0,89,0.00,,,0.55,WUHU216HW,2013-03-24 15:08:00,
2013-03-24 11:09:00,40.8,37.8,29.59,North,0,0.0,0.0,89,0.00,,,0.55,WUHU216HW,2013-03-24 15:09:00,
2013-03-24 11:10:00,40.8,37.8,29.59,North,0,0.0,0.0,89,0.00,,,0.55,WUHU216HW,2013-03-24 15:10:00,
2013-03-24 11:11:00,40.8,37.8,29.59,NNW,338,0.0,0.0,89,0.00,,,0.55,WUHU216HW,2013-03-24 15:11:00,
2013-03-24 11:12:00,40.8,37.8,29.59,NNW,338,0.0,0.0,89,0.00,,,0.55,WUHU216HW,2013-03-24 15:12:00,
2013-03-24 11:13:00,40.8,37.8,29.59,NNW,338,0.0,0.0,89,0.00,,,0.55,WUHU216HW,2013-03-24 15:13:00,
2013-03-24 11:14:00,40.6,36.7,29.46,ENE,68,2.9,2.9,86,0.10,,,0.19,WUHU216HW,2013-03-24 15:14:00,
2013-03-24 11:15:00,40.8,37.8,29.59,NNW,338,0.0,0.0,89,0.00,,,0.55,WUHU216HW,2013-03-24 15:15:00,
2013-03-24 11:16:00,40.8,37.8,29.59,NNW,338,0.0,0.0,89,0.00,,,0.55,WUHU216HW,2013-03-24 15:16:00,
2013-03-24 11:17:00,40.8,37.8,29.59,NNW,338,0.0,0.0,89,0.00,,,0.55,WUHU216HW,2013-03-24 15:17:00,
2013-03-24 11:18:00,40.8,37.8,29.59,NNW,338,0.0,0.0,89,0.00,,,0.55,WUHU216HW,2013-03-24 15:18:00,
2013-03-24 11:19:00,40.2,36.3,29.46,ENE,68,0.0,2.9,86,0.10,,,0.19,WUHU216HW,2013-03-24 15:19:00,
2013-03-24 11:20:00,40.8,37.8,29.59,NNW,338,0.0,0.0,89,0.00,,,0.55,WUHU216HW,2013-03-24 15:20:00,
2013-03-24 11:21:00,40.8,37.8,29.59,NNW,338,0.0,0.0,89,0.00,,,0.55,WUHU216HW,2013-03-24 15:21:00,
2013-03-24 11:22:00,40.8,37.8,29.59,NNW,338,0.0,0.0,89,0.00,,,0.55,WUHU216HW,2013-03-24 15:22:00,
2013-03-24 11:23:00,40.8,37.8,29.59,NNW,338,0.0,0.0,89,0.00,,,0.55,WUHU216HW,2013-03-24 15:23:00,
2013-03-24 11:24:00,40.8,37.8,29.59,NNW,338,0.0,0.0,89,0.00,,,0.55,WUHU216HW,2013-03-24 15:24:00,
2013-03-24 11:25:00,40.8,37.8,29.59,NNW,338,0.0,0.0,89,0.00,,,0.55,WUHU216HW,2013-03-24 15:25:00,
2013-03-24 11:26:00,41.0,37.9,29.59,NNW,338,0.0,0.0,89,0.00,,,0.55,WUHU216HW,2013-03-24 15:26:00,
2013-03-24 11:27:00,41.0,37.9,29.59,NNW,338,0.0,0.0,89,0.00,,,0.55,WUHU216HW,2013-03-24 15:27:00,
2013-03-24 11:28:00,40.8,37.8,29.59,NNW,338,0.0,0.0,89,0.00,,,0.55,WUHU216HW,2013-03-24 15:28:00,
2013-03-24 11:29:00,40.2,36.0,29.44,ENE,68,3.3,9.1,85,0.10,,,0.19,WUHU216HW,2013-03-24 15:29:00,
2013-03-24 11:30:00,40.8,37.8,29.59,NNW,338,0.0,0.0,89,0.00,,,0.55,WUHU216HW,2013-03-24 15:30:00,
2013-03-24 11:31:00,40.8,37.8,29.59,NNW,338,0.0,0.0,89,0.00,,,0.55,WUHU216HW,2013-03-24 15:31:00,
2013-03-24 11:32:00,41.1,38.1,29.59,NNW,338,0.0,0.0,89,0.00,,,0.55,WUHU216HW,2013-03-24 15:32:00,
2013-03-24 11:33:00,41.1,38.1,29.59,NNW,338,0.0,0.0,89,0.00,,,0.55,WUHU216HW,2013-03-24 15:33:00,
2013-03-24 11:34:00,41.1,38.1,29.59,NNW,338,0.0,0.0,89,0.00,,,0.55,WUHU216HW,2013-03-24 15:34:00,
2013-03-24 11:35:00,41.1,38.1,29.59,NNW,338,0.0,0.0,89,0.00,,,0.55,WUHU216HW,2013-03-24 15:35:00,
2013-03-24 11:36:00,41.1,38.1,29.59,NNW,338,0.0,0.0,89,0.00,,,0.55,WUHU216HW,2013-03-24 15:36:00,
2013-03-24 11:37:00,41.1,38.1,29.59,NNW,338,0.0,0.0,89,0.00,,,0.55,WUHU216HW,2013-03-24 15:37:00,
2013-03-24 11:38:00,41.1,38.1,29.59,NNW,338,0.0,0.0,89,0.00,,,0.55,WUHU216HW,2013-03-24 15:38:00,
2013-03-24 11:39:00,41.1,38.1,29.59,NNW,338,0.0,0.0,89,0.00,,,0.55,WUHU216HW,2013-03-24 15:39:00,
2013-03-24 11:40:00,41.1,38.1,29.59,NNW,338,0.0,0.0,89,0.00,,,0.55,WUHU216HW,2013-03-24 15:40:00,
2013-03-24 11:41:00,41.1,38.1,29.59,NNW,338,0.0,0.0,89,0.00,,,0.55,WUHU216HW,2013-03-24 15:41:00,
2013-03-24 11:42:00,41.1,38.1,29.59,NNW,338,0.0,0.0,89,0.00,,,0.55,WUHU216HW,2013-03-24 15:42:00,
2013-03-24 11:43:00,41.1,38.1,29.59,NNW,338,0.0,0.0,89,0.00,,,0.55,WUHU216HW,2013-03-24 15:43:00,
2013-03-24 11:44:00,40.2,36.0,29.43,ENE,68,0.0,5.8,85,0.10,,,0.19,WUHU216HW,2013-03-24 15:44:00,
2013-03-24 11:45:00,41.1,38.1,29.59,NNW,338,0.0,0.0,89,0.00,,,0.55,WUHU216HW,2013-03-24 15:45:00,
2013-03-24 11:46:00,41.1,38.1,29.59,NNW,338,0.0,0.0,89,0.00,,,0.55,WUHU216HW,2013-03-24 15:46:00,
2013-03-24 11:47:00,41.1,38.1,29.59,NNW,338,0.0,0.0,89,0.00,,,0.55,WUHU216HW,2013-03-24 15:47:00,
2013-03-24 11:48:00,41.1,38.1,29.59,NNW,338,0.0,0.0,89,0.00,,,0.55,WUHU216HW,2013-03-24 15:48:00,
2013-03-24 11:49:00,41.1,38.1,29.59,NNW,338,0.0,0.0,89,0.00,,,0.55,WUHU216HW,2013-03-24 15:49:00,
2013-03-24 11:50:00,40.2,36.0,29.43,NE,45,0.0,4.4,85,0.10,,,0.19,WUHU216HW,2013-03-24 15:50:00,
2013-03-24 11:51:00,41.3,38.3,29.59,NNW,338,0.0,0.0,89,0.02,,,0.55,WUHU216HW,2013-03-24 15:51:00,
2013-03-24 11:52:00,41.3,38.3,29.59,NNW,338,0.0,0.0,89,0.02,,,0.57,WUHU216HW,2013-03-24 15:52:00,
2013-03-24 11:54:00,41.3,38.3,29.59,NNW,338,0.0,0.0,89,0.02,,,0.57,WUHU216HW,2013-03-24 15:54:00,
2013-03-24 11:55:00,40.2,36.0,29.43,ENE,68,0.0,2.0,85,0.10,,,0.19,WUHU216HW,2013-03-24 15:55:00,
2013-03-24 11:56:00,41.3,38.3,29.60,NNW,338,0.0,0.0,89,0.02,,,0.57,WUHU216HW,2013-03-24 15:56:00,
2013-03-24 11:57:00,41.3,38.3,29.60,NNW,338,0.0,0.0,89,0.02,,,0.57,WUHU216HW,2013-03-24 15:57:00,
2013-03-24 11:58:00,41.3,38.3,29.60,NNW,338,0.0,0.0,89,0.02,,,0.57,WUHU216HW,2013-03-24 15:58:00,
2013-03-24 11:59:00,41.3,38.3,29.60,NNW,338,0.0,0.0,89,0.02,,,0.57,WUHU216HW,2013-03-24 15:59:00,
2013-03-24 12:00:00,41.3,38.3,29.60,NNW,338,0.0,0.0,89,0.02,,,0.57,WUHU216HW,2013-03-24 16:00:00,
2013-03-24 12:01:00,41.3,38.3,29.60,NNW,338,0.0,0.0,89,0.02,,,0.57,WUHU216HW,2013-03-24 16:01:00,
2013-03-24 12:02:00,40.2,36.0,29.43,North,0,0.0,2.0,85,0.00,,,0.19,WUHU216HW,2013-03-24 16:02:00,
2013-03-24 12:03:00,41.3,38.3,29.60,NNW,338,0.0,0.0,89,0.02,,,0.57,WUHU216HW,2013-03-24 16:03:00,
2013-03-24 12:04:00,41.3,38.3,29.60,NNW,338,0.0,0.0,89,0.02,,,0.57,WUHU216HW,2013-03-24 16:04:00,
2013-03-24 12:05:00,41.3,38.3,29.60,NNW,338,0.0,0.0,89,0.02,,,0.57,WUHU216HW,2013-03-24 16:05:00,
2013-03-24 12:06:00,41.3,38.3,29.60,NNW,338,0.0,0.0,89,0.02,,,0.57,WUHU216HW,2013-03-24 16:06:00,
2013-03-24 12:07:00,40.2,36.0,29.41,NE,45,4.0,4.0,85,0.00,,,0.19,WUHU216HW,2013-03-24 16:07:00,
2013-03-24 12:08:00,41.5,38.5,29.61,NNW,338,0.0,0.0,89,0.02,,,0.57,WUHU216HW,2013-03-24 16:08:00,
2013-03-24 12:09:00,41.5,38.5,29.61,NNW,338,0.0,0.0,89,0.02,,,0.57,WUHU216HW,2013-03-24 16:09:00,
2013-03-24 12:10:00,41.5,38.5,29.61,NNW,338,0.0,0.0,89,0.02,,,0.57,WUHU216HW,2013-03-24 16:10:00,
2013-03-24 12:11:00,41.5,38.5,29.61,NNW,338,0.0,0.0,89,0.02,,,0.57,WUHU216HW,2013-03-24 16:11:00,
2013-03-24 12:12:00,40.2,36.0,29.41,NE,45,4.6,4.6,85,0.00,,,0.19,WUHU216HW,2013-03-24 16:12:00,
2013-03-24 12:13:00,41.5,38.5,29.60,NNW,338,0.0,0.0,89,0.02,,,0.57,WUHU216HW,2013-03-24 16:13:00,
2013-03-24 12:14:00,41.5,38.5,29.60,NNW,338,0.0,0.0,89,0.02,,,0.57,WUHU216HW,2013-03-24 16:14:00,
2013-03-24 12:15:00,41.5,38.5,29.61,NNW,338,0.0,0.0,89,0.02,,,0.57,WUHU216HW,2013-03-24 16:15:00,
2013-03-24 12:16:00,41.5,38.5,29.60,NNW,338,0.0,0.0,89,0.02,,,0.57,WUHU216HW,2013-03-24 16:16:00,
2013-03-24 12:17:00,40.2,36.0,29.41,NE,45,0.0,8.2,85,0.00,,,0.19,WUHU216HW,2013-03-24 16:17:00,
2013-03-24 12:18:00,41.3,38.3,29.60,NNW,338,0.0,0.0,89,0.02,,,0.57,WUHU216HW,2013-03-24 16:18:00,
2013-03-24 12:19:00,41.5,38.5,29.60,NNW,338,0.0,0.0,89,0.02,,,0.57,WUHU216HW,2013-03-24 16:19:00,
2013-03-24 12:20:00,41.5,38.5,29.61,NNW,338,0.0,0.0,89,0.02,,,0.57,WUHU216HW,2013-03-24 16:20:00,
2013-03-24 12:21:00,41.3,38.3,29.61,NNW,338,0.0,0.0,89,0.02,,,0.57,WUHU216HW,2013-03-24 16:21:00,
2013-03-24 12:22:00,40.2,36.0,29.40,ENE,68,4.6,8.2,85,0.00,,,0.19,WUHU216HW,2013-03-24 16:22:00,
2013-03-24 12:23:00,41.3,38.3,29.61,NNW,338,0.0,0.0,89,0.02,,,0.57,WUHU216HW,2013-03-24 16:23:00,
2013-03-24 12:24:00,41.3,38.3,29.61,NNW,338,0.0,0.0,89,0.02,,,0.57,WUHU216HW,2013-03-24 16:24:00,
2013-03-24 12:25:00,41.3,38.3,29.61,NNW,338,0.0,0.0,89,0.02,,,0.57,WUHU216HW,2013-03-24 16:25:00,
2013-03-24 12:27:00,40.2,36.0,29.40,NE,45,0.0,4.6,85,0.00,,,0.19,WUHU216HW,2013-03-24 16:27:00,
2013-03-24 12:28:00,41.3,38.3,29.61,NNW,338,0.0,0.0,89,0.02,,,0.57,WUHU216HW,2013-03-24 16:28:00,
2013-03-24 12:29:00,41.3,38.3,29.61,NNW,338,0.0,0.0,89,0.02,,,0.57,WUHU216HW,2013-03-24 16:29:00,
2013-03-24 12:30:00,41.3,38.3,29.61,NNW,338,0.0,0.0,89,0.02,,,0.57,WUHU216HW,2013-03-24 16:30:00,
2013-03-24 12:31:00,41.1,38.1,29.61,NNW,338,0.0,0.0,89,0.02,,,0.57,WUHU216HW,2013-03-24 16:31:00,
2013-03-24 12:32:00,41.1,38.1,29.61,NNW,338,0.0,0.0,89,0.02,,,0.57,WUHU216HW,2013-03-24 16:32:00,
2013-03-24 12:33:00,40.2,36.3,29.40,ENE,68,4.2,4.2,86,0.00,,,0.19,WUHU216HW,2013-03-24 16:33:00,
2013-03-24 12:34:00,41.1,38.1,29.61,NNW,338,0.0,0.0,89,0.02,,,0.57,WUHU216HW,2013-03-24 16:34:00,
2013-03-24 12:35:00,41.1,38.1,29.61,NNW,338,0.0,0.0,89,0.02,,,0.57,WUHU216HW,2013-03-24 16:35:00,
2013-03-24 12:36:00,41.1,38.1,29.61,NNW,338,0.0,0.0,89,0.02,,,0.57,WUHU216HW,2013-03-24 16:36:00,
2013-03-24 12:37:00,41.1,38.1,29.61,NNW,338,0.0,0.0,89,0.02,,,0.57,WUHU216HW,2013-03-24 16:37:00,
2013-03-24 12:38:00,40.2,36.3,29.39,NE,45,1.3,11.1,86,0.02,,,0.21,WUHU216HW,2013-03-24 16:38:00,
2013-03-24 12:39:00,41.1,38.1,29.61,NNW,338,0.0,0.0,89,0.02,,,0.57,WUHU216HW,2013-03-24 16:39:00,
2013-03-24 12:40:00,41.1,38.1,29.61,NNW,338,0.0,0.0,89,0.02,,,0.57,WUHU216HW,2013-03-24 16:40:00,
2013-03-24 12:41:00,41.1,38.1,29.61,NNW,338,0.0,0.0,89,0.02,,,0.57,WUHU216HW,2013-03-24 16:41:00,
2013-03-24 12:42:00,41.1,38.1,29.61,NNW,338,0.0,0.0,89,0.02,,,0.57,WUHU216HW,2013-03-24 16:42:00,
2013-03-24 12:43:00,40.1,36.2,29.38,East,90,0.0,11.1,86,0.02,,,0.21,WUHU216HW,2013-03-24 16:43:00,
2013-03-24 12:44:00,41.1,38.1,29.61,NNW,338,0.0,0.0,89,0.02,,,0.57,WUHU216HW,2013-03-24 16:44:00,
2013-03-24 12:45:00,41.1,38.1,29.61,NNW,338,0.0,0.0,89,0.02,,,0.57,WUHU216HW,2013-03-24 16:45:00,
2013-03-24 12:46:00,41.1,38.1,29.61,NNW,338,0.0,0.0,89,0.02,,,0.57,WUHU216HW,2013-03-24 16:46:00,
2013-03-24 12:47:00,41.1,38.1,29.61,NNW,338,0.0,0.0,89,0.02,,,0.57,WUHU216HW,2013-03-24 16:47:00,
2013-03-24 12:48:00,41.1,38.1,29.61,NNW,338,0.0,0.0,89,0.02,,,0.57,WUHU216HW,2013-03-24 16:48:00,
2013-03-24 12:49:00,41.1,38.1,29.61,NNW,338,0.0,0.0,89,0.02,,,0.57,WUHU216HW,2013-03-24 16:49:00,
2013-03-24 12:50:00,40.2,36.6,29.39,North,0,0.4,5.8,87,0.02,,,0.21,WUHU216HW,2013-03-24 16:50:00,
2013-03-24 12:51:00,41.1,38.1,29.61,NNW,338,0.0,0.0,89,0.02,,,0.57,WUHU216HW,2013-03-24 16:51:00,
2013-03-24 12:52:00,41.1,38.1,29.61,NNW,338,0.0,0.0,89,0.02,,,0.57,WUHU216HW,2013-03-24 16:52:00,
2013-03-24 12:53:00,41.1,38.1,29.61,NNW,338,0.0,0.0,89,0.02,,,0.57,WUHU216HW,2013-03-24 16:53:00,
2013-03-24 12:54:00,41.1,38.1,29.61,NNW,338,0.0,0.0,89,0.02,,,0.57,WUHU216HW,2013-03-24 16:54:00,
2013-03-24 12:55:00,40.2,36.6,29.38,NNE,23,2.2,6.2,87,0.04,,,0.23,WUHU216HW,2013-03-24 16:55:00,
2013-03-24 12:56:00,41.1,38.1,29.62,NNW,338,0.0,0.0,89,0.02,,,0.57,WUHU216HW,2013-03-24 16:56:00,
2013-03-24 12:57:00,41.1,38.1,29.62,NNW,338,0.0,0.0,89,0.02,,,0.57,WUHU216HW,2013-03-24 16:57:00,
2013-03-24 12:58:00,41.1,38.1,29.62,NNW,338,0.0,0.0,89,0.02,,,0.57,WUHU216HW,2013-03-24 16:58:00,
2013-03-24 12:59:00,41.1,38.1,29.62,NNW,338,0.0,0.0,89,0.02,,,0.57,WUHU216HW,2013-03-24 16:59:00,
2013-03-24 13:00:00,40.1,36.5,29.37,NW,315,2.4,9.3,87,0.04,,,0.23,WUHU216HW,2013-03-24 17:00:00,
2013-03-24 13:01:00,41.1,38.1,29.62,NNW,338,0.0,0.0,89,0.02,,,0.57,WUHU216HW,2013-03-24 17:01:00,
2013-03-24 13:02:00,41.1,38.1,29.62,NNW,338,0.0,0.0,89,0.02,,,0.57,WUHU216HW,2013-03-24 17:02:00,
2013-03-24 13:03:00,41.1,38.1,29.62,NNW,338,0.0,0.0,89,0.02,,,0.57,WUHU216HW,2013-03-24 17:03:00,
2013-03-24 13:04:00,41.1,38.1,29.61,NNW,338,0.0,0.0,89,0.02,,,0.57,WUHU216HW,2013-03-24 17:04:00,
2013-03-24 13:05:00,41.1,38.1,29.61,NNW,338,0.0,0.0,89,0.02,,,0.57,WUHU216HW,2013-03-24 17:05:00,
2013-03-24 13:06:00,39.9,36.3,29.37,NE,45,4.4,9.3,87,0.06,,,0.25,WUHU216HW,2013-03-24 17:06:00,
2013-03-24 13:07:00,41.1,38.1,29.61,NNW,338,0.0,0.0,89,0.02,,,0.57,WUHU216HW,2013-03-24 17:07:00,
2013-03-24 13:08:00,41.1,38.1,29.61,NNW,338,0.0,0.0,89,0.02,,,0.57,WUHU216HW,2013-03-24 17:08:00,
2013-03-24 13:09:00,41.1,38.1,29.61,NNW,338,0.0,0.0,89,0.02,,,0.57,WUHU216HW,2013-03-24 17:09:00,
2013-03-24 13:10:00,41.1,38.1,29.61,NNW,338,0.0,0.0,89,0.02,,,0.57,WUHU216HW,2013-03-24 17:10:00,
2013-03-24 13:11:00,39.9,36.3,29.36,ENE,68,2.9,8.0,87,0.06,,,0.25,WUHU216HW,2013-03-24 17:11:00,
2013-03-24 13:12:00,41.1,38.1,29.61,NNW,338,0.0,0.0,89,0.02,,,0.57,WUHU216HW,2013-03-24 17:12:00,
2013-03-24 13:13:00,41.1,38.1,29.61,NNW,338,0.0,0.0,89,0.02,,,0.57,WUHU216HW,2013-03-24 17:13:00,
2013-03-24 13:14:00,41.1,38.1,29.61,NNW,338,0.0,0.0,89,0.02,,,0.57,WUHU216HW,2013-03-24 17:14:00,
2013-03-24 13:15:00,41.1,38.1,29.61,NNW,338,0.0,0.0,89,0.02,,,0.57,WUHU216HW,2013-03-24 17:15:00,
2013-03-24 13:16:00,39.9,36.3,29.36,NE,45,4.9,8.0,87,0.08,,,0.27,WUHU216HW,2013-03-24 17:16:00,
2013-03-24 13:17:00,41.1,38.1,29.61,NNW,338,0.0,0.0,89,0.02,,,0.57,WUHU216HW,2013-03-24 17:17:00,
2013-03-24 13:18:00,41.1,38.1,29.61,NNW,338,0.0,0.0,89,0.02,,,0.57,WUHU216HW,2013-03-24 17:18:00,
2013-03-24 13:19:00,41.1,38.1,29.61,NNW,338,0.0,0.0,89,0.02,,,0.57,WUHU216HW,2013-03-24 17:19:00,
2013-03-24 13:20:00,41.1,38.1,29.61,NNW,338,0.0,0.0,89,0.00,,,0.57,WUHU216HW,2013-03-24 17:20:00,
2013-03-24 13:21:00,41.1,38.1,29.61,NNW,338,0.0,0.0,89,0.00,,,0.57,WUHU216HW,2013-03-24 17:21:00,
2013-03-24 13:22:00,41.1,38.1,29.61,NNW,338,0.0,0.0,89,0.00,,,0.57,WUHU216HW,2013-03-24 17:22:00,
2013-03-24 13:23:00,41.1,38.1,29.61,NNW,338,0.0,0.0,89,0.00,,,0.57,WUHU216HW,2013-03-24 17:23:00,
2013-03-24 13:24:00,41.1,38.1,29.61,NNW,338,0.0,0.0,89,0.00,,,0.57,WUHU216HW,2013-03-24 17:24:00,
2013-03-24 13:25:00,41.1,38.1,29.61,NNW,338,0.0,0.0,89,0.00,,,0.57,WUHU216HW,2013-03-24 17:25:00,
2013-03-24 13:26:00,41.1,38.1,29.61,NNW,338,0.0,0.0,89,0.00,,,0.57,WUHU216HW,2013-03-24 17:26:00,
2013-03-24 13:27:00,41.1,38.1,29.61,NNW,338,0.0,0.0,89,0.00,,,0.57,WUHU216HW,2013-03-24 17:27:00,
2013-03-24 13:28:00,41.1,38.1,29.61,NNW,338,0.0,0.0,89,0.00,,,0.57,WUHU216HW,2013-03-24 17:28:00,
2013-03-24 13:29:00,41.1,38.1,29.61,NNW,338,0.0,0.0,89,0.00,,,0.57,WUHU216HW,2013-03-24 17:29:00,
2013-03-24 13:30:00,41.1,38.1,29.61,NNW,338,0.0,0.0,89,0.00,,,0.57,WUHU216HW,2013-03-24 17:30:00,
2013-03-24 13:31:00,41.0,37.9,29.60,NW,315,0.0,0.0,89,0.00,,,0.57,WUHU216HW,2013-03-24 17:31:00,
2013-03-24 13:32:00,41.0,37.9,29.60,NW,315,0.0,0.0,89,0.00,,,0.57,WUHU216HW,2013-03-24 17:32:00,
2013-03-24 13:33:00,39.7,36.1,29.36,NW,315,1.3,2.0,88,0.16,,,0.35,WUHU216HW,2013-03-24 17:33:00,
2013-03-24 13:34:00,40.8,37.8,29.60,NW,315,0.0,0.0,89,0.00,,,0.57,WUHU216HW,2013-03-24 17:34:00,
2013-03-24 13:35:00,41.0,37.9,29.61,NW,315,0.0,0.0,89,0.00,,,0.57,WUHU216HW,2013-03-24 17:35:00,
2013-03-24 13:36:00,41.0,37.9,29.60,NW,315,0.0,0.0,89,0.00,,,0.57,WUHU216HW,2013-03-24 17:36:00,
2013-03-24 13:37:00,41.0,37.9,29.60,NNW,338,0.0,0.0,89,0.00,,,0.57,WUHU216HW,2013-03-24 17:37:00,
2013-03-24 13:38:00,41.0,37.9,29.61,NNW,338,0.0,0.0,89,0.00,,,0.57,WUHU216HW,2013-03-24 17:38:00,
2013-03-24 13:39:00,39.7,36.1,29.36,East,90,2.4,2.4,88,0.19,,,0.39,WUHU216HW,2013-03-24 17:39:00,
2013-03-24 13:40:00,41.0,37.9,29.61,NNW,338,0.0,0.0,89,0.00,,,0.57,WUHU216HW,2013-03-24 17:40:00,
2013-03-24 13:41:00,41.0,37.9,29.61,WSW,248,1.3,1.3,89,0.00,,,0.57,WUHU216HW,2013-03-24 17:41:00,
2013-03-24 13:42:00,41.0,37.9,29.61,WSW,248,1.3,1.3,89,0.00,,,0.57,WUHU216HW,2013-03-24 17:42:00,
2013-03-24 13:43:00,41.0,37.9,29.61,WSW,248,1.3,1.3,89,0.00,,,0.57,WUHU216HW,2013-03-24 17:43:00,
2013-03-24 13:44:00,39.7,36.1,29.34,SW,225,0.0,2.4,88,0.20,,,0.41,WUHU216HW,2013-03-24 17:44:00,
2013-03-24 13:45:00,40.8,37.8,29.61,WSW,248,0.0,1.3,89,0.00,,,0.57,WUHU216HW,2013-03-24 17:45:00,
2013-03-24 13:46:00,40.8,37.8,29.61,WSW,248,0.0,1.3,89,0.00,,,0.57,WUHU216HW,2013-03-24 17:46:00,
2013-03-24 13:47:00,40.8,37.8,29.61,WSW,248,0.0,1.3,89,0.00,,,0.57,WUHU216HW,2013-03-24 17:47:00,
2013-03-24 13:48:00,40.8,37.8,29.61,WSW,248,0.0,1.3,89,0.00,,,0.57,WUHU216HW,2013-03-24 17:48:00,
2013-03-24 13:49:00,39.7,36.4,29.33,SE,135,1.3,5.8,88,0.22,,,0.45,WUHU216HW,2013-03-24 17:49:00,
2013-03-24 13:50:00,40.8,37.8,29.61,WSW,248,0.0,1.3,89,0.00,,,0.57,WUHU216HW,2013-03-24 17:50:00,
2013-03-24 13:51:00,40.8,37.8,29.61,WSW,248,0.0,1.3,89,0.00,,,0.57,WUHU216HW,2013-03-24 17:51:00,
2013-03-24 13:52:00,40.8,37.8,29.61,WSW,248,0.0,1.3,89,0.00,,,0.57,WUHU216HW,2013-03-24 17:52:00,
2013-03-24 13:53:00,40.8,37.8,29.61,WSW,248,0.0,0.0,89,0.00,,,0.57,WUHU216HW,2013-03-24 17:53:00,
2013-03-24 13:54:00,39.7,36.4,29.33,ESE,113,1.1,5.8,88,0.22,,,0.45,WUHU216HW,2013-03-24 17:54:00,
2013-03-24 13:55:00,40.8,37.8,29.61,WSW,248,0.0,0.0,89,0.00,,,0.57,WUHU216HW,2013-03-24 17:55:00,
2013-03-24 13:56:00,40.8,37.8,29.61,WSW,248,0.0,0.0,89,0.00,,,0.57,WUHU216HW,2013-03-24 17:56:00,
2013-03-24 13:57:00,40.8,37.8,29.61,WSW,248,0.0,0.0,89,0.00,,,0.57,WUHU216HW,2013-03-24 17:57:00,
2013-03-24 13:58:00,40.8,37.8,29.61,WSW,248,0.0,0.0,89,0.00,,,0.57,WUHU216HW,2013-03-24 17:58:00,
2013-03-24 13:59:00,39.7,36.4,29.33,NE,45,0.0,1.3,88,0.26,,,0.49,WUHU216HW,2013-03-24 17:59:00,
2013-03-24 14:00:00,40.8,37.8,29.61,SSE,158,0.0,0.0,89,0.00,,,0.57,WUHU216HW,2013-03-24 18:00:00,
2013-03-24 14:01:00,40.6,37.6,29.61,NW,315,0.0,0.0,89,0.00,,,0.57,WUHU216HW,2013-03-24 18:01:00,
2013-03-24 14:02:00,40.6,37.6,29.61,NW,315,0.0,0.0,89,0.00,,,0.57,WUHU216HW,2013-03-24 18:02:00,
2013-03-24 14:04:00,39.7,36.4,29.33,ENE,68,2.4,2.4,88,0.24,,,0.49,WUHU216HW,2013-03-24 18:04:00,
2013-03-24 14:05:00,40.6,37.6,29.61,NW,315,0.0,0.0,89,0.00,,,0.57,WUHU216HW,2013-03-24 18:05:00,
2013-03-24 14:06:00,40.6,37.6,29.61,NW,315,0.0,0.0,89,0.00,,,0.57,WUHU216HW,2013-03-24 18:06:00,
2013-03-24 14:07:00,40.6,37.6,29.61,NW,315,0.0,0.0,89,0.00,,,0.57,WUHU216HW,2013-03-24 18:07:00,
2013-03-24 14:08:00,40.6,37.6,29.61,NW,315,0.0,0.0,89,0.00,,,0.57,WUHU216HW,2013-03-24 18:08:00,
2013-03-24 14:09:00,40.6,37.6,29.61,NW,315,0.0,0.0,89,0.00,,,0.57,WUHU216HW,2013-03-24 18:09:00,
2013-03-24 14:10:00,40.6,37.6,29.61,NW,315,0.0,0.0,89,0.00,,,0.57,WUHU216HW,2013-03-24 18:10:00,
2013-03-24 14:11:00,40.6,37.6,29.62,NW,315,2.9,2.9,89,0.00,,,0.57,WUHU216HW,2013-03-24 18:11:00,
2013-03-24 14:12:00,40.6,37.6,29.62,NW,315,2.9,2.9,89,0.00,,,0.57,WUHU216HW,2013-03-24 18:12:00,
2013-03-24 14:13:00,40.6,37.6,29.61,NW,315,2.9,2.9,89,0.00,,,0.57,WUHU216HW,2013-03-24 18:13:00,
2013-03-24 14:14:00,40.6,37.6,29.62,NW,315,0.0,2.9,89,0.00,,,0.57,WUHU216HW,2013-03-24 18:14:00,
2013-03-24 14:15:00,39.9,36.6,29.32,WSW,248,0.0,2.4,88,0.26,,,0.51,WUHU216HW,2013-03-24 18:15:00,
2013-03-24 14:16:00,40.6,37.6,29.62,NW,315,0.0,2.9,89,0.00,,,0.57,WUHU216HW,2013-03-24 18:16:00,
2013-03-24 14:17:00,40.6,37.6,29.62,NW,315,0.0,2.9,89,0.00,,,0.57,WUHU216HW,2013-03-24 18:17:00,
2013-03-24 14:18:00,40.6,37.6,29.62,NW,315,0.0,2.9,89,0.00,,,0.57,WUHU216HW,2013-03-24 18:18:00,
2013-03-24 14:19:00,40.6,37.6,29.62,NW,315,0.0,2.9,89,0.00,,,0.57,WUHU216HW,2013-03-24 18:19:00,
2013-03-24 14:20:00,40.1,36.8,29.31,North,0,0.0,0.0,88,0.26,,,0.51,WUHU216HW,2013-03-24 18:20:00,
2013-03-24 14:21:00,40.6,37.6,29.62,WNW,293,0.0,2.9,89,0.00,,,0.57,WUHU216HW,2013-03-24 18:21:00,
2013-03-24 14:22:00,40.6,37.6,29.62,WNW,293,0.0,2.9,89,0.00,,,0.57,WUHU216HW,2013-03-24 18:22:00,
2013-03-24 14:23:00,40.6,37.6,29.63,WNW,293,0.0,2.9,89,0.00,,,0.57,WUHU216HW,2013-03-24 18:23:00,
2013-03-24 14:24:00,40.6,37.6,29.63,WNW,293,0.0,0.0,89,0.00,,,0.57,WUHU216HW,2013-03-24 18:24:00,
2013-03-24 14:25:00,40.4,37.4,29.62,WNW,293,0.0,0.0,89,0.00,,,0.57,WUHU216HW,2013-03-24 18:25:00,
2013-03-24 14:26:00,40.4,37.4,29.62,WNW,293,0.0,0.0,89,0.00,,,0.57,WUHU216HW,2013-03-24 18:26:00,
2013-03-24 14:27:00,40.6,37.6,29.62,WNW,293,0.0,0.0,89,0.00,,,0.57,WUHU216HW,2013-03-24 18:27:00,
2013-03-24 14:28:00,40.6,37.6,29.62,WNW,293,0.0,0.0,89,0.00,,,0.57,WUHU216HW,2013-03-24 18:28:00,
2013-03-24 14:29:00,40.6,37.6,29.62,NNW,338,0.0,0.0,89,0.00,,,0.57,WUHU216HW,2013-03-24 18:29:00,
2013-03-24 14:30:00,40.6,37.6,29.62,NNW,338,0.0,0.0,89,0.00,,,0.57,WUHU216HW,2013-03-24 18:30:00,
2013-03-24 14:31:00,40.6,37.6,29.62,NNW,338,0.0,0.0,89,0.00,,,0.57,WUHU216HW,2013-03-24 18:31:00,
2013-03-24 14:32:00,40.6,37.6,29.62,NNW,338,0.0,0.0,89,0.00,,,0.57,WUHU216HW,2013-03-24 18:32:00,
2013-03-24 14:33:00,40.6,37.6,29.62,NNW,338,0.0,0.0,89,0.00,,,0.57,WUHU216HW,2013-03-24 18:33:00,
2013-03-24 14:34:00,40.6,37.6,29.62,NNW,338,0.0,0.0,89,0.00,,,0.57,WUHU216HW,2013-03-24 18:34:00,
2013-03-24 14:35:00,40.6,37.6,29.62,NNW,338,0.0,0.0,89,0.00,,,0.57,WUHU216HW,2013-03-24 18:35:00,
2013-03-24 14:36:00,40.6,37.6,29.62,NNW,338,0.0,0.0,89,0.00,,,0.57,WUHU216HW,2013-03-24 18:36:00,
2013-03-24 14:37:00,40.6,37.6,29.62,NNW,338,0.0,0.0,89,0.00,,,0.57,WUHU216HW,2013-03-24 18:37:00,
2013-03-24 14:38:00,40.6,37.6,29.62,NNW,338,0.0,0.0,89,0.00,,,0.57,WUHU216HW,2013-03-24 18:38:00,
2013-03-24 14:39:00,40.6,37.6,29.62,NNW,338,0.0,0.0,89,0.00,,,0.57,WUHU216HW,2013-03-24 18:39:00,
2013-03-24 14:40:00,40.6,37.6,29.62,NNW,338,0.0,0.0,89,0.00,,,0.57,WUHU216HW,2013-03-24 18:40:00,
2013-03-24 14:41:00,40.6,37.6,29.62,NNW,338,4.0,4.0,89,0.00,,,0.57,WUHU216HW,2013-03-24 18:41:00,
2013-03-24 14:42:00,39.9,36.6,29.30,WSW,248,1.1,1.3,88,0.22,,,0.58,WUHU216HW,2013-03-24 18:42:00,
2013-03-24 14:43:00,40.6,37.6,29.62,NNW,338,4.0,4.0,89,0.00,,,0.57,WUHU216HW,2013-03-24 18:43:00,
2013-03-24 14:44:00,40.4,37.4,29.61,West,270,1.3,4.0,89,0.00,,,0.57,WUHU216HW,2013-03-24 18:44:00,
2013-03-24 14:45:00,40.4,37.4,29.61,West,270,1.3,4.0,89,0.00,,,0.57,WUHU216HW,2013-03-24 18:45:00,
2013-03-24 14:46:00,40.2,37.2,29.62,West,270,0.0,4.0,89,0.00,,,0.57,WUHU216HW,2013-03-24 18:46:00,
2013-03-24 14:47:00,39.9,36.6,29.29,NNW,338,0.0,4.0,88,0.22,,,0.58,WUHU216HW,2013-03-24 18:47:00,
2013-03-24 14:48:00,40.2,37.2,29.62,West,270,0.0,4.0,89,0.00,,,0.57,WUHU216HW,2013-03-24 18:48:00,
2013-03-24 14:49:00,40.2,37.2,29.62,West,270,0.0,4.0,89,0.00,,,0.57,WUHU216HW,2013-03-24 18:49:00,
2013-03-24 14:50:00,40.2,37.2,29.63,West,270,0.0,4.0,89,0.00,,,0.57,WUHU216HW,2013-03-24 18:50:00,
2013-03-24 14:51:00,40.2,37.2,29.63,West,270,0.0,4.0,89,0.00,,,0.57,WUHU216HW,2013-03-24 18:51:00,
2013-03-24 14:52:00,39.9,36.6,29.29,ENE,68,2.4,4.0,88,0.22,,,0.58,WUHU216HW,2013-03-24 18:52:00,
2013-03-24 14:53:00,40.2,37.2,29.62,West,270,0.0,4.0,89,0.00,,,0.57,WUHU216HW,2013-03-24 18:53:00,
2013-03-24 14:54:00,40.2,37.2,29.62,West,270,0.0,1.3,89,0.00,,,0.57,WUHU216HW,2013-03-24 18:54:00,
2013-03-24 14:55:00,40.2,37.2,29.62,West,270,0.0,1.3,89,0.00,,,0.57,WUHU216HW,2013-03-24 18:55:00,
2013-03-24 14:56:00,40.2,37.2,29.62,West,270,0.0,0.0,89,0.00,,,0.57,WUHU216HW,2013-03-24 18:56:00,
2013-03-24 14:57:00,40.2,37.2,29.62,West,270,0.0,0.0,89,0.00,,,0.57,WUHU216HW,2013-03-24 18:57:00,
2013-03-24 14:58:00,39.9,36.6,29.29,ENE,68,0.0,2.4,88,0.14,,,0.60,WUHU216HW,2013-03-24 18:58:00,
2013-03-24 14:59:00,40.2,37.2,29.62,West,270,0.0,0.0,89,0.00,,,0.57,WUHU216HW,2013-03-24 18:59:00,
2013-03-24 15:00:00,40.2,37.2,29.62,West,270,0.0,0.0,89,0.00,,,0.57,WUHU216HW,2013-03-24 19:00:00,
2013-03-24 15:01:00,40.2,37.2,29.62,NNW,338,0.0,0.0,89,0.00,,,0.57,WUHU216HW,2013-03-24 19:01:00,
2013-03-24 15:02:00,40.2,37.2,29.62,NNW,338,0.0,0.0,89,0.00,,,0.57,WUHU216HW,2013-03-24 19:02:00,
2013-03-24 15:03:00,40.2,37.2,29.62,NNW,338,0.0,0.0,89,0.00,,,0.57,WUHU216HW,2013-03-24 19:03:00,
2013-03-24 15:04:00,39.9,36.6,29.30,WNW,293,2.9,2.9,88,0.10,,,0.60,WUHU216HW,2013-03-24 19:04:00,
2013-03-24 15:05:00,40.2,37.2,29.62,North,0,0.0,0.0,89,0.00,,,0.57,WUHU216HW,2013-03-24 19:05:00,
2013-03-24 15:06:00,40.2,37.2,29.62,North,0,0.0,0.0,89,0.00,,,0.57,WUHU216HW,2013-03-24 19:06:00,
2013-03-24 15:07:00,40.2,37.2,29.62,North,0,0.0,0.0,89,0.00,,,0.57,WUHU216HW,2013-03-24 19:07:00,
2013-03-24 15:08:00,40.2,37.2,29.62,North,0,0.0,0.0,89,0.00,,,0.57,WUHU216HW,2013-03-24 19:08:00,
2013-03-24 15:09:00,39.9,36.6,29.31,SW,225,0.0,2.9,88,0.10,,,0.60,WUHU216HW,2013-03-24 19:09:00,
2013-03-24 15:10:00,40.2,37.2,29.62,NNW,338,0.0,0.0,89,0.00,,,0.57,WUHU216HW,2013-03-24 19:10:00,
2013-03-24 15:11:00,40.2,37.2,29.62,NNW,338,0.0,0.0,89,0.00,,,0.57,WUHU216HW,2013-03-24 19:11:00,
2013-03-24 15:12:00,40.2,37.2,29.62,NNW,338,0.0,0.0,89,0.00,,,0.57,WUHU216HW,2013-03-24 19:12:00,
2013-03-24 15:13:00,40.2,37.2,29.62,NNW,338,0.0,0.0,89,0.00,,,0.57,WUHU216HW,2013-03-24 19:13:00,
2013-03-24 15:14:00,40.2,37.2,29.62,NNW,338,0.0,0.0,89,0.00,,,0.57,WUHU216HW,2013-03-24 19:14:00,
2013-03-24 15:15:00,40.2,37.2,29.62,NNW,338,0.0,0.0,89,0.00,,,0.57,WUHU216HW,2013-03-24 19:15:00,
2013-03-24 15:16:00,40.2,37.2,29.62,NNW,338,1.3,1.3,89,0.00,,,0.57,WUHU216HW,2013-03-24 19:16:00,
2013-03-24 15:17:00,40.2,37.2,29.62,NNW,338,1.3,1.3,89,0.00,,,0.57,WUHU216HW,2013-03-24 19:17:00,
2013-03-24 15:18:00,40.2,37.2,29.62,NNW,338,0.0,1.3,89,0.00,,,0.57,WUHU216HW,2013-03-24 19:18:00,
2013-03-24 15:19:00,40.2,37.2,29.62,NNW,338,0.0,1.3,89,0.00,,,0.57,WUHU216HW,2013-03-24 19:19:00,
2013-03-24 15:20:00,40.2,37.2,29.62,NNW,338,0.0,1.3,89,0.00,,,0.57,WUHU216HW,2013-03-24 19:20:00,
2013-03-24 15:21:00,40.2,37.2,29.62,NNW,338,0.0,1.3,89,0.00,,,0.57,WUHU216HW,2013-03-24 19:21:00,
2013-03-24 15:22:00,40.2,37.2,29.62,NNW,338,0.0,1.3,89,0.00,,,0.57,WUHU216HW,2013-03-24 19:22:00,
2013-03-24 15:23:00,40.2,37.2,29.62,NNW,338,0.0,1.3,89,0.00,,,0.57,WUHU216HW,2013-03-24 19:23:00,
2013-03-24 15:24:00,40.2,37.2,29.62,NNW,338,0.0,1.3,89,0.00,,,0.57,WUHU216HW,2013-03-24 19:24:00,
2013-03-24 15:25:00,40.2,37.2,29.62,NNW,338,0.0,1.3,89,0.00,,,0.57,WUHU216HW,2013-03-24 19:25:00,
2013-03-24 15:26:00,40.2,37.2,29.62,NNW,338,0.0,1.3,89,0.00,,,0.57,WUHU216HW,2013-03-24 19:26:00,
2013-03-24 15:27:00,40.2,37.2,29.63,NNW,338,0.0,1.3,89,0.00,,,0.57,WUHU216HW,2013-03-24 19:27:00,
2013-03-24 15:28:00,40.2,37.2,29.63,NNW,338,0.0,0.0,89,0.00,,,0.57,WUHU216HW,2013-03-24 19:28:00,
2013-03-24 15:29:00,40.2,37.2,29.63,North,0,0.0,0.0,89,0.00,,,0.57,WUHU216HW,2013-03-24 19:29:00,
2013-03-24 15:30:00,40.2,37.2,29.63,North,0,0.0,0.0,89,0.00,,,0.57,WUHU216HW,2013-03-24 19:30:00,
2013-03-24 15:31:00,40.2,37.2,29.63,NNW,338,0.0,0.0,89,0.00,,,0.57,WUHU216HW,2013-03-24 19:31:00,
2013-03-24 15:32:00,40.2,37.2,29.63,NNW,338,0.0,0.0,89,0.00,,,0.57,WUHU216HW,2013-03-24 19:32:00,
2013-03-24 15:33:00,40.2,37.2,29.63,NNW,338,0.0,0.0,89,0.00,,,0.57,WUHU216HW,2013-03-24 19:33:00,
2013-03-24 15:34:00,40.2,37.2,29.63,NNW,338,0.0,0.0,89,0.00,,,0.57,WUHU216HW,2013-03-24 19:34:00,
2013-03-24 15:35:00,40.2,37.2,29.63,NNW,338,0.0,0.0,89,0.00,,,0.57,WUHU216HW,2013-03-24 19:35:00,
2013-03-24 15:36:00,39.9,36.6,29.33,WSW,248,0.0,0.0,88,0.10,,,0.65,WUHU216HW,2013-03-24 19:36:00,
2013-03-24 15:37:00,40.2,37.2,29.63,NNW,338,0.0,0.0,89,0.00,,,0.57,WUHU216HW,2013-03-24 19:37:00,
2013-03-24 15:38:00,40.2,37.2,29.63,NNW,338,0.0,0.0,89,0.00,,,0.57,WUHU216HW,2013-03-24 19:38:00,
2013-03-24 15:39:00,40.2,37.2,29.63,NNW,338,0.0,0.0,89,0.00,,,0.57,WUHU216HW,2013-03-24 19:39:00,
2013-03-24 15:40:00,40.2,37.2,29.63,NNW,338,0.0,0.0,89,0.00,,,0.57,WUHU216HW,2013-03-24 19:40:00,
2013-03-24 15:41:00,40.1,36.8,29.33,NNW,338,0.0,0.0,88,0.10,,,0.68,WUHU216HW,2013-03-24 19:41:00,
2013-03-24 15:43:00,40.4,37.4,29.63,NNW,338,0.0,0.0,89,0.00,,,0.57,WUHU216HW,2013-03-24 19:43:00,
2013-03-24 15:44:00,40.4,37.4,29.63,NNW,338,0.0,0.0,89,0.00,,,0.57,WUHU216HW,2013-03-24 19:44:00,
2013-03-24 15:45:00,40.4,37.4,29.63,NNW,338,0.0,0.0,89,0.00,,,0.57,WUHU216HW,2013-03-24 19:45:00,
2013-03-24 15:46:00,40.2,37.2,29.63,NNW,338,0.0,0.0,89,0.00,,,0.57,WUHU216HW,2013-03-24 19:46:00,
2013-03-24 15:47:00,40.1,36.8,29.32,NW,315,0.0,0.0,88,0.10,,,0.68,WUHU216HW,2013-03-24 19:47:00,
2013-03-24 15:48:00,40.2,37.2,29.62,NNW,338,0.0,0.0,89,0.00,,,0.57,WUHU216HW,2013-03-24 19:48:00,
2013-03-24 15:49:00,40.2,37.2,29.62,NNW,338,0.0,0.0,89,0.00,,,0.57,WUHU216HW,2013-03-24 19:49:00,
2013-03-24 15:50:00,40.4,37.4,29.62,WSW,248,0.0,0.0,89,0.00,,,0.57,WUHU216HW,2013-03-24 19:50:00,
2013-03-24 15:51:00,40.4,37.4,29.62,WSW,248,0.0,0.0,89,0.00,,,0.57,WUHU216HW,2013-03-24 19:51:00,
2013-03-24 15:52:00,40.6,37.6,29.62,WSW,248,0.0,0.0,89,0.00,,,0.57,WUHU216HW,2013-03-24 19:52:00,
2013-03-24 15:53:00,40.6,37.6,29.62,WSW,248,0.0,0.0,89,0.00,,,0.57,WUHU216HW,2013-03-24 19:53:00,
2013-03-24 15:54:00,40.6,37.6,29.62,ESE,113,0.0,0.0,89,0.00,,,0.57,WUHU216HW,2013-03-24 19:54:00,
2013-03-24 15:55:00,40.6,37.6,29.62,ESE,113,0.0,0.0,89,0.00,,,0.57,WUHU216HW,2013-03-24 19:55:00,
2013-03-24 15:56:00,40.6,37.6,29.63,ESE,113,0.0,0.0,89,0.00,,,0.57,WUHU216HW,2013-03-24 19:56:00,
2013-03-24 15:57:00,40.6,37.6,29.63,ESE,113,0.0,0.0,89,0.00,,,0.57,WUHU216HW,2013-03-24 19:57:00,
2013-03-24 15:58:00,40.6,37.6,29.62,ESE,113,0.0,0.0,89,0.00,,,0.57,WUHU216HW,2013-03-24 19:58:00,
2013-03-24 15:59:00,40.6,37.6,29.62,ESE,113,0.0,0.0,89,0.00,,,0.57,WUHU216HW,2013-03-24 19:59:00,
2013-03-24 16:00:00,40.6,37.6,29.62,ESE,113,0.0,0.0,89,0.00,,,0.57,WUHU216HW,2013-03-24 20:00:00,
2013-03-24 16:01:00,40.6,37.6,29.62,ESE,113,0.0,0.0,89,0.00,,,0.57,WUHU216HW,2013-03-24 20:01:00,
2013-03-24 16:02:00,40.6,37.6,29.63,ESE,113,0.0,0.0,89,0.00,,,0.57,WUHU216HW,2013-03-24 20:02:00,
2013-03-24 16:03:00,40.6,37.6,29.63,East,90,0.0,0.0,89,0.00,,,0.57,WUHU216HW,2013-03-24 20:03:00,
2013-03-24 16:04:00,40.6,37.6,29.63,East,90,0.0,0.0,89,0.00,,,0.57,WUHU216HW,2013-03-24 20:04:00,
2013-03-24 16:05:00,40.6,37.6,29.63,NNE,23,0.0,0.0,89,0.00,,,0.57,WUHU216HW,2013-03-24 20:05:00,
2013-03-24 16:06:00,40.6,37.6,29.63,NNE,23,0.0,0.0,89,0.00,,,0.57,WUHU216HW,2013-03-24 20:06:00,
2013-03-24 16:07:00,40.6,37.6,29.63,NNE,23,0.0,0.0,89,0.00,,,0.57,WUHU216HW,2013-03-24 20:07:00,
2013-03-24 16:08:00,40.6,37.6,29.63,NNE,23,0.0,0.0,89,0.00,,,0.57,WUHU216HW,2013-03-24 20:08:00,
2013-03-24 16:09:00,40.6,37.6,29.63,NNE,23,0.0,0.0,89,0.00,,,0.57,WUHU216HW,2013-03-24 20:09:00,
2013-03-24 16:10:00,40.8,37.8,29.63,NNE,23,0.0,0.0,89,0.00,,,0.57,WUHU216HW,2013-03-24 20:10:00,
2013-03-24 16:11:00,39.9,36.6,29.29,NE,45,3.8,3.8,88,0.10,,,0.70,WUHU216HW,2013-03-24 20:11:00,
2013-03-24 16:12:00,40.8,37.8,29.63,NNE,23,0.0,0.0,89,0.00,,,0.57,WUHU216HW,2013-03-24 20:12:00,
2013-03-24 16:13:00,40.8,37.8,29.63,NNE,23,0.0,0.0,89,0.00,,,0.57,WUHU216HW,2013-03-24 20:13:00,
2013-03-24 16:14:00,40.8,37.8,29.64,NNE,23,0.0,0.0,89,0.00,,,0.57,WUHU216HW,2013-03-24 20:14:00,
2013-03-24 16:15:00,40.8,37.8,29.63,NNE,23,0.0,0.0,89,0.00,,,0.57,WUHU216HW,2013-03-24 20:15:00,
2013-03-24 16:16:00,40.8,37.8,29.64,NNE,23,0.0,0.0,89,0.00,,,0.57,WUHU216HW,2013-03-24 20:16:00,
2013-03-24 16:17:00,40.8,37.8,29.64,NNE,23,0.0,0.0,89,0.00,,,0.57,WUHU216HW,2013-03-24 20:17:00,
2013-03-24 16:18:00,41.0,37.9,29.64,NNE,23,0.0,0.0,89,0.00,,,0.57,WUHU216HW,2013-03-24 20:18:00,
2013-03-24 16:19:00,41.0,37.9,29.64,NNE,23,0.0,0.0,89,0.00,,,0.57,WUHU216HW,2013-03-24 20:19:00,
2013-03-24 16:20:00,41.0,37.9,29.64,NNE,23,0.0,0.0,89,0.00,,,0.57,WUHU216HW,2013-03-24 20:20:00,
2013-03-24 16:21:00,41.1,38.1,29.64,NNE,23,0.0,0.0,89,0.00,,,0.57,WUHU216HW,2013-03-24 20:21:00,
2013-03-24 16:22:00,41.1,38.1,29.64,NNE,23,0.0,0.0,89,0.00,,,0.57,WUHU216HW,2013-03-24 20:22:00,
2013-03-24 16:23:00,41.1,38.1,29.64,NNE,23,0.0,0.0,89,0.00,,,0.57,WUHU216HW,2013-03-24 20:23:00,
2013-03-24 16:24:00,41.1,38.1,29.64,NNE,23,0.0,0.0,89,0.00,,,0.57,WUHU216HW,2013-03-24 20:24:00,
2013-03-24 16:25:00,41.1,38.1,29.64,NNE,23,0.0,0.0,89,0.00,,,0.57,WUHU216HW,2013-03-24 20:25:00,
2013-03-24 16:26:00,41.1,38.1,29.64,NNE,23,0.0,0.0,89,0.00,,,0.57,WUHU216HW,2013-03-24 20:26:00,
2013-03-24 16:27:00,41.1,38.1,29.65,NNE,23,0.0,0.0,89,0.00,,,0.57,WUHU216HW,2013-03-24 20:27:00,
2013-03-24 16:28:00,41.1,38.1,29.65,NNE,23,0.0,0.0,89,0.00,,,0.57,WUHU216HW,2013-03-24 20:28:00,
2013-03-24 16:29:00,41.1,38.1,29.65,NNE,23,0.0,0.0,89,0.00,,,0.57,WUHU216HW,2013-03-24 20:29:00,
2013-03-24 16:30:00,39.7,36.4,29.31,WNW,293,1.1,1.1,88,0.10,,,0.72,WUHU216HW,2013-03-24 20:30:00,
2013-03-24 16:31:00,41.3,38.3,29.65,NNE,23,0.0,0.0,89,0.00,,,0.57,WUHU216HW,2013-03-24 20:31:00,
2013-03-24 16:32:00,41.3,38.3,29.65,NNE,23,0.0,0.0,89,0.00,,,0.57,WUHU216HW,2013-03-24 20:32:00,
2013-03-24 16:33:00,41.3,38.3,29.65,NNE,23,0.0,0.0,89,0.00,,,0.57,WUHU216HW,2013-03-24 20:33:00,
2013-03-24 16:34:00,41.3,38.3,29.65,NNE,23,0.0,0.0,89,0.00,,,0.57,WUHU216HW,2013-03-24 20:34:00,
2013-03-24 16:35:00,41.3,38.3,29.65,NNE,23,0.0,0.0,89,0.00,,,0.57,WUHU216HW,2013-03-24 20:35:00,
2013-03-24 16:36:00,39.7,36.4,29.31,NW,315,0.0,1.1,88,0.10,,,0.72,WUHU216HW,2013-03-24 20:36:00,
2013-03-24 16:37:00,41.3,38.3,29.65,NNE,23,0.0,0.0,89,0.00,,,0.57,WUHU216HW,2013-03-24 20:37:00,
2013-03-24 16:38:00,41.3,38.3,29.65,NNE,23,0.0,0.0,89,0.00,,,0.57,WUHU216HW,2013-03-24 20:38:00,
2013-03-24 16:39:00,41.3,38.3,29.64,NNE,23,0.0,0.0,89,0.00,,,0.57,WUHU216HW,2013-03-24 20:39:00,
2013-03-24 16:40:00,41.3,38.3,29.64,North,0,0.0,0.0,89,0.00,,,0.57,WUHU216HW,2013-03-24 20:40:00,
2013-03-24 16:41:00,39.7,36.4,29.32,NNE,23,0.0,1.1,88,0.10,,,0.00,WUHU216HW,2013-03-24 20:41:00,
2013-03-24 16:42:00,41.3,38.3,29.64,North,0,0.0,0.0,89,0.00,,,0.57,WUHU216HW,2013-03-24 20:42:00,
2013-03-24 16:43:00,41.3,38.3,29.64,North,0,0.0,0.0,89,0.00,,,0.57,WUHU216HW,2013-03-24 20:43:00,
2013-03-24 16:44:00,41.5,38.5,29.65,North,0,0.0,0.0,89,0.00,,,0.57,WUHU216HW,2013-03-24 20:44:00,
2013-03-24 16:45:00,41.5,38.5,29.65,North,0,0.0,0.0,89,0.00,,,0.57,WUHU216HW,2013-03-24 20:45:00,
2013-03-24 16:46:00,39.7,36.4,29.33,WNW,293,3.1,3.1,88,0.10,,,0.00,WUHU216HW,2013-03-24 20:46:00,
2013-03-24 16:47:00,41.5,38.5,29.64,North,0,0.0,0.0,89,0.00,,,0.57,WUHU216HW,2013-03-24 20:47:00,
2013-03-24 16:48:00,41.5,38.5,29.65,North,0,0.0,0.0,89,0.00,,,0.57,WUHU216HW,2013-03-24 20:48:00,
2013-03-24 16:49:00,41.5,38.5,29.65,North,0,0.0,0.0,89,0.00,,,0.57,WUHU216HW,2013-03-24 20:49:00,
2013-03-24 16:50:00,41.5,38.5,29.65,North,0,0.0,0.0,89,0.00,,,0.57,WUHU216HW,2013-03-24 20:50:00,
2013-03-24 16:51:00,39.7,36.4,29.33,NW,315,0.0,3.1,88,0.10,,,0.00,WUHU216HW,2013-03-24 20:51:00,
2013-03-24 16:52:00,41.5,38.5,29.65,North,0,0.0,0.0,89,0.00,,,0.57,WUHU216HW,2013-03-24 20:52:00,
2013-03-24 16:53:00,41.7,38.7,29.65,North,0,0.0,0.0,89,0.00,,,0.57,WUHU216HW,2013-03-24 20:53:00,
2013-03-24 16:54:00,41.7,38.7,29.66,North,0,0.0,0.0,89,0.00,,,0.57,WUHU216HW,2013-03-24 20:54:00,
2013-03-24 16:55:00,41.7,38.7,29.66,North,0,0.0,0.0,89,0.00,,,0.57,WUHU216HW,2013-03-24 20:55:00,
2013-03-24 16:56:00,41.7,38.7,29.65,North,0,0.0,0.0,89,0.00,,,0.57,WUHU216HW,2013-03-24 20:56:00,
2013-03-24 16:57:00,41.5,38.5,29.65,North,0,0.0,0.0,89,0.00,,,0.57,WUHU216HW,2013-03-24 20:57:00,
2013-03-24 16:58:00,41.5,38.5,29.66,North,0,0.0,0.0,89,0.00,,,0.57,WUHU216HW,2013-03-24 20:58:00,
2013-03-24 16:59:00,41.7,38.7,29.65,North,0,0.0,0.0,89,0.00,,,0.57,WUHU216HW,2013-03-24 20:59:00,
2013-03-24 17:00:00,41.7,38.7,29.66,North,0,0.0,0.0,89,0.00,,,0.57,WUHU216HW,2013-03-24 21:00:00,
2013-03-24 17:01:00,41.7,38.7,29.66,North,0,0.0,0.0,89,0.00,,,0.57,WUHU216HW,2013-03-24 21:01:00,
2013-03-24 17:02:00,41.7,38.7,29.66,North,0,0.0,0.0,89,0.00,,,0.57,WUHU216HW,2013-03-24 21:02:00,
2013-03-24 17:03:00,41.7,38.7,29.66,North,0,0.0,0.0,89,0.00,,,0.57,WUHU216HW,2013-03-24 21:03:00,
2013-03-24 17:04:00,41.7,38.7,29.67,North,0,0.0,0.0,89,0.00,,,0.57,WUHU216HW,2013-03-24 21:04:00,
2013-03-24 17:05:00,39.5,36.2,29.35,NW,315,0.0,2.2,88,0.04,,,0.02,WUHU216HW,2013-03-24 21:05:00,
2013-03-24 17:06:00,41.7,38.7,29.66,North,0,0.0,0.0,89,0.00,,,0.57,WUHU216HW,2013-03-24 21:06:00,
2013-03-24 17:07:00,41.7,38.7,29.67,North,0,0.0,0.0,89,0.00,,,0.57,WUHU216HW,2013-03-24 21:07:00,
2013-03-24 17:08:00,41.7,38.7,29.67,North,0,0.0,0.0,89,0.00,,,0.57,WUHU216HW,2013-03-24 21:08:00,
2013-03-24 17:09:00,41.7,38.7,29.67,North,0,0.0,0.0,89,0.00,,,0.57,WUHU216HW,2013-03-24 21:09:00,
2013-03-24 17:10:00,41.9,38.8,29.66,North,0,0.0,0.0,89,0.00,,,0.57,WUHU216HW,2013-03-24 21:10:00,
2013-03-24 17:11:00,41.9,38.8,29.66,North,0,0.0,0.0,89,0.00,,,0.57,WUHU216HW,2013-03-24 21:11:00,
2013-03-24 17:12:00,39.5,36.2,29.35,WNW,293,0.0,0.0,88,0.04,,,0.02,WUHU216HW,2013-03-24 21:12:00,
2013-03-24 17:13:00,41.9,38.8,29.66,North,0,0.0,0.0,89,0.00,,,0.57,WUHU216HW,2013-03-24 21:13:00,
2013-03-24 17:14:00,41.9,38.8,29.66,North,0,0.0,0.0,89,0.00,,,0.57,WUHU216HW,2013-03-24 21:14:00,
2013-03-24 17:15:00,41.9,38.8,29.66,North,0,0.0,0.0,89,0.00,,,0.57,WUHU216HW,2013-03-24 21:15:00,
2013-03-24 17:16:00,42.0,39.0,29.66,North,0,0.0,0.0,89,0.00,,,0.57,WUHU216HW,2013-03-24 21:16:00,
2013-03-24 17:17:00,39.3,36.1,29.34,NE,45,0.0,0.0,88,0.06,,,0.04,WUHU216HW,2013-03-24 21:17:00,
2013-03-24 17:18:00,42.0,39.0,29.66,North,0,0.0,0.0,89,0.00,,,0.57,WUHU216HW,2013-03-24 21:18:00,
2013-03-24 17:19:00,42.2,39.2,29.66,North,0,0.0,0.0,89,0.00,,,0.57,WUHU216HW,2013-03-24 21:19:00,
2013-03-24 17:20:00,42.2,39.2,29.66,North,0,0.0,0.0,89,0.00,,,0.57,WUHU216HW,2013-03-24 21:20:00,
2013-03-24 17:21:00,42.2,39.2,29.66,North,0,0.0,0.0,89,0.00,,,0.57,WUHU216HW,2013-03-24 21:21:00,
2013-03-24 17:22:00,42.2,39.2,29.66,North,0,0.0,0.0,89,0.00,,,0.57,WUHU216HW,2013-03-24 21:22:00,
2013-03-24 17:23:00,39.3,36.1,29.34,WNW,293,0.0,0.0,88,0.06,,,0.04,WUHU216HW,2013-03-24 21:23:00,
2013-03-24 17:24:00,42.4,39.4,29.65,North,0,0.0,0.0,89,0.00,,,0.57,WUHU216HW,2013-03-24 21:24:00,
2013-03-24 17:25:00,42.4,39.4,29.65,North,0,0.0,0.0,89,0.00,,,0.57,WUHU216HW,2013-03-24 21:25:00,
2013-03-24 17:26:00,42.4,39.4,29.65,North,0,0.0,0.0,89,0.00,,,0.57,WUHU216HW,2013-03-24 21:26:00,
2013-03-24 17:27:00,42.4,39.4,29.65,North,0,0.0,0.0,89,0.00,,,0.57,WUHU216HW,2013-03-24 21:27:00,
2013-03-24 17:28:00,42.4,39.4,29.65,North,0,0.0,0.0,89,0.00,,,0.57,WUHU216HW,2013-03-24 21:28:00,
2013-03-24 17:29:00,39.3,36.1,29.34,NW,315,0.0,1.5,88,0.06,,,0.04,WUHU216HW,2013-03-24 21:29:00,
2013-03-24 17:30:00,42.4,39.4,29.66,North,0,0.0,0.0,89,0.00,,,0.57,WUHU216HW,2013-03-24 21:30:00,
2013-03-24 17:31:00,42.4,39.4,29.66,North,0,0.0,0.0,89,0.00,,,0.57,WUHU216HW,2013-03-24 21:31:00,
2013-03-24 17:32:00,42.6,39.6,29.66,North,0,0.0,0.0,89,0.00,,,0.57,WUHU216HW,2013-03-24 21:32:00,
2013-03-24 17:33:00,42.6,39.6,29.66,North,0,0.0,0.0,89,0.00,,,0.57,WUHU216HW,2013-03-24 21:33:00,
2013-03-24 17:34:00,42.6,39.6,29.66,North,0,0.0,0.0,89,0.00,,,0.57,WUHU216HW,2013-03-24 21:34:00,
2013-03-24 17:35:00,42.6,39.6,29.66,North,0,0.0,0.0,89,0.00,,,0.57,WUHU216HW,2013-03-24 21:35:00,
2013-03-24 17:36:00,42.6,39.6,29.66,North,0,0.0,0.0,89,0.00,,,0.57,WUHU216HW,2013-03-24 21:36:00,
2013-03-24 17:37:00,42.6,39.6,29.66,North,0,0.0,0.0,89,0.00,,,0.57,WUHU216HW,2013-03-24 21:37:00,
2013-03-24 17:38:00,42.8,39.7,29.67,North,0,0.0,0.0,89,0.00,,,0.57,WUHU216HW,2013-03-24 21:38:00,
2013-03-24 17:39:00,42.8,39.7,29.67,North,0,0.0,0.0,89,0.00,,,0.57,WUHU216HW,2013-03-24 21:39:00,
2013-03-24 17:40:00,42.6,39.6,29.67,North,0,0.0,0.0,89,0.00,,,0.57,WUHU216HW,2013-03-24 21:40:00,
2013-03-24 17:41:00,42.6,39.6,29.67,North,0,0.0,0.0,89,0.00,,,0.57,WUHU216HW,2013-03-24 21:41:00,
2013-03-24 17:42:00,42.8,39.7,29.67,North,0,0.0,0.0,89,0.00,,,0.57,WUHU216HW,2013-03-24 21:42:00,
2013-03-24 17:43:00,42.8,39.7,29.67,North,0,0.0,0.0,89,0.00,,,0.57,WUHU216HW,2013-03-24 21:43:00,
2013-03-24 17:44:00,42.8,39.7,29.67,North,0,0.0,0.0,89,0.00,,,0.57,WUHU216HW,2013-03-24 21:44:00,
2013-03-24 17:45:00,42.8,39.7,29.67,North,0,0.0,0.0,89,0.00,,,0.57,WUHU216HW,2013-03-24 21:45:00,
2013-03-24 17:46:00,42.8,39.7,29.67,North,0,0.0,0.0,89,0.00,,,0.57,WUHU216HW,2013-03-24 21:46:00,
2013-03-24 17:47:00,42.9,39.9,29.67,North,0,0.0,0.0,89,0.00,,,0.57,WUHU216HW,2013-03-24 21:47:00,
2013-03-24 17:48:00,42.9,39.9,29.67,North,0,0.0,0.0,89,0.00,,,0.57,WUHU216HW,2013-03-24 21:48:00,
2013-03-24 17:49:00,43.1,40.1,29.67,North,0,0.0,0.0,89,0.00,,,0.57,WUHU216HW,2013-03-24 21:49:00,
2013-03-24 17:50:00,43.1,40.1,29.66,North,0,0.0,0.0,89,0.00,,,0.57,WUHU216HW,2013-03-24 21:50:00,
2013-03-24 17:51:00,43.1,40.1,29.67,North,0,0.0,0.0,89,0.00,,,0.57,WUHU216HW,2013-03-24 21:51:00,
2013-03-24 17:52:00,43.1,40.1,29.67,North,0,0.0,0.0,89,0.00,,,0.57,WUHU216HW,2013-03-24 21:52:00,
2013-03-24 17:53:00,43.1,40.1,29.67,North,0,0.0,0.0,89,0.00,,,0.57,WUHU216HW,2013-03-24 21:53:00,
2013-03-24 17:54:00,43.1,40.1,29.67,North,0,0.0,0.0,89,0.00,,,0.57,WUHU216HW,2013-03-24 21:54:00,
2013-03-24 17:55:00,39.3,36.1,29.32,WNW,293,0.0,0.0,88,0.06,,,0.04,WUHU216HW,2013-03-24 21:55:00,
2013-03-24 17:56:00,42.9,39.9,29.66,NE,45,0.0,0.0,89,0.00,,,0.57,WUHU216HW,2013-03-24 21:56:00,
2013-03-24 17:57:00,43.1,40.1,29.66,ENE,68,0.0,0.0,89,0.00,,,0.57,WUHU216HW,2013-03-24 21:57:00,
2013-03-24 17:58:00,43.1,40.1,29.66,ENE,68,0.0,0.0,89,0.00,,,0.57,WUHU216HW,2013-03-24 21:58:00,
2013-03-24 17:59:00,43.1,40.1,29.66,ENE,68,0.0,0.0,89,0.00,,,0.57,WUHU216HW,2013-03-24 21:59:00,
2013-03-24 18:00:00,43.1,40.1,29.66,NE,45,0.0,0.0,89,0.00,,,0.57,WUHU216HW,2013-03-24 22:00:00,
2013-03-24 18:01:00,39.2,35.9,29.32,NE,45,0.0,0.0,88,0.02,,,0.04,WUHU216HW,2013-03-24 22:01:00,
2013-03-24 18:02:00,43.1,40.1,29.66,NNE,23,0.0,0.0,89,0.00,,,0.57,WUHU216HW,2013-03-24 22:02:00,
2013-03-24 18:03:00,43.1,40.1,29.67,NNE,23,0.0,0.0,89,0.00,,,0.57,WUHU216HW,2013-03-24 22:03:00,
2013-03-24 18:04:00,43.3,40.0,29.67,NNE,23,0.0,0.0,88,0.00,,,0.57,WUHU216HW,2013-03-24 22:04:00,
2013-03-24 18:05:00,43.3,40.0,29.67,NNE,23,0.0,0.0,88,0.00,,,0.57,WUHU216HW,2013-03-24 22:05:00,
2013-03-24 18:06:00,43.3,40.0,29.67,ENE,68,0.0,0.0,88,0.00,,,0.57,WUHU216HW,2013-03-24 22:06:00,
2013-03-24 18:07:00,43.3,40.0,29.66,ENE,68,0.0,0.0,88,0.00,,,0.57,WUHU216HW,2013-03-24 22:07:00,
2013-03-24 18:08:00,43.3,40.0,29.66,ENE,68,0.0,0.0,88,0.00,,,0.57,WUHU216HW,2013-03-24 22:08:00,
2013-03-24 18:09:00,43.3,40.0,29.67,ENE,68,0.0,0.0,88,0.00,,,0.57,WUHU216HW,2013-03-24 22:09:00,
2013-03-24 18:10:00,43.3,40.0,29.67,ENE,68,0.0,0.0,88,0.00,,,0.57,WUHU216HW,2013-03-24 22:10:00,
2013-03-24 18:11:00,43.5,40.2,29.67,ENE,68,0.0,0.0,88,0.00,,,0.57,WUHU216HW,2013-03-24 22:11:00,
2013-03-24 18:12:00,43.5,40.2,29.67,ENE,68,0.0,0.0,88,0.00,,,0.57,WUHU216HW,2013-03-24 22:12:00,
2013-03-24 18:13:00,43.5,40.2,29.67,ENE,68,0.0,0.0,88,0.00,,,0.57,WUHU216HW,2013-03-24 22:13:00,
2013-03-24 18:14:00,39.0,35.7,29.31,East,90,2.0,2.9,88,0.02,,,0.04,WUHU216HW,2013-03-24 22:14:00,
2013-03-24 18:15:00,43.7,40.3,29.68,ENE,68,0.0,0.0,88,0.00,,,0.57,WUHU216HW,2013-03-24 22:15:00,
2013-03-24 18:16:00,43.8,40.5,29.69,ENE,68,0.0,0.0,88,0.00,,,0.57,WUHU216HW,2013-03-24 22:16:00,
2013-03-24 18:17:00,43.8,40.5,29.69,ENE,68,0.0,0.0,88,0.00,,,0.57,WUHU216HW,2013-03-24 22:17:00,
2013-03-24 18:18:00,43.8,40.5,29.68,ENE,68,0.0,0.0,88,0.00,,,0.57,WUHU216HW,2013-03-24 22:18:00,
2013-03-24 18:19:00,43.8,40.5,29.69,ENE,68,0.0,0.0,88,0.00,,,0.57,WUHU216HW,2013-03-24 22:19:00,
2013-03-24 18:20:00,39.0,35.7,29.30,NE,45,5.3,5.3,88,0.02,,,0.04,WUHU216HW,2013-03-24 22:20:00,
2013-03-24 18:21:00,43.8,40.5,29.69,ENE,68,0.0,0.0,88,0.00,,,0.57,WUHU216HW,2013-03-24 22:21:00,
2013-03-24 18:22:00,43.8,40.5,29.69,ENE,68,0.0,0.0,88,0.00,,,0.57,WUHU216HW,2013-03-24 22:22:00,
2013-03-24 18:23:00,43.8,40.5,29.69,ENE,68,0.0,0.0,88,0.00,,,0.57,WUHU216HW,2013-03-24 22:23:00,
2013-03-24 18:24:00,43.8,40.5,29.69,ENE,68,0.0,0.0,88,0.00,,,0.57,WUHU216HW,2013-03-24 22:24:00,
2013-03-24 18:25:00,38.8,35.5,29.30,ENE,68,0.0,5.3,88,0.02,,,0.04,WUHU216HW,2013-03-24 22:25:00,
2013-03-24 18:26:00,43.8,40.5,29.69,ENE,68,0.0,0.0,88,0.00,,,0.57,WUHU216HW,2013-03-24 22:26:00,
2013-03-24 18:27:00,43.8,40.5,29.69,ENE,68,0.0,0.0,88,0.00,,,0.57,WUHU216HW,2013-03-24 22:27:00,
2013-03-24 18:28:00,43.8,40.5,29.69,ENE,68,0.0,0.0,88,0.00,,,0.57,WUHU216HW,2013-03-24 22:28:00,
2013-03-24 18:29:00,43.8,40.5,29.69,ENE,68,0.0,0.0,88,0.00,,,0.57,WUHU216HW,2013-03-24 22:29:00,
2013-03-24 18:30:00,43.8,40.5,29.69,ENE,68,0.0,0.0,88,0.00,,,0.57,WUHU216HW,2013-03-24 22:30:00,
2013-03-24 18:31:00,38.8,35.5,29.30,NE,45,4.4,4.4,88,0.02,,,0.04,WUHU216HW,2013-03-24 22:31:00,
2013-03-24 18:32:00,43.8,40.5,29.69,ENE,68,0.0,0.0,88,0.00,,,0.57,WUHU216HW,2013-03-24 22:32:00,
2013-03-24 18:33:00,43.8,40.5,29.69,ENE,68,0.0,0.0,88,0.00,,,0.57,WUHU216HW,2013-03-24 22:33:00,
2013-03-24 18:34:00,43.8,40.5,29.69,ENE,68,0.0,0.0,88,0.00,,,0.57,WUHU216HW,2013-03-24 22:34:00,
2013-03-24 18:35:00,43.8,40.5,29.69,ENE,68,0.0,0.0,88,0.00,,,0.57,WUHU216HW,2013-03-24 22:35:00,
2013-03-24 18:36:00,44.2,40.9,29.69,ENE,68,0.0,0.0,88,0.00,,,0.57,WUHU216HW,2013-03-24 22:36:00,
2013-03-24 18:37:00,38.8,35.5,29.30,WSW,248,0.0,5.1,88,0.02,,,0.04,WUHU216HW,2013-03-24 22:37:00,
2013-03-24 18:38:00,44.2,40.9,29.68,ENE,68,0.0,0.0,88,0.00,,,0.57,WUHU216HW,2013-03-24 22:38:00,
2013-03-24 18:39:00,44.2,40.9,29.69,ENE,68,0.0,0.0,88,0.00,,,0.57,WUHU216HW,2013-03-24 22:39:00,
2013-03-24 18:40:00,44.2,40.9,29.69,ENE,68,0.0,0.0,88,0.00,,,0.57,WUHU216HW,2013-03-24 22:40:00,
2013-03-24 18:41:00,44.2,40.9,29.69,ENE,68,0.0,0.0,88,0.00,,,0.57,WUHU216HW,2013-03-24 22:41:00,
2013-03-24 18:42:00,44.2,40.9,29.69,ENE,68,0.0,0.0,88,0.00,,,0.57,WUHU216HW,2013-03-24 22:42:00,
2013-03-24 18:43:00,38.8,35.5,29.30,NE,45,0.6,5.1,88,0.02,,,0.04,WUHU216HW,2013-03-24 22:43:00,
2013-03-24 18:44:00,44.2,40.9,29.69,ENE,68,0.0,0.0,88,0.00,,,0.57,WUHU216HW,2013-03-24 22:44:00,
2013-03-24 18:45:00,44.4,41.1,29.69,ENE,68,0.0,0.0,88,0.00,,,0.57,WUHU216HW,2013-03-24 22:45:00,
2013-03-24 18:46:00,44.4,41.1,29.69,ENE,68,0.0,0.0,88,0.00,,,0.57,WUHU216HW,2013-03-24 22:46:00,
2013-03-24 18:47:00,44.4,41.1,29.69,ENE,68,0.0,0.0,88,0.00,,,0.57,WUHU216HW,2013-03-24 22:47:00,
2013-03-24 18:48:00,38.8,35.2,29.29,ENE,68,0.4,4.0,87,0.02,,,0.04,WUHU216HW,2013-03-24 22:48:00,
2013-03-24 18:49:00,44.4,41.1,29.69,ENE,68,0.0,0.0,88,0.00,,,0.57,WUHU216HW,2013-03-24 22:49:00,
2013-03-24 18:50:00,44.4,41.1,29.69,ENE,68,0.0,0.0,88,0.00,,,0.57,WUHU216HW,2013-03-24 22:50:00,
2013-03-24 18:51:00,44.4,41.1,29.69,ENE,68,0.0,0.0,87,0.00,,,0.57,WUHU216HW,2013-03-24 22:51:00,
2013-03-24 18:52:00,44.4,41.1,29.69,ENE,68,0.0,0.0,87,0.00,,,0.57,WUHU216HW,2013-03-24 22:52:00,
2013-03-24 18:53:00,38.6,35.0,29.30,NNE,23,0.0,4.0,87,0.02,,,0.04,WUHU216HW,2013-03-24 22:53:00,
2013-03-24 18:54:00,44.4,41.1,29.69,ENE,68,0.0,0.0,87,0.00,,,0.57,WUHU216HW,2013-03-24 22:54:00,
2013-03-24 18:55:00,44.4,41.1,29.69,ENE,68,0.0,0.0,87,0.00,,,0.57,WUHU216HW,2013-03-24 22:55:00,
2013-03-24 18:56:00,44.4,41.1,29.69,ENE,68,0.0,0.0,87,0.00,,,0.57,WUHU216HW,2013-03-24 22:56:00,
2013-03-24 18:57:00,44.4,41.1,29.69,ENE,68,0.0,0.0,87,0.00,,,0.57,WUHU216HW,2013-03-24 22:57:00,
2013-03-24 18:58:00,44.7,41.4,29.69,ENE,68,0.0,0.0,88,0.00,,,0.57,WUHU216HW,2013-03-24 22:58:00,
2013-03-24 18:59:00,44.7,41.4,29.69,ENE,68,0.0,0.0,88,0.00,,,0.57,WUHU216HW,2013-03-24 22:59:00,
2013-03-24 19:00:00,38.6,35.0,29.30,ENE,68,0.0,2.9,87,0.00,,,0.04,WUHU216HW,2013-03-24 23:00:00,
2013-03-24 19:01:00,44.7,41.4,29.69,ENE,68,0.0,0.0,88,0.00,,,0.57,WUHU216HW,2013-03-24 23:01:00,
2013-03-24 19:02:00,44.7,41.4,29.69,ENE,68,0.0,0.0,88,0.00,,,0.57,WUHU216HW,2013-03-24 23:02:00,
2013-03-24 19:03:00,44.7,41.4,29.69,ENE,68,0.0,0.0,88,0.00,,,0.57,WUHU216HW,2013-03-24 23:03:00,
2013-03-24 19:04:00,44.7,41.4,29.69,ENE,68,0.0,0.0,88,0.00,,,0.57,WUHU216HW,2013-03-24 23:04:00,
2013-03-24 19:05:00,44.7,41.4,29.69,ENE,68,0.0,0.0,88,0.00,,,0.57,WUHU216HW,2013-03-24 23:05:00,
2013-03-24 19:06:00,44.7,41.4,29.69,ENE,68,0.0,0.0,88,0.00,,,0.57,WUHU216HW,2013-03-24 23:06:00,
2013-03-24 19:07:00,44.7,41.4,29.69,ENE,68,0.0,0.0,88,0.00,,,0.57,WUHU216HW,2013-03-24 23:07:00,
2013-03-24 19:08:00,44.9,41.6,29.69,ENE,68,0.0,0.0,88,0.00,,,0.57,WUHU216HW,2013-03-24 23:08:00,
2013-03-24 19:09:00,44.9,41.6,29.69,ENE,68,0.0,0.0,88,0.00,,,0.57,WUHU216HW,2013-03-24 23:09:00,
2013-03-24 19:10:00,44.9,41.6,29.69,ENE,68,0.0,0.0,88,0.00,,,0.57,WUHU216HW,2013-03-24 23:10:00,
2013-03-24 19:11:00,38.6,35.0,29.30,East,90,6.4,6.4,87,0.00,,,0.04,WUHU216HW,2013-03-24 23:11:00,
2013-03-24 19:12:00,44.9,41.6,29.69,ENE,68,0.0,0.0,88,0.00,,,0.57,WUHU216HW,2013-03-24 23:12:00,
2013-03-24 19:13:00,44.9,41.6,29.69,ENE,68,0.0,0.0,88,0.00,,,0.57,WUHU216HW,2013-03-24 23:13:00,
2013-03-24 19:14:00,44.9,41.6,29.69,ENE,68,0.0,0.0,88,0.00,,,0.57,WUHU216HW,2013-03-24 23:14:00,
2013-03-24 19:15:00,45.3,42.0,29.69,ENE,68,0.0,0.0,88,0.00,,,0.57,WUHU216HW,2013-03-24 23:15:00,
2013-03-24 19:16:00,45.3,42.0,29.69,ENE,68,0.0,0.0,88,0.00,,,0.57,WUHU216HW,2013-03-24 23:16:00,
2013-03-24 19:17:00,45.3,42.0,29.69,ENE,68,0.0,0.0,88,0.00,,,0.57,WUHU216HW,2013-03-24 23:17:00,
2013-03-24 19:18:00,45.3,42.0,29.69,ENE,68,0.0,0.0,88,0.00,,,0.57,WUHU216HW,2013-03-24 23:18:00,
2013-03-24 19:19:00,45.5,42.1,29.69,ENE,68,0.0,0.0,88,0.00,,,0.57,WUHU216HW,2013-03-24 23:19:00,
2013-03-24 19:20:00,45.5,42.1,29.69,ENE,68,0.0,0.0,88,0.00,,,0.57,WUHU216HW,2013-03-24 23:20:00,
2013-03-24 19:21:00,45.5,42.1,29.69,ENE,68,0.0,0.0,88,0.00,,,0.57,WUHU216HW,2013-03-24 23:21:00,
2013-03-24 19:22:00,45.6,42.0,29.69,ENE,68,0.0,0.0,87,0.00,,,0.57,WUHU216HW,2013-03-24 23:22:00,
2013-03-24 19:23:00,45.6,42.0,29.69,ENE,68,0.0,0.0,87,0.00,,,0.57,WUHU216HW,2013-03-24 23:23:00,
2013-03-24 19:24:00,38.4,34.9,29.30,NE,45,1.5,2.2,87,0.00,,,0.04,WUHU216HW,2013-03-24 23:24:00,
2013-03-24 19:25:00,46.0,42.4,29.69,ENE,68,0.0,0.0,87,0.00,,,0.57,WUHU216HW,2013-03-24 23:25:00,
2013-03-24 19:26:00,46.0,42.4,29.69,ENE,68,0.0,0.0,87,0.00,,,0.57,WUHU216HW,2013-03-24 23:26:00,
2013-03-24 19:27:00,46.0,42.4,29.69,ENE,68,0.0,0.0,87,0.00,,,0.57,WUHU216HW,2013-03-24 23:27:00,
2013-03-24 19:28:00,46.2,42.6,29.69,ENE,68,0.0,0.0,87,0.00,,,0.57,WUHU216HW,2013-03-24 23:28:00,
2013-03-24 19:29:00,38.4,34.9,29.30,NE,45,0.0,2.0,87,0.00,,,0.04,WUHU216HW,2013-03-24 23:29:00,
2013-03-24 19:30:00,46.4,42.7,29.69,NW,315,0.0,0.0,87,0.00,,,0.57,WUHU216HW,2013-03-24 23:30:00,
2013-03-24 19:31:00,46.4,42.7,29.69,NW,315,0.0,0.0,87,0.00,,,0.57,WUHU216HW,2013-03-24 23:31:00,
2013-03-24 19:32:00,46.2,42.6,29.69,NW,315,0.0,0.0,87,0.00,,,0.57,WUHU216HW,2013-03-24 23:32:00,
2013-03-24 19:33:00,46.2,42.6,29.69,NW,315,0.0,0.0,87,0.00,,,0.57,WUHU216HW,2013-03-24 23:33:00,
2013-03-24 19:34:00,38.4,34.9,29.30,ENE,68,2.2,2.2,87,0.00,,,0.04,WUHU216HW,2013-03-24 23:34:00,
2013-03-24 19:35:00,46.5,42.9,29.69,NW,315,0.0,0.0,87,0.00,,,0.57,WUHU216HW,2013-03-24 23:35:00,
2013-03-24 19:36:00,46.7,43.1,29.69,NW,315,0.0,0.0,87,0.00,,,0.57,WUHU216HW,2013-03-24 23:36:00,
2013-03-24 19:37:00,46.7,43.1,29.69,NW,315,0.0,0.0,87,0.00,,,0.57,WUHU216HW,2013-03-24 23:37:00,
2013-03-24 19:38:00,46.7,43.1,29.68,NW,315,0.0,0.0,87,0.00,,,0.57,WUHU216HW,2013-03-24 23:38:00,
2013-03-24 19:39:00,38.4,34.9,29.29,NE,45,4.0,4.0,87,0.00,,,0.04,WUHU216HW,2013-03-24 23:39:00,
2013-03-24 19:40:00,46.9,43.3,29.68,NNW,338,0.0,0.0,87,0.00,,,0.57,WUHU216HW,2013-03-24 23:40:00,
2013-03-24 19:41:00,47.1,43.1,29.69,NW,315,0.0,0.0,86,0.00,,,0.57,WUHU216HW,2013-03-24 23:41:00,
2013-03-24 19:42:00,47.1,43.1,29.69,NW,315,0.0,0.0,86,0.00,,,0.57,WUHU216HW,2013-03-24 23:42:00,
2013-03-24 19:43:00,47.4,43.5,29.69,NW,315,0.0,0.0,86,0.00,,,0.57,WUHU216HW,2013-03-24 23:43:00,
2013-03-24 19:44:00,38.4,34.9,29.30,NW,315,1.5,4.0,87,0.00,,,0.04,WUHU216HW,2013-03-24 23:44:00,
2013-03-24 19:45:00,47.8,44.1,29.68,NNW,338,0.0,0.0,87,0.00,,,0.57,WUHU216HW,2013-03-24 23:45:00,
2013-03-24 19:46:00,47.8,44.1,29.68,NNW,338,0.0,0.0,87,0.00,,,0.57,WUHU216HW,2013-03-24 23:46:00,
2013-03-24 19:47:00,48.0,44.3,29.68,NW,315,0.0,0.0,87,0.00,,,0.57,WUHU216HW,2013-03-24 23:47:00,
2013-03-24 19:48:00,48.0,44.3,29.68,NW,315,0.0,0.0,87,0.00,,,0.57,WUHU216HW,2013-03-24 23:48:00,
2013-03-24 19:49:00,48.3,44.3,29.68,NW,315,0.0,0.0,86,0.00,,,0.57,WUHU216HW,2013-03-24 23:49:00,
2013-03-24 19:50:00,48.3,44.3,29.68,NW,315,0.0,0.0,86,0.00,,,0.57,WUHU216HW,2013-03-24 23:50:00,
2013-03-24 19:51:00,38.3,34.7,29.30,NNE,23,0.8,6.9,87,0.00,,,0.04,WUHU216HW,2013-03-24 23:51:00,
2013-03-24 19:52:00,48.7,44.7,29.67,NW,315,0.0,0.0,86,0.00,,,0.57,WUHU216HW,2013-03-24 23:52:00,
2013-03-24 19:53:00,48.7,44.7,29.67,NW,315,0.0,0.0,86,0.00,,,0.57,WUHU216HW,2013-03-24 23:53:00,
2013-03-24 19:54:00,48.9,44.8,29.67,NNW,338,0.0,0.0,86,0.00,,,0.57,WUHU216HW,2013-03-24 23:54:00,
2013-03-24 19:55:00,48.9,44.8,29.67,NNW,338,0.0,0.0,86,0.00,,,0.57,WUHU216HW,2013-03-24 23:55:00,
2013-03-24 19:56:00,38.3,34.7,29.30,NE,45,0.0,3.8,86,0.00,,,0.04,WUHU216HW,2013-03-24 23:56:00,
2013-03-24 19:57:00,49.2,44.9,29.67,NNW,338,0.0,0.0,85,0.00,,,0.57,WUHU216HW,2013-03-24 23:57:00,
2013-03-24 19:58:00,49.6,45.2,29.67,NNW,338,0.0,0.0,85,0.00,,,0.57,WUHU216HW,2013-03-24 23:58:00,
2013-03-24 19:59:00,49.6,45.2,29.68,NNW,338,0.0,0.0,85,0.00,,,0.57,WUHU216HW,2013-03-24 23:59:00,
2013-03-24 20:00:00,49.8,45.4,29.68,West,270,0.0,0.0,85,0.00,,,0.57,WUHU216HW,2013-03-25 00:00:00,
2013-03-24 20:01:00,49.8,45.4,29.68,West,270,0.0,0.0,85,0.00,,,0.57,WUHU216HW,2013-03-25 00:01:00,
2013-03-24 20:02:00,38.3,34.7,29.30,NE,45,0.0,3.8,86,0.00,,,0.04,WUHU216HW,2013-03-25 00:02:00,
2013-03-24 20:03:00,50.1,45.4,29.68,West,270,0.0,0.0,84,0.00,,,0.57,WUHU216HW,2013-03-25 00:03:00,
2013-03-24 20:04:00,50.1,45.4,29.68,West,270,0.0,0.0,84,0.00,,,0.57,WUHU216HW,2013-03-25 00:04:00,
2013-03-24 20:05:00,50.3,45.3,29.68,WNW,293,0.0,0.0,83,0.00,,,0.57,WUHU216HW,2013-03-25 00:05:00,
2013-03-24 20:06:00,50.3,45.3,29.68,WNW,293,0.0,0.0,83,0.00,,,0.57,WUHU216HW,2013-03-25 00:06:00,
2013-03-24 20:07:00,38.3,34.7,29.31,ENE,68,0.0,0.0,86,0.00,,,0.04,WUHU216HW,2013-03-25 00:07:00,
2013-03-24 20:08:00,50.3,45.3,29.67,SSW,203,0.0,0.0,83,0.00,,,0.57,WUHU216HW,2013-03-25 00:08:00,
2013-03-24 20:10:00,50.5,45.8,29.67,SW,225,0.0,0.0,84,0.00,,,0.57,WUHU216HW,2013-03-25 00:10:00,
2013-03-24 20:12:00,38.3,34.7,29.31,NNE,23,0.0,0.0,86,0.00,,,0.04,WUHU216HW,2013-03-25 00:12:00,
2013-03-24 20:13:00,51.4,46.4,29.68,SW,225,0.0,0.0,83,0.00,,,0.57,WUHU216HW,2013-03-25 00:13:00,
2013-03-24 20:14:00,51.4,46.4,29.68,SW,225,0.0,0.0,83,0.00,,,0.57,WUHU216HW,2013-03-25 00:14:00,
2013-03-24 20:15:00,51.6,46.9,29.68,SW,225,0.0,0.0,84,0.00,,,0.57,WUHU216HW,2013-03-25 00:15:00,
2013-03-24 20:16:00,51.6,46.9,29.68,SW,225,0.0,0.0,84,0.00,,,0.57,WUHU216HW,2013-03-25 00:16:00,
2013-03-24 20:17:00,38.3,34.7,29.32,ENE,68,0.0,0.0,86,0.00,,,0.04,WUHU216HW,2013-03-25 00:17:00,
2013-03-24 20:18:00,51.9,46.9,29.68,WSW,248,0.0,0.0,83,0.00,,,0.57,WUHU216HW,2013-03-25 00:18:00,
2013-03-24 20:19:00,51.9,46.9,29.68,WSW,248,0.0,0.0,83,0.00,,,0.57,WUHU216HW,2013-03-25 00:19:00,
2013-03-24 20:20:00,52.3,47.3,29.68,WSW,248,0.0,0.0,83,0.00,,,0.57,WUHU216HW,2013-03-25 00:20:00,
2013-03-24 20:21:00,52.5,47.1,29.68,SW,225,0.0,0.0,82,0.00,,,0.57,WUHU216HW,2013-03-25 00:21:00,
2013-03-24 20:22:00,38.3,34.7,29.32,North,0,0.0,2.9,86,0.00,,,0.04,WUHU216HW,2013-03-25 00:22:00,
2013-03-24 20:23:00,52.5,47.1,29.68,SW,225,0.0,0.0,82,0.00,,,0.57,WUHU216HW,2013-03-25 00:23:00,
2013-03-24 20:24:00,52.7,47.3,29.68,WSW,248,0.0,0.0,82,0.00,,,0.57,WUHU216HW,2013-03-25 00:24:00,
2013-03-24 20:25:00,52.7,47.3,29.68,WSW,248,0.0,0.0,82,0.00,,,0.57,WUHU216HW,2013-03-25 00:25:00,
2013-03-24 20:26:00,53.2,47.6,29.68,SW,225,0.0,0.0,81,0.00,,,0.57,WUHU216HW,2013-03-25 00:26:00,
2013-03-24 20:27:00,53.2,47.6,29.68,SW,225,0.0,0.0,81,0.00,,,0.57,WUHU216HW,2013-03-25 00:27:00,
2013-03-24 20:28:00,38.3,34.7,29.33,ENE,68,0.0,2.9,86,0.00,,,0.04,WUHU216HW,2013-03-25 00:28:00,
2013-03-24 20:29:00,53.6,47.6,29.68,WSW,248,0.0,0.0,80,0.00,,,0.57,WUHU216HW,2013-03-25 00:29:00,
2013-03-24 20:30:00,54.1,48.1,29.68,WSW,248,0.0,0.0,80,0.00,,,0.57,WUHU216HW,2013-03-25 00:30:00,
2013-03-24 20:31:00,54.1,48.1,29.67,WSW,248,0.0,0.0,80,0.00,,,0.57,WUHU216HW,2013-03-25 00:31:00,
2013-03-24 20:32:00,54.1,48.1,29.67,WSW,248,0.0,0.0,80,0.00,,,0.57,WUHU216HW,2013-03-25 00:32:00,
2013-03-24 20:33:00,54.1,48.1,29.67,West,270,0.0,0.0,79,0.00,,,0.57,WUHU216HW,2013-03-25 00:33:00,
2013-03-24 20:34:00,54.1,48.1,29.67,West,270,0.0,0.0,79,0.00,,,0.57,WUHU216HW,2013-03-25 00:34:00,
2013-03-24 20:35:00,53.9,47.6,29.67,West,270,0.0,0.0,79,0.00,,,0.57,WUHU216HW,2013-03-25 00:35:00,
2013-03-24 20:36:00,53.9,47.6,29.67,West,270,0.0,0.0,79,0.00,,,0.57,WUHU216HW,2013-03-25 00:36:00,
2013-03-24 20:37:00,54.1,47.4,29.67,NNE,23,0.0,0.0,78,0.00,,,0.57,WUHU216HW,2013-03-25 00:37:00,
2013-03-24 20:38:00,54.1,47.4,29.67,NNE,23,0.0,0.0,78,0.00,,,0.57,WUHU216HW,2013-03-25 00:38:00,
2013-03-24 20:39:00,38.3,34.7,29.33,ENE,68,0.0,1.1,86,0.00,,,0.04,WUHU216HW,2013-03-25 00:39:00,
2013-03-24 20:40:00,54.3,47.6,29.67,NW,315,0.0,0.0,78,0.00,,,0.57,WUHU216HW,2013-03-25 00:40:00,
2013-03-24 20:41:00,54.6,47.9,29.67,NW,315,0.0,0.0,78,0.00,,,0.57,WUHU216HW,2013-03-25 00:41:00,
2013-03-24 20:42:00,54.6,47.9,29.67,NW,315,0.0,0.0,78,0.00,,,0.57,WUHU216HW,2013-03-25 00:42:00,
2013-03-24 20:43:00,55.0,47.9,29.67,NNW,338,0.0,0.0,77,0.00,,,0.57,WUHU216HW,2013-03-25 00:43:00,
2013-03-24 20:44:00,55.0,47.9,29.67,NNW,338,0.0,0.0,77,0.00,,,0.57,WUHU216HW,2013-03-25 00:44:00,
2013-03-24 20:45:00,38.3,34.4,29.33,North,0,0.0,0.0,86,0.00,,,0.04,WUHU216HW,2013-03-25 00:45:00,
2013-03-24 20:46:00,55.0,47.9,29.67,NW,315,0.0,0.0,77,0.00,,,0.57,WUHU216HW,2013-03-25 00:46:00,
2013-03-24 20:47:00,55.0,47.9,29.67,NW,315,0.0,0.0,77,0.00,,,0.57,WUHU216HW,2013-03-25 00:47:00,
2013-03-24 20:48:00,55.2,47.7,29.67,West,270,0.0,0.0,76,0.00,,,0.57,WUHU216HW,2013-03-25 00:48:00,
2013-03-24 20:49:00,55.2,47.7,29.67,West,270,0.0,0.0,76,0.00,,,0.57,WUHU216HW,2013-03-25 00:49:00,
2013-03-24 20:50:00,38.3,34.4,29.33,ENE,68,0.0,2.6,86,0.00,,,0.04,WUHU216HW,2013-03-25 00:50:00,
2013-03-24 20:51:00,55.2,47.7,29.66,NNW,338,0.0,0.0,77,0.00,,,0.57,WUHU216HW,2013-03-25 00:51:00,
2013-03-24 20:52:00,55.5,48.0,29.66,NW,315,0.0,0.0,76,0.00,,,0.57,WUHU216HW,2013-03-25 00:52:00,
2013-03-24 20:53:00,55.5,48.0,29.66,NW,315,0.0,0.0,76,0.00,,,0.57,WUHU216HW,2013-03-25 00:53:00,
2013-03-24 20:54:00,55.7,47.9,29.66,East,90,0.0,0.0,75,0.00,,,0.57,WUHU216HW,2013-03-25 00:54:00,
2013-03-24 20:55:00,38.1,34.2,29.33,NNW,338,0.0,5.5,86,0.00,,,0.04,WUHU216HW,2013-03-25 00:55:00,
2013-03-24 20:56:00,55.9,48.4,29.66,ESE,113,0.0,0.0,76,0.00,,,0.57,WUHU216HW,2013-03-25 00:56:00,
2013-03-24 20:57:00,55.9,48.4,29.66,ESE,113,0.0,0.0,76,0.00,,,0.57,WUHU216HW,2013-03-25 00:57:00,
2013-03-24 20:58:00,55.9,48.4,29.66,ESE,113,0.0,0.0,76,0.00,,,0.57,WUHU216HW,2013-03-25 00:58:00,
2013-03-24 20:59:00,56.1,48.6,29.66,WNW,293,0.0,0.0,76,0.00,,,0.57,WUHU216HW,2013-03-25 00:59:00,
2013-03-24 21:00:00,38.1,34.2,29.33,NNW,338,0.0,2.6,86,0.00,,,0.04,WUHU216HW,2013-03-25 01:00:00,
2013-03-24 21:01:00,56.4,49.3,29.66,WNW,293,0.0,0.0,77,0.00,,,0.57,WUHU216HW,2013-03-25 01:01:00,
2013-03-24 21:02:00,56.4,49.3,29.66,WNW,293,0.0,0.0,77,0.00,,,0.57,WUHU216HW,2013-03-25 01:02:00,
2013-03-24 21:03:00,56.8,48.5,29.66,NW,315,0.0,0.0,74,0.00,,,0.57,WUHU216HW,2013-03-25 01:03:00,
2013-03-24 21:04:00,56.8,48.5,29.65,NW,315,0.0,0.0,74,0.00,,,0.57,WUHU216HW,2013-03-25 01:04:00,
2013-03-24 21:05:00,38.1,34.2,29.33,NE,45,2.2,4.9,86,0.00,,,0.04,WUHU216HW,2013-03-25 01:05:00,
2013-03-24 21:06:00,56.4,47.8,29.65,NW,315,0.0,0.0,73,0.00,,,0.57,WUHU216HW,2013-03-25 01:06:00,
2013-03-24 21:07:00,56.3,47.7,29.65,SSW,203,0.0,0.0,73,0.00,,,0.57,WUHU216HW,2013-03-25 01:07:00,
2013-03-24 21:08:00,56.3,47.7,29.65,SSW,203,0.0,0.0,73,0.00,,,0.57,WUHU216HW,2013-03-25 01:08:00,
2013-03-24 21:09:00,56.8,48.5,29.65,SE,135,0.0,0.0,74,0.00,,,0.57,WUHU216HW,2013-03-25 01:09:00,
2013-03-24 21:10:00,56.8,48.5,29.65,SE,135,0.0,0.0,74,0.00,,,0.57,WUHU216HW,2013-03-25 01:10:00,
2013-03-24 21:11:00,56.8,48.5,29.65,West,270,0.0,0.0,73,0.00,,,0.57,WUHU216HW,2013-03-25 01:11:00,
2013-03-24 21:12:00,56.8,48.5,29.65,West,270,0.0,0.0,73,0.00,,,0.57,WUHU216HW,2013-03-25 01:12:00,
2013-03-24 21:13:00,56.8,48.5,29.65,West,270,0.0,0.0,73,0.00,,,0.57,WUHU216HW,2013-03-25 01:13:00,
2013-03-24 21:14:00,57.0,48.0,29.65,East,90,0.0,0.0,72,0.00,,,0.57,WUHU216HW,2013-03-25 01:14:00,
2013-03-24 21:15:00,57.0,48.0,29.65,East,90,0.0,0.0,72,0.00,,,0.57,WUHU216HW,2013-03-25 01:15:00,
2013-03-24 21:16:00,57.2,48.9,29.65,SE,135,0.0,0.0,74,0.00,,,0.57,WUHU216HW,2013-03-25 01:16:00,
2013-03-24 21:17:00,57.2,48.9,29.65,SE,135,0.0,0.0,74,0.00,,,0.57,WUHU216HW,2013-03-25 01:17:00,
2013-03-24 21:18:00,57.7,49.4,29.65,SW,225,0.0,0.0,74,0.00,,,0.57,WUHU216HW,2013-03-25 01:18:00,
2013-03-24 21:19:00,57.7,49.4,29.65,SW,225,0.0,0.0,74,0.00,,,0.57,WUHU216HW,2013-03-25 01:19:00,
2013-03-24 21:20:00,58.1,48.7,29.65,WNW,293,0.0,0.0,71,0.00,,,0.57,WUHU216HW,2013-03-25 01:20:00,
2013-03-24 21:21:00,58.1,48.7,29.65,WNW,293,0.0,0.0,71,0.00,,,0.57,WUHU216HW,2013-03-25 01:21:00,
2013-03-24 21:22:00,58.2,48.9,29.65,West,270,0.0,0.0,71,0.00,,,0.57,WUHU216HW,2013-03-25 01:22:00,
2013-03-24 21:23:00,58.2,48.9,29.65,West,270,0.0,0.0,71,0.00,,,0.57,WUHU216HW,2013-03-25 01:23:00,
2013-03-24 21:24:00,38.1,34.2,29.35,ENE,68,0.0,2.6,86,0.00,,,0.04,WUHU216HW,2013-03-25 01:24:00,
2013-03-24 21:25:00,58.1,48.3,29.66,NE,45,0.0,0.0,70,0.00,,,0.57,WUHU216HW,2013-03-25 01:25:00,
2013-03-24 21:26:00,58.1,48.3,29.66,NE,45,0.0,0.0,70,0.00,,,0.57,WUHU216HW,2013-03-25 01:26:00,
2013-03-24 21:27:00,57.9,48.5,29.66,NW,315,0.0,0.0,71,0.00,,,0.57,WUHU216HW,2013-03-25 01:27:00,
2013-03-24 21:28:00,57.9,48.5,29.65,NW,315,0.0,0.0,71,0.00,,,0.57,WUHU216HW,2013-03-25 01:28:00,
2013-03-24 21:29:00,57.9,48.5,29.65,ENE,68,0.0,0.0,70,0.00,,,0.57,WUHU216HW,2013-03-25 01:29:00,
2013-03-24 21:30:00,38.1,34.2,29.33,NE,45,3.5,3.5,86,0.00,,,0.04,WUHU216HW,2013-03-25 01:30:00,
2013-03-24 21:31:00,57.7,48.3,29.65,NE,45,0.0,0.0,71,0.00,,,0.57,WUHU216HW,2013-03-25 01:31:00,
2013-03-24 21:32:00,57.7,48.3,29.65,NE,45,0.0,0.0,71,0.00,,,0.57,WUHU216HW,2013-03-25 01:32:00,
2013-03-24 21:33:00,57.9,48.5,29.65,SW,225,0.0,0.0,71,0.00,,,0.57,WUHU216HW,2013-03-25 01:33:00,
2013-03-24 21:34:00,57.9,48.5,29.65,SW,225,0.0,0.0,71,0.00,,,0.57,WUHU216HW,2013-03-25 01:34:00,
2013-03-24 21:35:00,38.1,34.2,29.33,WNW,293,0.0,3.5,86,0.00,,,0.04,WUHU216HW,2013-03-25 01:35:00,
2013-03-24 21:36:00,57.9,48.5,29.65,WSW,248,0.0,0.0,70,0.00,,,0.57,WUHU216HW,2013-03-25 01:36:00,
2013-03-24 21:37:00,57.9,48.5,29.64,South,180,0.0,0.0,70,0.00,,,0.57,WUHU216HW,2013-03-25 01:37:00,
2013-03-24 21:38:00,57.9,48.5,29.64,South,180,0.0,0.0,70,0.00,,,0.57,WUHU216HW,2013-03-25 01:38:00,
2013-03-24 21:39:00,57.9,48.5,29.64,South,180,0.0,0.0,70,0.00,,,0.57,WUHU216HW,2013-03-25 01:39:00,
2013-03-24 21:40:00,58.1,48.3,29.64,South,180,0.0,0.0,70,0.00,,,0.57,WUHU216HW,2013-03-25 01:40:00,
2013-03-24 21:41:00,58.2,48.1,29.64,WNW,293,0.0,0.0,69,0.00,,,0.57,WUHU216HW,2013-03-25 01:41:00,
2013-03-24 21:42:00,38.1,34.2,29.34,North,0,0.0,1.3,86,0.00,,,0.04,WUHU216HW,2013-03-25 01:42:00,
2013-03-24 21:43:00,58.2,48.1,29.64,WNW,293,0.0,0.0,69,0.00,,,0.57,WUHU216HW,2013-03-25 01:43:00,
2013-03-24 21:44:00,58.6,48.5,29.64,WNW,293,0.0,0.0,69,0.00,,,0.57,WUHU216HW,2013-03-25 01:44:00,
2013-03-24 21:45:00,58.6,48.5,29.64,WNW,293,0.0,0.0,69,0.00,,,0.57,WUHU216HW,2013-03-25 01:45:00,
2013-03-24 21:46:00,58.8,48.6,29.64,WNW,293,0.0,0.0,69,0.00,,,0.57,WUHU216HW,2013-03-25 01:46:00,
2013-03-24 21:47:00,38.1,34.2,29.34,WNW,293,0.0,1.3,86,0.00,,,0.04,WUHU216HW,2013-03-25 01:47:00,
2013-03-24 21:48:00,59.0,49.2,29.64,NNW,338,0.0,0.0,70,0.00,,,0.57,WUHU216HW,2013-03-25 01:48:00,
2013-03-24 21:49:00,59.0,49.2,29.64,NNW,338,0.0,0.0,70,0.00,,,0.57,WUHU216HW,2013-03-25 01:49:00,
2013-03-24 21:50:00,59.0,49.2,29.64,NNW,338,0.0,0.0,69,0.00,,,0.57,WUHU216HW,2013-03-25 01:50:00,
2013-03-24 21:51:00,59.0,49.2,29.64,NNW,338,0.0,0.0,69,0.00,,,0.57,WUHU216HW,2013-03-25 01:51:00,
2013-03-24 21:52:00,38.1,34.2,29.34,NE,45,1.1,1.1,86,0.00,,,0.04,WUHU216HW,2013-03-25 01:52:00,
2013-03-24 21:53:00,59.1,48.2,29.64,NNW,338,0.0,0.0,67,0.00,,,0.57,WUHU216HW,2013-03-25 01:53:00,
2013-03-24 21:54:00,59.3,49.2,29.64,ENE,68,0.0,0.0,69,0.00,,,0.57,WUHU216HW,2013-03-25 01:54:00,
2013-03-24 21:55:00,59.3,49.2,29.64,ENE,68,0.0,0.0,69,0.00,,,0.57,WUHU216HW,2013-03-25 01:55:00,
2013-03-24 21:56:00,60.0,48.7,29.64,ENE,68,0.0,0.0,66,0.00,,,0.57,WUHU216HW,2013-03-25 01:56:00,
2013-03-24 21:57:00,60.0,48.7,29.64,ENE,68,0.0,0.0,66,0.00,,,0.57,WUHU216HW,2013-03-25 01:57:00,
2013-03-24 21:58:00,38.1,34.2,29.34,NW,315,0.0,1.1,86,0.00,,,0.04,WUHU216HW,2013-03-25 01:58:00,
2013-03-24 21:59:00,60.2,49.3,29.65,North,0,0.0,0.0,67,0.00,,,0.57,WUHU216HW,2013-03-25 01:59:00,
2013-03-24 22:00:00,60.2,49.3,29.65,North,0,0.0,0.0,67,0.00,,,0.57,WUHU216HW,2013-03-25 02:00:00,
2013-03-24 22:01:00,60.4,49.8,29.65,NE,45,0.0,0.0,68,0.00,,,0.57,WUHU216HW,2013-03-25 02:01:00,
2013-03-24 22:02:00,60.4,49.8,29.65,NE,45,0.0,0.0,68,0.00,,,0.57,WUHU216HW,2013-03-25 02:02:00,
2013-03-24 22:03:00,38.1,34.2,29.34,NNW,338,0.0,5.1,86,0.00,,,0.04,WUHU216HW,2013-03-25 02:03:00,
2013-03-24 22:04:00,60.4,49.8,29.65,NE,45,0.0,0.0,66,0.00,,,0.57,WUHU216HW,2013-03-25 02:04:00,
2013-03-24 22:05:00,60.4,49.8,29.65,ENE,68,0.0,0.0,66,0.00,,,0.57,WUHU216HW,2013-03-25 02:05:00,
2013-03-24 22:06:00,60.4,49.8,29.65,ENE,68,0.0,0.0,66,0.00,,,0.57,WUHU216HW,2013-03-25 02:06:00,
2013-03-24 22:07:00,60.4,49.8,29.65,ENE,68,0.0,0.0,66,0.00,,,0.57,WUHU216HW,2013-03-25 02:07:00,
2013-03-24 22:08:00,37.9,34.0,29.35,NNW,338,0.0,5.1,86,0.00,,,0.04,WUHU216HW,2013-03-25 02:08:00,
2013-03-24 22:09:00,60.2,48.8,29.65,NE,45,0.0,0.0,66,0.00,,,0.57,WUHU216HW,2013-03-25 02:09:00,
2013-03-24 22:10:00,59.7,48.3,29.65,North,0,0.0,0.0,66,0.00,,,0.57,WUHU216HW,2013-03-25 02:10:00,
2013-03-24 22:11:00,59.7,48.3,29.65,North,0,0.0,0.0,66,0.00,,,0.57,WUHU216HW,2013-03-25 02:11:00,
2013-03-24 22:12:00,59.5,48.5,29.65,NNE,23,0.0,0.0,67,0.00,,,0.57,WUHU216HW,2013-03-25 02:12:00,
2013-03-24 22:13:00,38.1,34.2,29.35,NE,45,0.0,0.0,86,0.00,,,0.04,WUHU216HW,2013-03-25 02:13:00,
2013-03-24 22:14:00,59.7,49.1,29.65,NNE,23,0.0,0.0,68,0.00,,,0.57,WUHU216HW,2013-03-25 02:14:00,
2013-03-24 22:15:00,59.7,49.1,29.65,NNE,23,0.0,0.0,68,0.00,,,0.57,WUHU216HW,2013-03-25 02:15:00,
2013-03-24 22:16:00,59.7,49.1,29.65,NE,45,0.0,0.0,66,0.00,,,0.57,WUHU216HW,2013-03-25 02:16:00,
2013-03-24 22:17:00,59.7,49.1,29.65,NE,45,0.0,0.0,66,0.00,,,0.57,WUHU216HW,2013-03-25 02:17:00,
2013-03-24 22:18:00,38.1,34.2,29.35,North,0,0.0,0.0,86,0.00,,,0.04,WUHU216HW,2013-03-25 02:18:00,
2013-03-24 22:19:00,59.9,48.1,29.64,ENE,68,0.0,0.0,65,0.00,,,0.57,WUHU216HW,2013-03-25 02:19:00,
2013-03-24 22:20:00,59.7,48.3,29.64,NE,45,0.0,0.0,66,0.00,,,0.57,WUHU216HW,2013-03-25 02:20:00,
2013-03-24 22:21:00,59.7,48.3,29.64,NE,45,0.0,0.0,66,0.00,,,0.57,WUHU216HW,2013-03-25 02:21:00,
2013-03-24 22:22:00,59.7,48.3,29.64,NE,45,0.0,0.0,66,0.00,,,0.57,WUHU216HW,2013-03-25 02:22:00,
2013-03-24 22:23:00,38.1,34.2,29.36,North,0,0.0,0.0,86,0.00,,,0.04,WUHU216HW,2013-03-25 02:23:00,
2013-03-24 22:24:00,59.7,48.3,29.63,NE,45,0.0,0.0,67,0.00,,,0.57,WUHU216HW,2013-03-25 02:24:00,
2013-03-24 22:25:00,59.7,48.3,29.63,NE,45,0.0,0.0,65,0.00,,,0.57,WUHU216HW,2013-03-25 02:25:00,
2013-03-24 22:26:00,59.7,48.3,29.63,NE,45,0.0,0.0,65,0.00,,,0.57,WUHU216HW,2013-03-25 02:26:00,
2013-03-24 22:27:00,59.9,48.1,29.63,NE,45,0.0,0.0,65,0.00,,,0.57,WUHU216HW,2013-03-25 02:27:00,
2013-03-24 22:28:00,59.9,48.1,29.63,NE,45,0.0,0.0,65,0.00,,,0.57,WUHU216HW,2013-03-25 02:28:00,
2013-03-24 22:29:00,38.1,34.2,29.36,North,0,0.0,0.0,86,0.00,,,0.04,WUHU216HW,2013-03-25 02:29:00,
2013-03-24 22:30:00,59.9,48.1,29.63,ESE,113,0.0,0.0,65,0.00,,,0.57,WUHU216HW,2013-03-25 02:30:00,
2013-03-24 22:31:00,59.7,47.9,29.63,ESE,113,0.0,0.0,65,0.00,,,0.57,WUHU216HW,2013-03-25 02:31:00,
2013-03-24 22:32:00,59.7,47.9,29.64,ESE,113,0.0,0.0,65,0.00,,,0.57,WUHU216HW,2013-03-25 02:32:00,
2013-03-24 22:33:00,59.7,47.9,29.64,NE,45,0.0,0.0,65,0.00,,,0.57,WUHU216HW,2013-03-25 02:33:00,
2013-03-24 22:34:00,59.7,47.9,29.64,NE,45,0.0,0.0,65,0.00,,,0.57,WUHU216HW,2013-03-25 02:34:00,
2013-03-24 22:35:00,60.0,48.7,29.64,NE,45,0.0,0.0,66,0.00,,,0.57,WUHU216HW,2013-03-25 02:35:00,
2013-03-24 22:36:00,60.0,48.7,29.63,NE,45,0.0,0.0,66,0.00,,,0.57,WUHU216HW,2013-03-25 02:36:00,
2013-03-24 22:37:00,38.1,34.2,29.36,North,0,0.0,0.0,86,0.00,,,0.04,WUHU216HW,2013-03-25 02:37:00,
2013-03-24 22:38:00,60.4,48.6,29.63,ENE,68,0.0,0.0,65,0.00,,,0.57,WUHU216HW,2013-03-25 02:38:00,
2013-03-24 22:39:00,60.4,48.6,29.63,ENE,68,0.0,0.0,65,0.00,,,0.57,WUHU216HW,2013-03-25 02:39:00,
2013-03-24 22:40:00,60.6,48.8,29.63,NNE,23,0.0,0.0,65,0.00,,,0.57,WUHU216HW,2013-03-25 02:40:00,
2013-03-24 22:41:00,60.6,48.8,29.63,NNE,23,0.0,0.0,65,0.00,,,0.57,WUHU216HW,2013-03-25 02:41:00,
2013-03-24 22:42:00,38.3,34.4,29.35,North,0,0.0,0.0,86,0.00,,,0.04,WUHU216HW,2013-03-25 02:42:00,
2013-03-24 22:43:00,60.9,48.7,29.63,ENE,68,0.0,0.0,64,0.00,,,0.57,WUHU216HW,2013-03-25 02:43:00,
2013-03-24 22:44:00,60.9,48.7,29.63,NE,45,0.0,0.0,63,0.00,,,0.57,WUHU216HW,2013-03-25 02:44:00,
2013-03-24 22:45:00,60.9,48.7,29.63,NE,45,0.0,0.0,63,0.00,,,0.57,WUHU216HW,2013-03-25 02:45:00,
2013-03-24 22:46:00,61.1,48.9,29.63,NE,45,0.0,0.0,64,0.00,,,0.57,WUHU216HW,2013-03-25 02:46:00,
2013-03-24 22:47:00,38.3,34.4,29.35,North,0,0.0,0.0,86,0.00,,,0.04,WUHU216HW,2013-03-25 02:47:00,
2013-03-24 22:48:00,61.1,48.9,29.63,NE,45,0.0,0.0,64,0.00,,,0.57,WUHU216HW,2013-03-25 02:48:00,
2013-03-24 22:49:00,61.3,48.6,29.62,NE,45,0.0,0.0,63,0.00,,,0.57,WUHU216HW,2013-03-25 02:49:00,
2013-03-24 22:50:00,61.1,48.9,29.62,ENE,68,0.0,0.0,64,0.00,,,0.57,WUHU216HW,2013-03-25 02:50:00,
2013-03-24 22:51:00,61.1,48.9,29.62,ENE,68,0.0,0.0,64,0.00,,,0.57,WUHU216HW,2013-03-25 02:51:00,
2013-03-24 22:52:00,61.1,48.9,29.62,ENE,68,0.0,0.0,64,0.00,,,0.57,WUHU216HW,2013-03-25 02:52:00,
2013-03-24 22:53:00,60.8,48.1,29.62,NE,45,0.0,0.0,63,0.00,,,0.57,WUHU216HW,2013-03-25 02:53:00,
2013-03-24 22:54:00,38.3,34.4,29.34,North,0,0.0,0.0,86,0.00,,,0.04,WUHU216HW,2013-03-25 02:54:00,
2013-03-24 22:55:00,60.9,49.1,29.62,North,0,0.0,0.0,65,0.00,,,0.57,WUHU216HW,2013-03-25 02:55:00,
2013-03-24 22:56:00,60.9,49.1,29.62,North,0,0.0,0.0,65,0.00,,,0.57,WUHU216HW,2013-03-25 02:56:00,
2013-03-24 22:57:00,61.3,48.6,29.62,North,0,0.0,0.0,63,0.00,,,0.57,WUHU216HW,2013-03-25 02:57:00,
2013-03-24 22:58:00,61.3,48.6,29.62,North,0,0.0,0.0,63,0.00,,,0.57,WUHU216HW,2013-03-25 02:58:00,
2013-03-24 22:59:00,38.3,34.4,29.35,North,0,0.0,0.0,86,0.00,,,0.04,WUHU216HW,2013-03-25 02:59:00,
2013-03-24 23:00:00,62.2,49.8,29.62,North,0,0.0,0.0,64,0.00,,,0.57,WUHU216HW,2013-03-25 03:00:00,
2013-03-24 23:01:00,62.6,49.8,29.62,NNE,23,0.0,0.0,63,0.00,,,0.57,WUHU216HW,2013-03-25 03:01:00,
2013-03-24 23:02:00,62.6,49.8,29.62,NNE,23,0.0,0.0,63,0.00,,,0.57,WUHU216HW,2013-03-25 03:02:00,
2013-03-24 23:03:00,62.6,49.8,29.61,NNE,23,0.0,0.0,63,0.00,,,0.57,WUHU216HW,2013-03-25 03:03:00,
2013-03-24 23:04:00,38.3,34.4,29.33,North,0,0.0,0.0,86,0.00,,,0.04,WUHU216HW,2013-03-25 03:04:00,
2013-03-24 23:05:00,62.9,49.7,29.62,ENE,68,0.0,0.0,62,0.00,,,0.57,WUHU216HW,2013-03-25 03:05:00,
2013-03-24 23:06:00,63.1,49.8,29.62,ENE,68,0.0,0.0,62,0.00,,,0.57,WUHU216HW,2013-03-25 03:06:00,
2013-03-24 23:07:00,63.1,49.8,29.62,ENE,68,0.0,0.0,62,0.00,,,0.57,WUHU216HW,2013-03-25 03:07:00,
2013-03-24 23:08:00,62.9,48.4,29.62,ENE,68,0.0,0.0,59,0.00,,,0.57,WUHU216HW,2013-03-25 03:08:00,
2013-03-24 23:09:00,38.1,34.2,29.33,North,0,0.0,0.0,86,0.00,,,0.04,WUHU216HW,2013-03-25 03:09:00,
2013-03-24 23:10:00,62.4,48.4,29.62,ENE,68,0.0,0.0,60,0.00,,,0.57,WUHU216HW,2013-03-25 03:10:00,
2013-03-24 23:11:00,62.4,48.4,29.62,ENE,68,0.0,0.0,60,0.00,,,0.57,WUHU216HW,2013-03-25 03:11:00,
2013-03-24 23:12:00,62.2,49.0,29.61,ENE,68,0.0,0.0,62,0.00,,,0.57,WUHU216HW,2013-03-25 03:12:00,
2013-03-24 23:13:00,62.2,49.0,29.61,ENE,68,0.0,0.0,62,0.00,,,0.57,WUHU216HW,2013-03-25 03:13:00,
2013-03-24 23:14:00,62.2,49.0,29.62,ENE,68,0.0,0.0,60,0.00,,,0.57,WUHU216HW,2013-03-25 03:14:00,
2013-03-24 23:15:00,38.1,34.2,29.33,North,0,0.0,0.0,86,0.00,,,0.04,WUHU216HW,2013-03-25 03:15:00,
2013-03-24 23:16:00,62.4,48.8,29.61,ENE,68,0.0,0.0,61,0.00,,,0.57,WUHU216HW,2013-03-25 03:16:00,
2013-03-24 23:17:00,62.4,48.8,29.61,ENE,68,0.0,0.0,61,0.00,,,0.57,WUHU216HW,2013-03-25 03:17:00,
2013-03-24 23:18:00,62.4,48.8,29.61,ENE,68,0.0,0.0,61,0.00,,,0.57,WUHU216HW,2013-03-25 03:18:00,
2013-03-24 23:19:00,62.4,48.8,29.61,NE,45,0.0,0.0,60,0.00,,,0.57,WUHU216HW,2013-03-25 03:19:00,
2013-03-24 23:20:00,38.1,34.2,29.32,NE,45,0.0,0.0,86,0.00,,,0.04,WUHU216HW,2013-03-25 03:20:00,
2013-03-24 23:21:00,62.6,48.5,29.61,ENE,68,0.0,0.0,60,0.00,,,0.57,WUHU216HW,2013-03-25 03:21:00,
2013-03-24 23:22:00,62.6,48.5,29.61,ENE,68,0.0,0.0,60,0.00,,,0.57,WUHU216HW,2013-03-25 03:22:00,
2013-03-24 23:23:00,62.4,48.4,29.61,ENE,68,0.0,0.0,60,0.00,,,0.57,WUHU216HW,2013-03-25 03:23:00,
2013-03-24 23:24:00,62.4,48.4,29.61,ENE,68,0.0,0.0,60,0.00,,,0.57,WUHU216HW,2013-03-25 03:24:00,
2013-03-24 23:25:00,38.1,34.2,29.31,ENE,68,0.0,0.0,86,0.00,,,0.04,WUHU216HW,2013-03-25 03:25:00,
2013-03-24 23:26:00,62.2,48.6,29.61,ENE,68,0.0,0.0,61,0.00,,,0.57,WUHU216HW,2013-03-25 03:26:00,
2013-03-24 23:27:00,61.8,48.3,29.61,East,90,0.0,0.0,61,0.00,,,0.57,WUHU216HW,2013-03-25 03:27:00,
2013-03-24 23:28:00,61.8,48.3,29.61,East,90,0.0,0.0,61,0.00,,,0.57,WUHU216HW,2013-03-25 03:28:00,
2013-03-24 23:29:00,61.7,48.1,29.61,East,90,0.0,0.0,61,0.00,,,0.57,WUHU216HW,2013-03-25 03:29:00,
2013-03-24 23:30:00,61.7,48.1,29.61,East,90,0.0,0.0,61,0.00,,,0.57,WUHU216HW,2013-03-25 03:30:00,
2013-03-24 23:31:00,61.5,48.0,29.61,East,90,0.0,0.0,61,0.00,,,0.57,WUHU216HW,2013-03-25 03:31:00,
2013-03-24 23:32:00,61.5,48.0,29.61,East,90,0.0,0.0,61,0.00,,,0.57,WUHU216HW,2013-03-25 03:32:00,
2013-03-24 23:33:00,37.9,34.0,29.30,ENE,68,0.0,0.0,86,0.00,,,0.04,WUHU216HW,2013-03-25 03:33:00,
2013-03-24 23:34:00,61.5,48.0,29.61,East,90,0.0,0.0,62,0.00,,,0.57,WUHU216HW,2013-03-25 03:34:00,
2013-03-24 23:35:00,61.5,48.0,29.61,East,90,0.0,0.0,62,0.00,,,0.57,WUHU216HW,2013-03-25 03:35:00,
2013-03-24 23:36:00,61.5,48.0,29.61,ESE,113,0.0,0.0,61,0.00,,,0.57,WUHU216HW,2013-03-25 03:36:00,
2013-03-24 23:37:00,61.5,48.0,29.61,ESE,113,0.0,0.0,61,0.00,,,0.57,WUHU216HW,2013-03-25 03:37:00,
2013-03-24 23:38:00,37.9,34.0,29.31,NE,45,0.0,1.7,86,0.00,,,0.04,WUHU216HW,2013-03-25 03:38:00,
2013-03-24 23:39:00,61.5,48.0,29.61,ESE,113,0.0,0.0,61,0.00,,,0.57,WUHU216HW,2013-03-25 03:39:00,
2013-03-24 23:40:00,61.5,48.0,29.61,ESE,113,0.0,0.0,62,0.00,,,0.57,WUHU216HW,2013-03-25 03:40:00,
2013-03-24 23:41:00,61.5,48.0,29.61,ESE,113,0.0,0.0,62,0.00,,,0.57,WUHU216HW,2013-03-25 03:41:00,
2013-03-24 23:42:00,61.5,48.0,29.61,East,90,0.0,0.0,61,0.00,,,0.57,WUHU216HW,2013-03-25 03:42:00,
2013-03-24 23:43:00,37.9,34.0,29.30,NE,45,0.0,1.7,86,0.00,,,0.04,WUHU216HW,2013-03-25 03:43:00,
2013-03-24 23:44:00,61.7,48.1,29.61,ENE,68,0.0,0.0,61,0.00,,,0.57,WUHU216HW,2013-03-25 03:44:00,
2013-03-24 23:45:00,61.7,48.1,29.61,ENE,68,0.0,0.0,61,0.00,,,0.57,WUHU216HW,2013-03-25 03:45:00,
2013-03-24 23:46:00,62.2,48.6,29.61,ENE,68,0.0,0.0,61,0.00,,,0.57,WUHU216HW,2013-03-25 03:46:00,
2013-03-24 23:47:00,62.2,48.6,29.61,ENE,68,0.0,0.0,61,0.00,,,0.57,WUHU216HW,2013-03-25 03:47:00,
2013-03-24 23:48:00,37.9,34.0,29.30,NE,45,0.0,0.0,86,0.00,,,0.04,WUHU216HW,2013-03-25 03:48:00,
2013-03-24 23:49:00,62.6,47.5,29.61,NE,45,0.0,0.0,58,0.00,,,0.57,WUHU216HW,2013-03-25 03:49:00,
2013-03-24 23:50:00,62.6,47.5,29.61,NE,45,0.0,0.0,58,0.00,,,0.57,WUHU216HW,2013-03-25 03:50:00,
2013-03-24 23:51:00,62.7,49.5,29.61,ENE,68,0.0,0.0,62,0.00,,,0.57,WUHU216HW,2013-03-25 03:51:00,
2013-03-24 23:52:00,62.7,49.5,29.61,ENE,68,0.0,0.0,62,0.00,,,0.57,WUHU216HW,2013-03-25 03:52:00,
2013-03-24 23:53:00,37.9,34.0,29.30,NE,45,0.0,0.0,86,0.00,,,0.04,WUHU216HW,2013-03-25 03:53:00,
2013-03-24 23:54:00,62.9,49.3,29.60,ENE,68,0.0,0.0,61,0.00,,,0.57,WUHU216HW,2013-03-25 03:54:00,
2013-03-24 23:55:00,62.4,47.9,29.60,ENE,68,0.0,0.0,59,0.00,,,0.57,WUHU216HW,2013-03-25 03:55:00,
2013-03-24 23:56:00,62.4,47.9,29.60,ENE,68,0.0,0.0,59,0.00,,,0.57,WUHU216HW,2013-03-25 03:56:00,
2013-03-24 23:57:00,62.4,47.9,29.60,ENE,68,0.0,0.0,60,0.00,,,0.57,WUHU216HW,2013-03-25 03:57:00,
2013-03-24 23:58:00,37.7,33.9,29.30,NE,45,0.0,0.0,86,0.00,,,0.04,WUHU216HW,2013-03-25 03:58:00,
2013-03-24 23:59:00,62.7,48.2,29.60,ENE,68,0.0,0.0,59,0.00,,,0.57,WUHU216HW,2013-03-25 03:59:00,